<?xml version="1.0" encoding="UTF-8" standalone="no" ?>
<gpx xmlns="http://www.topografix.com/GPX/1/1" xmlns:xsi="http://www.w3.org/2001/XMLSchema-instance" xsi:schemaLocation="http://www.topografix.com/GPX/1/1 http://www.topografix.com/GPX/1/1/gpx.xsd" version="1.1" creator="VisuGPX - https://www.visugpx.com">
  <metadata>
    <name>Mtp_Pignan_35km</name>
    <desc><![CDATA[départ cave coop celleneuve]]></desc>
  </metadata>
  <trk>
    <name><![CDATA[Mtp_Pignan_35km_1]]></name>
    <trkseg>
      <trkpt lat="43.61176" lon="3.82893">
        <ele>59.2</ele>
      </trkpt>
      <trkpt lat="43.61209" lon="3.82633">
        <ele>59.9</ele>
      </trkpt>
      <trkpt lat="43.61238" lon="3.82551">
        <ele>57.9</ele>
      </trkpt>
      <trkpt lat="43.61305" lon="3.82493">
        <ele>55.5</ele>
      </trkpt>
      <trkpt lat="43.61331" lon="3.82335">
        <ele>50.8</ele>
      </trkpt>
      <trkpt lat="43.61426" lon="3.82255">
        <ele>47.5</ele>
      </trkpt>
      <trkpt lat="43.61534" lon="3.82207">
        <ele>48.1</ele>
      </trkpt>
      <trkpt lat="43.61551" lon="3.82028">
        <ele>40.8</ele>
      </trkpt>
      <trkpt lat="43.6157" lon="3.81852">
        <ele>38.4</ele>
      </trkpt>
      <trkpt lat="43.61471" lon="3.81528">
        <ele>45.7</ele>
      </trkpt>
      <trkpt lat="43.61428" lon="3.81652">
        <ele>37.6</ele>
      </trkpt>
      <trkpt lat="43.61358" lon="3.81718">
        <ele>38.1</ele>
      </trkpt>
      <trkpt lat="43.61131" lon="3.81824">
        <ele>34.2</ele>
      </trkpt>
      <trkpt lat="43.60981" lon="3.81894">
        <ele>34.8</ele>
      </trkpt>
      <trkpt lat="43.60835" lon="3.81944">
        <ele>35</ele>
      </trkpt>
      <trkpt lat="43.60673" lon="3.81776">
        <ele>32.2</ele>
      </trkpt>
      <trkpt lat="43.60578" lon="3.81906">
        <ele>30.8</ele>
      </trkpt>
      <trkpt lat="43.60497" lon="3.81838">
        <ele>31.1</ele>
      </trkpt>
      <trkpt lat="43.60352" lon="3.81768">
        <ele>29</ele>
      </trkpt>
      <trkpt lat="43.60281" lon="3.81598">
        <ele>31.7</ele>
      </trkpt>
      <trkpt lat="43.60299" lon="3.81494">
        <ele>31</ele>
      </trkpt>
      <trkpt lat="43.6003" lon="3.81474">
        <ele>28.3</ele>
      </trkpt>
      <trkpt lat="43.60051" lon="3.81368">
        <ele>31.2</ele>
      </trkpt>
      <trkpt lat="43.59872" lon="3.81172">
        <ele>39.1</ele>
      </trkpt>
      <trkpt lat="43.59749" lon="3.80879">
        <ele>52.8</ele>
      </trkpt>
      <trkpt lat="43.59671" lon="3.80483">
        <ele>54.1</ele>
      </trkpt>
      <trkpt lat="43.59503" lon="3.80118">
        <ele>56.4</ele>
      </trkpt>
      <trkpt lat="43.59255" lon="3.80072">
        <ele>48.7</ele>
      </trkpt>
      <trkpt lat="43.59169" lon="3.79968">
        <ele>44.6</ele>
      </trkpt>
      <trkpt lat="43.59346" lon="3.7977">
        <ele>49.3</ele>
      </trkpt>
      <trkpt lat="43.59275" lon="3.79566">
        <ele>49.6</ele>
      </trkpt>
      <trkpt lat="43.59256" lon="3.79366">
        <ele>41.4</ele>
      </trkpt>
      <trkpt lat="43.59129" lon="3.79588">
        <ele>41.3</ele>
      </trkpt>
      <trkpt lat="43.58999" lon="3.79706">
        <ele>40.4</ele>
      </trkpt>
      <trkpt lat="43.58995" lon="3.79658">
        <ele>38.6</ele>
      </trkpt>
      <trkpt lat="43.59105" lon="3.79474">
        <ele>36.1</ele>
      </trkpt>
      <trkpt lat="43.59204" lon="3.79037">
        <ele>41.4</ele>
      </trkpt>
      <trkpt lat="43.59142" lon="3.78853">
        <ele>46</ele>
      </trkpt>
      <trkpt lat="43.59316" lon="3.78166">
        <ele>46.5</ele>
      </trkpt>
      <trkpt lat="43.59342" lon="3.77902">
        <ele>51.2</ele>
      </trkpt>
      <trkpt lat="43.59429" lon="3.77704">
        <ele>53.9</ele>
      </trkpt>
      <trkpt lat="43.5937" lon="3.77554">
        <ele>53.8</ele>
      </trkpt>
      <trkpt lat="43.59707" lon="3.77154">
        <ele>63.6</ele>
      </trkpt>
      <trkpt lat="43.59702" lon="3.77157">
        <ele>70.415932</ele>
        <time>2021-02-28T12:49:08Z</time>
      </trkpt>
      <trkpt lat="43.59691" lon="3.7715">
        <ele>70.672157</ele>
        <time>2021-02-28T12:49:13Z</time>
      </trkpt>
      <trkpt lat="43.59678" lon="3.77143">
        <ele>70.905792</ele>
        <time>2021-02-28T12:49:18Z</time>
      </trkpt>
      <trkpt lat="43.59665" lon="3.77135">
        <ele>71.098663</ele>
        <time>2021-02-28T12:49:23Z</time>
      </trkpt>
      <trkpt lat="43.59652" lon="3.77127">
        <ele>71.258232</ele>
        <time>2021-02-28T12:49:28Z</time>
      </trkpt>
      <trkpt lat="43.59639" lon="3.7712">
        <ele>71.391785</ele>
        <time>2021-02-28T12:49:33Z</time>
      </trkpt>
      <trkpt lat="43.59625" lon="3.77112">
        <ele>71.571449</ele>
        <time>2021-02-28T12:49:38Z</time>
      </trkpt>
      <trkpt lat="43.59609" lon="3.77105">
        <ele>71.793617</ele>
        <time>2021-02-28T12:49:43Z</time>
      </trkpt>
      <trkpt lat="43.59594" lon="3.77096">
        <ele>72.012207</ele>
        <time>2021-02-28T12:49:48Z</time>
      </trkpt>
      <trkpt lat="43.59579" lon="3.77088">
        <ele>72.207031</ele>
        <time>2021-02-28T12:49:53Z</time>
      </trkpt>
      <trkpt lat="43.59563" lon="3.7708">
        <ele>72.459686</ele>
        <time>2021-02-28T12:49:58Z</time>
      </trkpt>
      <trkpt lat="43.59549" lon="3.77073">
        <ele>72.577515</ele>
        <time>2021-02-28T12:50:03Z</time>
      </trkpt>
      <trkpt lat="43.59534" lon="3.77065">
        <ele>72.707687</ele>
        <time>2021-02-28T12:50:08Z</time>
      </trkpt>
      <trkpt lat="43.59519" lon="3.77059">
        <ele>72.875832</ele>
        <time>2021-02-28T12:50:13Z</time>
      </trkpt>
      <trkpt lat="43.59504" lon="3.77053">
        <ele>73.070236</ele>
        <time>2021-02-28T12:50:18Z</time>
      </trkpt>
      <trkpt lat="43.59489" lon="3.77045">
        <ele>73.290207</ele>
        <time>2021-02-28T12:50:23Z</time>
      </trkpt>
      <trkpt lat="43.59475" lon="3.77036">
        <ele>73.60376</ele>
        <time>2021-02-28T12:50:28Z</time>
      </trkpt>
      <trkpt lat="43.59463" lon="3.77026">
        <ele>73.974609</ele>
        <time>2021-02-28T12:50:33Z</time>
      </trkpt>
      <trkpt lat="43.5945" lon="3.77017">
        <ele>74.28727</ele>
        <time>2021-02-28T12:50:38Z</time>
      </trkpt>
      <trkpt lat="43.59436" lon="3.77009">
        <ele>74.447914</ele>
        <time>2021-02-28T12:50:43Z</time>
      </trkpt>
      <trkpt lat="43.59423" lon="3.77002">
        <ele>73.929848</ele>
        <time>2021-02-28T12:50:48Z</time>
      </trkpt>
      <trkpt lat="43.59407" lon="3.76995">
        <ele>72.115395</ele>
        <time>2021-02-28T12:50:53Z</time>
      </trkpt>
      <trkpt lat="43.59389" lon="3.76986">
        <ele>70.40316</ele>
        <time>2021-02-28T12:50:58Z</time>
      </trkpt>
      <trkpt lat="43.59372" lon="3.76976">
        <ele>67.80127</ele>
        <time>2021-02-28T12:51:03Z</time>
      </trkpt>
      <trkpt lat="43.59356" lon="3.76963">
        <ele>65.984505</ele>
        <time>2021-02-28T12:51:08Z</time>
      </trkpt>
      <trkpt lat="43.59341" lon="3.76948">
        <ele>65.875771</ele>
        <time>2021-02-28T12:51:13Z</time>
      </trkpt>
      <trkpt lat="43.59325" lon="3.76931">
        <ele>66.050209</ele>
        <time>2021-02-28T12:51:18Z</time>
      </trkpt>
      <trkpt lat="43.59307" lon="3.76917">
        <ele>66.077812</ele>
        <time>2021-02-28T12:51:23Z</time>
      </trkpt>
      <trkpt lat="43.59285" lon="3.76909">
        <ele>65.76535</ele>
        <time>2021-02-28T12:51:28Z</time>
      </trkpt>
      <trkpt lat="43.59261" lon="3.76899">
        <ele>64.791809</ele>
        <time>2021-02-28T12:51:33Z</time>
      </trkpt>
      <trkpt lat="43.59238" lon="3.76884">
        <ele>63.53389</ele>
        <time>2021-02-28T12:51:38Z</time>
      </trkpt>
      <trkpt lat="43.59214" lon="3.76872">
        <ele>62.106522</ele>
        <time>2021-02-28T12:51:43Z</time>
      </trkpt>
      <trkpt lat="43.59194" lon="3.76849">
        <ele>60.039509</ele>
        <time>2021-02-28T12:51:48Z</time>
      </trkpt>
      <trkpt lat="43.59184" lon="3.76822">
        <ele>57.935898</ele>
        <time>2021-02-28T12:51:53Z</time>
      </trkpt>
      <trkpt lat="43.59177" lon="3.76804">
        <ele>56.852005</ele>
        <time>2021-02-28T12:51:58Z</time>
      </trkpt>
      <trkpt lat="43.59163" lon="3.76781">
        <ele>56.204803</ele>
        <time>2021-02-28T12:52:03Z</time>
      </trkpt>
      <trkpt lat="43.59146" lon="3.7676">
        <ele>55.32579</ele>
        <time>2021-02-28T12:52:08Z</time>
      </trkpt>
      <trkpt lat="43.59126" lon="3.76744">
        <ele>54.515881</ele>
        <time>2021-02-28T12:52:13Z</time>
      </trkpt>
      <trkpt lat="43.59103" lon="3.76734">
        <ele>53.540287</ele>
        <time>2021-02-28T12:52:18Z</time>
      </trkpt>
      <trkpt lat="43.59078" lon="3.76726">
        <ele>52.525105</ele>
        <time>2021-02-28T12:52:23Z</time>
      </trkpt>
      <trkpt lat="43.59058" lon="3.76709">
        <ele>52.005779</ele>
        <time>2021-02-28T12:52:28Z</time>
      </trkpt>
      <trkpt lat="43.59042" lon="3.76685">
        <ele>52.083904</ele>
        <time>2021-02-28T12:52:33Z</time>
      </trkpt>
      <trkpt lat="43.59029" lon="3.76673">
        <ele>52.633118</ele>
        <time>2021-02-28T12:52:38Z</time>
      </trkpt>
      <trkpt lat="43.59019" lon="3.76662">
        <ele>52.815216</ele>
        <time>2021-02-28T12:52:43Z</time>
      </trkpt>
      <trkpt lat="43.59006" lon="3.76654">
        <ele>52.865376</ele>
        <time>2021-02-28T12:52:48Z</time>
      </trkpt>
      <trkpt lat="43.58993" lon="3.76642">
        <ele>52.813686</ele>
        <time>2021-02-28T12:52:53Z</time>
      </trkpt>
      <trkpt lat="43.58979" lon="3.7663">
        <ele>52.728283</ele>
        <time>2021-02-28T12:52:58Z</time>
      </trkpt>
      <trkpt lat="43.58973" lon="3.76619">
        <ele>52.614609</ele>
        <time>2021-02-28T12:53:03Z</time>
      </trkpt>
      <trkpt lat="43.58964" lon="3.76605">
        <ele>52.738037</ele>
        <time>2021-02-28T12:53:13Z</time>
      </trkpt>
      <trkpt lat="43.58954" lon="3.7659">
        <ele>52.911907</ele>
        <time>2021-02-28T12:53:23Z</time>
      </trkpt>
      <trkpt lat="43.58944" lon="3.76574">
        <ele>53.309368</ele>
        <time>2021-02-28T12:53:28Z</time>
      </trkpt>
      <trkpt lat="43.58934" lon="3.76558">
        <ele>53.646896</ele>
        <time>2021-02-28T12:53:33Z</time>
      </trkpt>
      <trkpt lat="43.58925" lon="3.76543">
        <ele>54.061626</ele>
        <time>2021-02-28T12:53:38Z</time>
      </trkpt>
      <trkpt lat="43.58916" lon="3.76526">
        <ele>54.523148</ele>
        <time>2021-02-28T12:53:43Z</time>
      </trkpt>
      <trkpt lat="43.58907" lon="3.76509">
        <ele>55.040409</ele>
        <time>2021-02-28T12:53:48Z</time>
      </trkpt>
      <trkpt lat="43.58897" lon="3.76491">
        <ele>55.486492</ele>
        <time>2021-02-28T12:53:53Z</time>
      </trkpt>
      <trkpt lat="43.58886" lon="3.76474">
        <ele>55.832226</ele>
        <time>2021-02-28T12:53:58Z</time>
      </trkpt>
      <trkpt lat="43.58877" lon="3.76458">
        <ele>56.050282</ele>
        <time>2021-02-28T12:54:03Z</time>
      </trkpt>
      <trkpt lat="43.58868" lon="3.76442">
        <ele>56.051144</ele>
        <time>2021-02-28T12:54:08Z</time>
      </trkpt>
      <trkpt lat="43.58852" lon="3.76422">
        <ele>55.92709</ele>
        <time>2021-02-28T12:54:13Z</time>
      </trkpt>
      <trkpt lat="43.58842" lon="3.76404">
        <ele>55.366653</ele>
        <time>2021-02-28T12:54:18Z</time>
      </trkpt>
      <trkpt lat="43.58832" lon="3.76388">
        <ele>54.986942</ele>
        <time>2021-02-28T12:54:23Z</time>
      </trkpt>
      <trkpt lat="43.58824" lon="3.76376">
        <ele>54.525097</ele>
        <time>2021-02-28T12:54:28Z</time>
      </trkpt>
      <trkpt lat="43.58817" lon="3.76369">
        <ele>54.236851</ele>
        <time>2021-02-28T12:54:33Z</time>
      </trkpt>
      <trkpt lat="43.58803" lon="3.76364">
        <ele>54.100079</ele>
        <time>2021-02-28T12:54:38Z</time>
      </trkpt>
      <trkpt lat="43.58789" lon="3.76355">
        <ele>53.704208</ele>
        <time>2021-02-28T12:54:43Z</time>
      </trkpt>
      <trkpt lat="43.58781" lon="3.76343">
        <ele>53.322651</ele>
        <time>2021-02-28T12:54:48Z</time>
      </trkpt>
      <trkpt lat="43.58765" lon="3.76317">
        <ele>53.244465</ele>
        <time>2021-02-28T12:55:33Z</time>
      </trkpt>
      <trkpt lat="43.58755" lon="3.76297">
        <ele>53.309246</ele>
        <time>2021-02-28T12:55:43Z</time>
      </trkpt>
      <trkpt lat="43.58745" lon="3.76278">
        <ele>53.462879</ele>
        <time>2021-02-28T12:55:48Z</time>
      </trkpt>
      <trkpt lat="43.58735" lon="3.76278">
        <ele>53.940022</ele>
        <time>2021-02-28T12:55:53Z</time>
      </trkpt>
      <trkpt lat="43.58719" lon="3.76293">
        <ele>53.603088</ele>
        <time>2021-02-28T12:56:03Z</time>
      </trkpt>
      <trkpt lat="43.58705" lon="3.76284">
        <ele>52.884624</ele>
        <time>2021-02-28T12:56:08Z</time>
      </trkpt>
      <trkpt lat="43.58695" lon="3.76269">
        <ele>52.552464</ele>
        <time>2021-02-28T12:56:13Z</time>
      </trkpt>
      <trkpt lat="43.58684" lon="3.76254">
        <ele>52.700825</ele>
        <time>2021-02-28T12:56:18Z</time>
      </trkpt>
      <trkpt lat="43.58674" lon="3.76236">
        <ele>52.938282</ele>
        <time>2021-02-28T12:56:23Z</time>
      </trkpt>
      <trkpt lat="43.58663" lon="3.76215">
        <ele>53.363049</ele>
        <time>2021-02-28T12:56:28Z</time>
      </trkpt>
      <trkpt lat="43.58654" lon="3.76193">
        <ele>53.817142</ele>
        <time>2021-02-28T12:56:33Z</time>
      </trkpt>
      <trkpt lat="43.58644" lon="3.76172">
        <ele>53.883469</ele>
        <time>2021-02-28T12:56:38Z</time>
      </trkpt>
      <trkpt lat="43.58632" lon="3.76149">
        <ele>53.865997</ele>
        <time>2021-02-28T12:56:43Z</time>
      </trkpt>
      <trkpt lat="43.58622" lon="3.76126">
        <ele>53.741238</ele>
        <time>2021-02-28T12:56:48Z</time>
      </trkpt>
      <trkpt lat="43.58613" lon="3.76104">
        <ele>53.691864</ele>
        <time>2021-02-28T12:56:53Z</time>
      </trkpt>
      <trkpt lat="43.58603" lon="3.76084">
        <ele>53.754536</ele>
        <time>2021-02-28T12:56:58Z</time>
      </trkpt>
      <trkpt lat="43.58595" lon="3.76063">
        <ele>53.811478</ele>
        <time>2021-02-28T12:57:03Z</time>
      </trkpt>
      <trkpt lat="43.58587" lon="3.76044">
        <ele>53.733856</ele>
        <time>2021-02-28T12:57:08Z</time>
      </trkpt>
      <trkpt lat="43.58581" lon="3.76028">
        <ele>53.520199</ele>
        <time>2021-02-28T12:57:13Z</time>
      </trkpt>
      <trkpt lat="43.58574" lon="3.76014">
        <ele>53.192471</ele>
        <time>2021-02-28T12:57:18Z</time>
      </trkpt>
      <trkpt lat="43.58567" lon="3.75997">
        <ele>52.81448</ele>
        <time>2021-02-28T12:57:23Z</time>
      </trkpt>
      <trkpt lat="43.58559" lon="3.75979">
        <ele>52.386692</ele>
        <time>2021-02-28T12:57:28Z</time>
      </trkpt>
      <trkpt lat="43.58551" lon="3.75959">
        <ele>52.104992</ele>
        <time>2021-02-28T12:57:33Z</time>
      </trkpt>
      <trkpt lat="43.58543" lon="3.7594">
        <ele>51.828785</ele>
        <time>2021-02-28T12:57:38Z</time>
      </trkpt>
      <trkpt lat="43.58534" lon="3.7592">
        <ele>51.839771</ele>
        <time>2021-02-28T12:57:43Z</time>
      </trkpt>
      <trkpt lat="43.58524" lon="3.759">
        <ele>52.189892</ele>
        <time>2021-02-28T12:57:48Z</time>
      </trkpt>
      <trkpt lat="43.58519" lon="3.75882">
        <ele>52.4967</ele>
        <time>2021-02-28T12:57:53Z</time>
      </trkpt>
      <trkpt lat="43.58514" lon="3.75872">
        <ele>52.746128</ele>
        <time>2021-02-28T12:57:58Z</time>
      </trkpt>
      <trkpt lat="43.58508" lon="3.75853">
        <ele>52.883549</ele>
        <time>2021-02-28T12:58:03Z</time>
      </trkpt>
      <trkpt lat="43.58499" lon="3.75836">
        <ele>52.982422</ele>
        <time>2021-02-28T12:58:08Z</time>
      </trkpt>
      <trkpt lat="43.58491" lon="3.7582">
        <ele>52.980957</ele>
        <time>2021-02-28T12:58:13Z</time>
      </trkpt>
      <trkpt lat="43.58483" lon="3.75802">
        <ele>52.983398</ele>
        <time>2021-02-28T12:58:18Z</time>
      </trkpt>
      <trkpt lat="43.58477" lon="3.75782">
        <ele>53.004803</ele>
        <time>2021-02-28T12:58:23Z</time>
      </trkpt>
      <trkpt lat="43.58485" lon="3.75766">
        <ele>53.039631</ele>
        <time>2021-02-28T12:58:28Z</time>
      </trkpt>
      <trkpt lat="43.58496" lon="3.75754">
        <ele>53.342419</ele>
        <time>2021-02-28T12:58:33Z</time>
      </trkpt>
      <trkpt lat="43.58506" lon="3.75743">
        <ele>54.135071</ele>
        <time>2021-02-28T12:58:38Z</time>
      </trkpt>
      <trkpt lat="43.58514" lon="3.75733">
        <ele>54.759857</ele>
        <time>2021-02-28T12:58:43Z</time>
      </trkpt>
      <trkpt lat="43.58523" lon="3.7572">
        <ele>55.345367</ele>
        <time>2021-02-28T12:58:48Z</time>
      </trkpt>
      <trkpt lat="43.58531" lon="3.75707">
        <ele>55.803467</ele>
        <time>2021-02-28T12:58:53Z</time>
      </trkpt>
      <trkpt lat="43.58537" lon="3.75695">
        <ele>56.423096</ele>
        <time>2021-02-28T12:58:58Z</time>
      </trkpt>
      <trkpt lat="43.58543" lon="3.75685">
        <ele>56.898926</ele>
        <time>2021-02-28T12:59:03Z</time>
      </trkpt>
      <trkpt lat="43.58548" lon="3.75675">
        <ele>57.309246</ele>
        <time>2021-02-28T12:59:08Z</time>
      </trkpt>
      <trkpt lat="43.58555" lon="3.75666">
        <ele>57.683758</ele>
        <time>2021-02-28T12:59:13Z</time>
      </trkpt>
      <trkpt lat="43.58561" lon="3.75658">
        <ele>58.108887</ele>
        <time>2021-02-28T12:59:18Z</time>
      </trkpt>
      <trkpt lat="43.58566" lon="3.7565">
        <ele>58.884521</ele>
        <time>2021-02-28T12:59:23Z</time>
      </trkpt>
      <trkpt lat="43.58575" lon="3.75635">
        <ele>59.552246</ele>
        <time>2021-02-28T13:00:18Z</time>
      </trkpt>
      <trkpt lat="43.58583" lon="3.75624">
        <ele>60.137775</ele>
        <time>2021-02-28T13:00:28Z</time>
      </trkpt>
      <trkpt lat="43.58591" lon="3.75613">
        <ele>61.190266</ele>
        <time>2021-02-28T13:00:33Z</time>
      </trkpt>
      <trkpt lat="43.58598" lon="3.75603">
        <ele>62.137207</ele>
        <time>2021-02-28T13:00:38Z</time>
      </trkpt>
      <trkpt lat="43.58606" lon="3.75595">
        <ele>62.952393</ele>
        <time>2021-02-28T13:00:43Z</time>
      </trkpt>
      <trkpt lat="43.58615" lon="3.75591">
        <ele>63.594059</ele>
        <time>2021-02-28T13:00:48Z</time>
      </trkpt>
      <trkpt lat="43.58624" lon="3.75588">
        <ele>64.552063</ele>
        <time>2021-02-28T13:00:53Z</time>
      </trkpt>
      <trkpt lat="43.58633" lon="3.75586">
        <ele>65.376396</ele>
        <time>2021-02-28T13:00:58Z</time>
      </trkpt>
      <trkpt lat="43.58641" lon="3.75586">
        <ele>66.180908</ele>
        <time>2021-02-28T13:01:03Z</time>
      </trkpt>
      <trkpt lat="43.5865" lon="3.75584">
        <ele>66.937904</ele>
        <time>2021-02-28T13:01:08Z</time>
      </trkpt>
      <trkpt lat="43.58659" lon="3.75583">
        <ele>67.631836</ele>
        <time>2021-02-28T13:01:13Z</time>
      </trkpt>
      <trkpt lat="43.58668" lon="3.75583">
        <ele>68.534508</ele>
        <time>2021-02-28T13:01:18Z</time>
      </trkpt>
      <trkpt lat="43.58675" lon="3.75582">
        <ele>69.330322</ele>
        <time>2021-02-28T13:01:23Z</time>
      </trkpt>
      <trkpt lat="43.58684" lon="3.7558">
        <ele>69.925133</ele>
        <time>2021-02-28T13:01:28Z</time>
      </trkpt>
      <trkpt lat="43.58694" lon="3.75576">
        <ele>70.807701</ele>
        <time>2021-02-28T13:01:33Z</time>
      </trkpt>
      <trkpt lat="43.58703" lon="3.75572">
        <ele>71.669518</ele>
        <time>2021-02-28T13:01:38Z</time>
      </trkpt>
      <trkpt lat="43.58712" lon="3.7557">
        <ele>72.569252</ele>
        <time>2021-02-28T13:01:43Z</time>
      </trkpt>
      <trkpt lat="43.5872" lon="3.75567">
        <ele>73.404785</ele>
        <time>2021-02-28T13:01:48Z</time>
      </trkpt>
      <trkpt lat="43.58729" lon="3.75565">
        <ele>73.989418</ele>
        <time>2021-02-28T13:01:53Z</time>
      </trkpt>
      <trkpt lat="43.58738" lon="3.75564">
        <ele>74.854164</ele>
        <time>2021-02-28T13:01:58Z</time>
      </trkpt>
      <trkpt lat="43.58748" lon="3.75562">
        <ele>75.722984</ele>
        <time>2021-02-28T13:02:03Z</time>
      </trkpt>
      <trkpt lat="43.58758" lon="3.7556">
        <ele>76.592041</ele>
        <time>2021-02-28T13:02:08Z</time>
      </trkpt>
      <trkpt lat="43.58766" lon="3.75558">
        <ele>77.440514</ele>
        <time>2021-02-28T13:02:13Z</time>
      </trkpt>
      <trkpt lat="43.58777" lon="3.75555">
        <ele>78.111084</ele>
        <time>2021-02-28T13:02:18Z</time>
      </trkpt>
      <trkpt lat="43.58788" lon="3.7555">
        <ele>79.224365</ele>
        <time>2021-02-28T13:02:23Z</time>
      </trkpt>
      <trkpt lat="43.58799" lon="3.75542">
        <ele>80.082031</ele>
        <time>2021-02-28T13:02:28Z</time>
      </trkpt>
      <trkpt lat="43.5881" lon="3.7553">
        <ele>81.089844</ele>
        <time>2021-02-28T13:02:33Z</time>
      </trkpt>
      <trkpt lat="43.58823" lon="3.75516">
        <ele>81.938805</ele>
        <time>2021-02-28T13:02:38Z</time>
      </trkpt>
      <trkpt lat="43.58835" lon="3.75499">
        <ele>82.849403</ele>
        <time>2021-02-28T13:02:43Z</time>
      </trkpt>
      <trkpt lat="43.58847" lon="3.75483">
        <ele>84.003571</ele>
        <time>2021-02-28T13:02:48Z</time>
      </trkpt>
      <trkpt lat="43.58859" lon="3.75469">
        <ele>84.553795</ele>
        <time>2021-02-28T13:02:53Z</time>
      </trkpt>
      <trkpt lat="43.5887" lon="3.75454">
        <ele>84.92765</ele>
        <time>2021-02-28T13:02:58Z</time>
      </trkpt>
      <trkpt lat="43.58882" lon="3.7544">
        <ele>85.466492</ele>
        <time>2021-02-28T13:03:03Z</time>
      </trkpt>
      <trkpt lat="43.58894" lon="3.75425">
        <ele>85.936775</ele>
        <time>2021-02-28T13:03:08Z</time>
      </trkpt>
      <trkpt lat="43.58905" lon="3.75409">
        <ele>86.243584</ele>
        <time>2021-02-28T13:03:13Z</time>
      </trkpt>
      <trkpt lat="43.58916" lon="3.75395">
        <ele>86.791222</ele>
        <time>2021-02-28T13:03:18Z</time>
      </trkpt>
      <trkpt lat="43.58927" lon="3.75381">
        <ele>87.179504</ele>
        <time>2021-02-28T13:03:23Z</time>
      </trkpt>
      <trkpt lat="43.58938" lon="3.75377">
        <ele>87.567116</ele>
        <time>2021-02-28T13:03:28Z</time>
      </trkpt>
      <trkpt lat="43.58952" lon="3.75388">
        <ele>87.948418</ele>
        <time>2021-02-28T13:03:33Z</time>
      </trkpt>
      <trkpt lat="43.58966" lon="3.75397">
        <ele>88.635185</ele>
        <time>2021-02-28T13:03:38Z</time>
      </trkpt>
      <trkpt lat="43.58981" lon="3.75408">
        <ele>90.035851</ele>
        <time>2021-02-28T13:03:43Z</time>
      </trkpt>
      <trkpt lat="43.58995" lon="3.75419">
        <ele>91.081673</ele>
        <time>2021-02-28T13:03:48Z</time>
      </trkpt>
      <trkpt lat="43.59007" lon="3.75431">
        <ele>91.827126</ele>
        <time>2021-02-28T13:03:53Z</time>
      </trkpt>
      <trkpt lat="43.5902" lon="3.75442">
        <ele>92.289543</ele>
        <time>2021-02-28T13:03:58Z</time>
      </trkpt>
      <trkpt lat="43.59032" lon="3.75451">
        <ele>92.795952</ele>
        <time>2021-02-28T13:04:03Z</time>
      </trkpt>
      <trkpt lat="43.59045" lon="3.75459">
        <ele>93.109215</ele>
        <time>2021-02-28T13:04:08Z</time>
      </trkpt>
      <trkpt lat="43.59058" lon="3.75468">
        <ele>93.527306</ele>
        <time>2021-02-28T13:04:13Z</time>
      </trkpt>
      <trkpt lat="43.59071" lon="3.75477">
        <ele>94.035278</ele>
        <time>2021-02-28T13:04:18Z</time>
      </trkpt>
      <trkpt lat="43.59084" lon="3.75486">
        <ele>94.698517</ele>
        <time>2021-02-28T13:04:23Z</time>
      </trkpt>
      <trkpt lat="43.59098" lon="3.75494">
        <ele>95.34446</ele>
        <time>2021-02-28T13:04:28Z</time>
      </trkpt>
      <trkpt lat="43.59109" lon="3.75488">
        <ele>95.75708</ele>
        <time>2021-02-28T13:04:33Z</time>
      </trkpt>
      <trkpt lat="43.59119" lon="3.75478">
        <ele>96.116951</ele>
        <time>2021-02-28T13:04:38Z</time>
      </trkpt>
      <trkpt lat="43.5913" lon="3.75469">
        <ele>96.352699</ele>
        <time>2021-02-28T13:04:43Z</time>
      </trkpt>
      <trkpt lat="43.5914" lon="3.7546">
        <ele>96.70459</ele>
        <time>2021-02-28T13:04:48Z</time>
      </trkpt>
      <trkpt lat="43.5915" lon="3.75451">
        <ele>97.11377</ele>
        <time>2021-02-28T13:04:53Z</time>
      </trkpt>
      <trkpt lat="43.59162" lon="3.75441">
        <ele>97.570961</ele>
        <time>2021-02-28T13:04:58Z</time>
      </trkpt>
      <trkpt lat="43.59172" lon="3.7543">
        <ele>98.440674</ele>
        <time>2021-02-28T13:05:03Z</time>
      </trkpt>
      <trkpt lat="43.59181" lon="3.75419">
        <ele>99.076317</ele>
        <time>2021-02-28T13:05:08Z</time>
      </trkpt>
      <trkpt lat="43.59192" lon="3.75412">
        <ele>99.806244</ele>
        <time>2021-02-28T13:05:13Z</time>
      </trkpt>
      <trkpt lat="43.59206" lon="3.754">
        <ele>100.380455</ele>
        <time>2021-02-28T13:05:18Z</time>
      </trkpt>
      <trkpt lat="43.59224" lon="3.75385">
        <ele>101.06427</ele>
        <time>2021-02-28T13:05:23Z</time>
      </trkpt>
      <trkpt lat="43.5924" lon="3.75371">
        <ele>101.741615</ele>
        <time>2021-02-28T13:05:28Z</time>
      </trkpt>
      <trkpt lat="43.59257" lon="3.75356">
        <ele>101.95163</ele>
        <time>2021-02-28T13:05:33Z</time>
      </trkpt>
      <trkpt lat="43.59273" lon="3.75343">
        <ele>102</ele>
        <time>2021-02-28T13:05:38Z</time>
      </trkpt>
      <trkpt lat="43.59288" lon="3.75328">
        <ele>102</ele>
        <time>2021-02-28T13:05:43Z</time>
      </trkpt>
      <trkpt lat="43.59304" lon="3.75313">
        <ele>102</ele>
        <time>2021-02-28T13:05:48Z</time>
      </trkpt>
      <trkpt lat="43.59321" lon="3.75298">
        <ele>101.851601</ele>
        <time>2021-02-28T13:05:53Z</time>
      </trkpt>
      <trkpt lat="43.59338" lon="3.75281">
        <ele>101.31076</ele>
        <time>2021-02-28T13:05:58Z</time>
      </trkpt>
      <trkpt lat="43.59356" lon="3.75268">
        <ele>100.965111</ele>
        <time>2021-02-28T13:06:03Z</time>
      </trkpt>
      <trkpt lat="43.59373" lon="3.75253">
        <ele>100.875359</ele>
        <time>2021-02-28T13:06:08Z</time>
      </trkpt>
      <trkpt lat="43.5939" lon="3.75238">
        <ele>101.066231</ele>
        <time>2021-02-28T13:06:13Z</time>
      </trkpt>
      <trkpt lat="43.59406" lon="3.75224">
        <ele>102.594536</ele>
        <time>2021-02-28T13:06:18Z</time>
      </trkpt>
      <trkpt lat="43.5942" lon="3.7521">
        <ele>104.216896</ele>
        <time>2021-02-28T13:06:23Z</time>
      </trkpt>
      <trkpt lat="43.59435" lon="3.75197">
        <ele>105.875343</ele>
        <time>2021-02-28T13:06:28Z</time>
      </trkpt>
      <trkpt lat="43.59448" lon="3.75185">
        <ele>108.4235</ele>
        <time>2021-02-28T13:06:33Z</time>
      </trkpt>
      <trkpt lat="43.59462" lon="3.75172">
        <ele>109.926758</ele>
        <time>2021-02-28T13:06:38Z</time>
      </trkpt>
      <trkpt lat="43.59476" lon="3.75159">
        <ele>110.281494</ele>
        <time>2021-02-28T13:06:43Z</time>
      </trkpt>
      <trkpt lat="43.59489" lon="3.75147">
        <ele>110.358154</ele>
        <time>2021-02-28T13:06:48Z</time>
      </trkpt>
      <trkpt lat="43.59503" lon="3.75136">
        <ele>110.605225</ele>
        <time>2021-02-28T13:06:53Z</time>
      </trkpt>
      <trkpt lat="43.59512" lon="3.75123">
        <ele>110.808189</ele>
        <time>2021-02-28T13:06:58Z</time>
      </trkpt>
      <trkpt lat="43.59514" lon="3.75102">
        <ele>110.930504</ele>
        <time>2021-02-28T13:07:03Z</time>
      </trkpt>
      <trkpt lat="43.59525" lon="3.75095">
        <ele>110.985107</ele>
        <time>2021-02-28T13:07:08Z</time>
      </trkpt>
      <trkpt lat="43.59534" lon="3.75084">
        <ele>111.205894</ele>
        <time>2021-02-28T13:07:13Z</time>
      </trkpt>
      <trkpt lat="43.59535" lon="3.75069">
        <ele>111.967445</ele>
        <time>2021-02-28T13:07:18Z</time>
      </trkpt>
      <trkpt lat="43.59533" lon="3.75055">
        <ele>112.010742</ele>
        <time>2021-02-28T13:07:23Z</time>
      </trkpt>
      <trkpt lat="43.59528" lon="3.75043">
        <ele>111.624916</ele>
        <time>2021-02-28T13:07:28Z</time>
      </trkpt>
      <trkpt lat="43.5952" lon="3.75028">
        <ele>111.285561</ele>
        <time>2021-02-28T13:07:33Z</time>
      </trkpt>
      <trkpt lat="43.59512" lon="3.75009">
        <ele>110.591492</ele>
        <time>2021-02-28T13:07:38Z</time>
      </trkpt>
      <trkpt lat="43.59504" lon="3.74989">
        <ele>110.120422</ele>
        <time>2021-02-28T13:07:43Z</time>
      </trkpt>
      <trkpt lat="43.59491" lon="3.74968">
        <ele>109.895264</ele>
        <time>2021-02-28T13:07:48Z</time>
      </trkpt>
      <trkpt lat="43.59475" lon="3.74943">
        <ele>109.767082</ele>
        <time>2021-02-28T13:07:53Z</time>
      </trkpt>
      <trkpt lat="43.59459" lon="3.74919">
        <ele>109.403931</ele>
        <time>2021-02-28T13:07:58Z</time>
      </trkpt>
      <trkpt lat="43.59439" lon="3.74912">
        <ele>109.144264</ele>
        <time>2021-02-28T13:08:03Z</time>
      </trkpt>
      <trkpt lat="43.59422" lon="3.74926">
        <ele>108.302246</ele>
        <time>2021-02-28T13:08:08Z</time>
      </trkpt>
      <trkpt lat="43.59407" lon="3.74931">
        <ele>105.49707</ele>
        <time>2021-02-28T13:08:13Z</time>
      </trkpt>
      <trkpt lat="43.59402" lon="3.74917">
        <ele>103.396484</ele>
        <time>2021-02-28T13:08:18Z</time>
      </trkpt>
      <trkpt lat="43.59397" lon="3.74898">
        <ele>102.018227</ele>
        <time>2021-02-28T13:08:23Z</time>
      </trkpt>
      <trkpt lat="43.59383" lon="3.74884">
        <ele>101.459473</ele>
        <time>2021-02-28T13:08:28Z</time>
      </trkpt>
      <trkpt lat="43.59366" lon="3.74863">
        <ele>98.374512</ele>
        <time>2021-02-28T13:08:33Z</time>
      </trkpt>
      <trkpt lat="43.59343" lon="3.74846">
        <ele>95.940575</ele>
        <time>2021-02-28T13:08:38Z</time>
      </trkpt>
      <trkpt lat="43.59337" lon="3.74831">
        <ele>94.932152</ele>
        <time>2021-02-28T13:08:43Z</time>
      </trkpt>
      <trkpt lat="43.59343" lon="3.74822">
        <ele>94.440086</ele>
        <time>2021-02-28T13:08:48Z</time>
      </trkpt>
      <trkpt lat="43.5935" lon="3.74809">
        <ele>94.307045</ele>
        <time>2021-02-28T13:08:53Z</time>
      </trkpt>
      <trkpt lat="43.59357" lon="3.74796">
        <ele>94.205727</ele>
        <time>2021-02-28T13:08:58Z</time>
      </trkpt>
      <trkpt lat="43.59367" lon="3.74784">
        <ele>94.114098</ele>
        <time>2021-02-28T13:09:03Z</time>
      </trkpt>
      <trkpt lat="43.59377" lon="3.74774">
        <ele>94.079834</ele>
        <time>2021-02-28T13:09:08Z</time>
      </trkpt>
      <trkpt lat="43.59385" lon="3.74761">
        <ele>94.463692</ele>
        <time>2021-02-28T13:09:13Z</time>
      </trkpt>
      <trkpt lat="43.59377" lon="3.74747">
        <ele>95.030846</ele>
        <time>2021-02-28T13:09:18Z</time>
      </trkpt>
      <trkpt lat="43.59367" lon="3.74739">
        <ele>94.553505</ele>
        <time>2021-02-28T13:09:23Z</time>
      </trkpt>
      <trkpt lat="43.59362" lon="3.74729">
        <ele>93.84774</ele>
        <time>2021-02-28T13:09:28Z</time>
      </trkpt>
      <trkpt lat="43.59359" lon="3.74716">
        <ele>93.708412</ele>
        <time>2021-02-28T13:09:33Z</time>
      </trkpt>
      <trkpt lat="43.59356" lon="3.74703">
        <ele>93.596375</ele>
        <time>2021-02-28T13:09:38Z</time>
      </trkpt>
      <trkpt lat="43.5935" lon="3.74696">
        <ele>93.461845</ele>
        <time>2021-02-28T13:09:43Z</time>
      </trkpt>
      <trkpt lat="43.59342" lon="3.74692">
        <ele>93.285645</ele>
        <time>2021-02-28T13:09:48Z</time>
      </trkpt>
      <trkpt lat="43.59336" lon="3.74689">
        <ele>93.071129</ele>
        <time>2021-02-28T13:09:53Z</time>
      </trkpt>
      <trkpt lat="43.5933" lon="3.74683">
        <ele>92.913086</ele>
        <time>2021-02-28T13:09:58Z</time>
      </trkpt>
      <trkpt lat="43.59324" lon="3.74671">
        <ele>92.602867</ele>
        <time>2021-02-28T13:10:03Z</time>
      </trkpt>
      <trkpt lat="43.59319" lon="3.74656">
        <ele>92.51693</ele>
        <time>2021-02-28T13:10:13Z</time>
      </trkpt>
      <trkpt lat="43.59311" lon="3.74641">
        <ele>92.40934</ele>
        <time>2021-02-28T13:10:18Z</time>
      </trkpt>
      <trkpt lat="43.593" lon="3.74624">
        <ele>92.199959</ele>
        <time>2021-02-28T13:10:23Z</time>
      </trkpt>
      <trkpt lat="43.59285" lon="3.74611">
        <ele>92.160683</ele>
        <time>2021-02-28T13:10:28Z</time>
      </trkpt>
      <trkpt lat="43.59271" lon="3.74621">
        <ele>92.41095</ele>
        <time>2021-02-28T13:10:33Z</time>
      </trkpt>
      <trkpt lat="43.59264" lon="3.7463">
        <ele>92.431488</ele>
        <time>2021-02-28T13:10:38Z</time>
      </trkpt>
      <trkpt lat="43.59249" lon="3.74649">
        <ele>92.057472</ele>
        <time>2021-02-28T13:10:53Z</time>
      </trkpt>
      <trkpt lat="43.59239" lon="3.74665">
        <ele>92</ele>
        <time>2021-02-28T13:11:03Z</time>
      </trkpt>
      <trkpt lat="43.59226" lon="3.74682">
        <ele>92.081017</ele>
        <time>2021-02-28T13:11:08Z</time>
      </trkpt>
      <trkpt lat="43.59208" lon="3.74677">
        <ele>93.056549</ele>
        <time>2021-02-28T13:11:13Z</time>
      </trkpt>
      <trkpt lat="43.59197" lon="3.74654">
        <ele>94.48568</ele>
        <time>2021-02-28T13:11:18Z</time>
      </trkpt>
      <trkpt lat="43.59189" lon="3.74634">
        <ele>96.501556</ele>
        <time>2021-02-28T13:11:23Z</time>
      </trkpt>
      <trkpt lat="43.59185" lon="3.74624">
        <ele>98.203072</ele>
        <time>2021-02-28T13:11:28Z</time>
      </trkpt>
      <trkpt lat="43.59186" lon="3.74621">
        <ele>99.107521</ele>
        <time>2021-02-28T13:11:33Z</time>
      </trkpt>
      <trkpt lat="43.5919" lon="3.74611">
        <ele>99.177086</ele>
        <time>2021-02-28T13:11:38Z</time>
      </trkpt>
      <trkpt lat="43.59198" lon="3.74601">
        <ele>98.967751</ele>
        <time>2021-02-28T13:11:43Z</time>
      </trkpt>
      <trkpt lat="43.59209" lon="3.74583">
        <ele>98.346214</ele>
        <time>2021-02-28T13:11:48Z</time>
      </trkpt>
      <trkpt lat="43.59213" lon="3.74573">
        <ele>97.810143</ele>
        <time>2021-02-28T13:11:53Z</time>
      </trkpt>
      <trkpt lat="43.59215" lon="3.74567">
        <ele>97.587456</ele>
        <time>2021-02-28T13:11:58Z</time>
      </trkpt>
      <trkpt lat="43.59204" lon="3.74592">
        <ele>97.563721</ele>
        <time>2021-02-28T13:12:08Z</time>
      </trkpt>
      <trkpt lat="43.59189" lon="3.74611">
        <ele>97.828094</ele>
        <time>2021-02-28T13:12:18Z</time>
      </trkpt>
      <trkpt lat="43.59175" lon="3.74632">
        <ele>99.031189</ele>
        <time>2021-02-28T13:12:23Z</time>
      </trkpt>
      <trkpt lat="43.59163" lon="3.74648">
        <ele>100.140526</ele>
        <time>2021-02-28T13:12:28Z</time>
      </trkpt>
      <trkpt lat="43.59152" lon="3.74665">
        <ele>101.002861</ele>
        <time>2021-02-28T13:12:33Z</time>
      </trkpt>
      <trkpt lat="43.5914" lon="3.74678">
        <ele>101.619728</ele>
        <time>2021-02-28T13:12:38Z</time>
      </trkpt>
      <trkpt lat="43.59128" lon="3.74686">
        <ele>102.234612</ele>
        <time>2021-02-28T13:12:43Z</time>
      </trkpt>
      <trkpt lat="43.59118" lon="3.74689">
        <ele>103.128181</ele>
        <time>2021-02-28T13:12:48Z</time>
      </trkpt>
      <trkpt lat="43.59109" lon="3.74692">
        <ele>104.017403</ele>
        <time>2021-02-28T13:12:53Z</time>
      </trkpt>
      <trkpt lat="43.591" lon="3.74693">
        <ele>104.638741</ele>
        <time>2021-02-28T13:12:58Z</time>
      </trkpt>
      <trkpt lat="43.59092" lon="3.74694">
        <ele>105.312317</ele>
        <time>2021-02-28T13:13:03Z</time>
      </trkpt>
      <trkpt lat="43.59084" lon="3.74694">
        <ele>105.651039</ele>
        <time>2021-02-28T13:13:08Z</time>
      </trkpt>
      <trkpt lat="43.59077" lon="3.74696">
        <ele>105.627441</ele>
        <time>2021-02-28T13:13:13Z</time>
      </trkpt>
      <trkpt lat="43.59071" lon="3.74704">
        <ele>105.453285</ele>
        <time>2021-02-28T13:13:18Z</time>
      </trkpt>
      <trkpt lat="43.59065" lon="3.74721">
        <ele>104.852699</ele>
        <time>2021-02-28T13:13:23Z</time>
      </trkpt>
      <trkpt lat="43.59058" lon="3.74735">
        <ele>103.585449</ele>
        <time>2021-02-28T13:13:28Z</time>
      </trkpt>
      <trkpt lat="43.5905" lon="3.74738">
        <ele>102.359863</ele>
        <time>2021-02-28T13:13:33Z</time>
      </trkpt>
      <trkpt lat="43.5904" lon="3.74738">
        <ele>101.898438</ele>
        <time>2021-02-28T13:13:38Z</time>
      </trkpt>
      <trkpt lat="43.59031" lon="3.74735">
        <ele>101.883789</ele>
        <time>2021-02-28T13:13:43Z</time>
      </trkpt>
      <trkpt lat="43.59022" lon="3.74733">
        <ele>102.055336</ele>
        <time>2021-02-28T13:13:48Z</time>
      </trkpt>
      <trkpt lat="43.59013" lon="3.74729">
        <ele>102.183723</ele>
        <time>2021-02-28T13:13:53Z</time>
      </trkpt>
      <trkpt lat="43.59005" lon="3.74723">
        <ele>102.331505</ele>
        <time>2021-02-28T13:13:58Z</time>
      </trkpt>
      <trkpt lat="43.58995" lon="3.74717">
        <ele>102.578339</ele>
        <time>2021-02-28T13:14:03Z</time>
      </trkpt>
      <trkpt lat="43.58984" lon="3.74714">
        <ele>102.851746</ele>
        <time>2021-02-28T13:14:08Z</time>
      </trkpt>
      <trkpt lat="43.5897" lon="3.74715">
        <ele>102.827202</ele>
        <time>2021-02-28T13:14:13Z</time>
      </trkpt>
      <trkpt lat="43.58954" lon="3.74714">
        <ele>102.466644</ele>
        <time>2021-02-28T13:14:18Z</time>
      </trkpt>
      <trkpt lat="43.58938" lon="3.74714">
        <ele>102.221687</ele>
        <time>2021-02-28T13:14:23Z</time>
      </trkpt>
      <trkpt lat="43.58921" lon="3.74715">
        <ele>102.032082</ele>
        <time>2021-02-28T13:14:28Z</time>
      </trkpt>
      <trkpt lat="43.58908" lon="3.74715">
        <ele>101.789612</ele>
        <time>2021-02-28T13:14:33Z</time>
      </trkpt>
      <trkpt lat="43.58901" lon="3.74721">
        <ele>101.632896</ele>
        <time>2021-02-28T13:14:38Z</time>
      </trkpt>
      <trkpt lat="43.58897" lon="3.74736">
        <ele>101.356667</ele>
        <time>2021-02-28T13:14:43Z</time>
      </trkpt>
      <trkpt lat="43.58885" lon="3.74746">
        <ele>100.621521</ele>
        <time>2021-02-28T13:14:48Z</time>
      </trkpt>
      <trkpt lat="43.58868" lon="3.74748">
        <ele>100.011017</ele>
        <time>2021-02-28T13:14:53Z</time>
      </trkpt>
      <trkpt lat="43.58852" lon="3.74757">
        <ele>99.654213</ele>
        <time>2021-02-28T13:14:58Z</time>
      </trkpt>
      <trkpt lat="43.58841" lon="3.74777">
        <ele>99.044434</ele>
        <time>2021-02-28T13:15:03Z</time>
      </trkpt>
      <trkpt lat="43.58837" lon="3.74787">
        <ele>98.504028</ele>
        <time>2021-02-28T13:15:08Z</time>
      </trkpt>
      <trkpt lat="43.5884" lon="3.74771">
        <ele>97.996918</ele>
        <time>2021-02-28T13:15:28Z</time>
      </trkpt>
      <trkpt lat="43.58836" lon="3.74773">
        <ele>98.151527</ele>
        <time>2021-02-28T13:15:38Z</time>
      </trkpt>
      <trkpt lat="43.5883" lon="3.74773">
        <ele>98.12796</ele>
        <time>2021-02-28T13:15:43Z</time>
      </trkpt>
      <trkpt lat="43.58817" lon="3.74776">
        <ele>97.982613</ele>
        <time>2021-02-28T13:15:48Z</time>
      </trkpt>
      <trkpt lat="43.58812" lon="3.74756">
        <ele>97.919472</ele>
        <time>2021-02-28T13:15:53Z</time>
      </trkpt>
      <trkpt lat="43.588" lon="3.74743">
        <ele>98.408775</ele>
        <time>2021-02-28T13:15:58Z</time>
      </trkpt>
      <trkpt lat="43.58794" lon="3.74754">
        <ele>98.764549</ele>
        <time>2021-02-28T13:16:03Z</time>
      </trkpt>
      <trkpt lat="43.58781" lon="3.74761">
        <ele>98.655342</ele>
        <time>2021-02-28T13:16:08Z</time>
      </trkpt>
      <trkpt lat="43.58769" lon="3.74764">
        <ele>98.265709</ele>
        <time>2021-02-28T13:16:13Z</time>
      </trkpt>
      <trkpt lat="43.58756" lon="3.7477">
        <ele>98.160767</ele>
        <time>2021-02-28T13:16:18Z</time>
      </trkpt>
      <trkpt lat="43.5874" lon="3.74768">
        <ele>98.002205</ele>
        <time>2021-02-28T13:16:23Z</time>
      </trkpt>
      <trkpt lat="43.58727" lon="3.74768">
        <ele>97.80957</ele>
        <time>2021-02-28T13:16:28Z</time>
      </trkpt>
      <trkpt lat="43.58709" lon="3.74762">
        <ele>97.547035</ele>
        <time>2021-02-28T13:18:08Z</time>
      </trkpt>
      <trkpt lat="43.58697" lon="3.74758">
        <ele>97.447754</ele>
        <time>2021-02-28T13:18:18Z</time>
      </trkpt>
      <trkpt lat="43.58683" lon="3.74765">
        <ele>97.322914</ele>
        <time>2021-02-28T13:18:23Z</time>
      </trkpt>
      <trkpt lat="43.58669" lon="3.74763">
        <ele>97.051018</ele>
        <time>2021-02-28T13:18:28Z</time>
      </trkpt>
      <trkpt lat="43.58661" lon="3.74752">
        <ele>96.83432</ele>
        <time>2021-02-28T13:18:33Z</time>
      </trkpt>
      <trkpt lat="43.58654" lon="3.74747">
        <ele>96.769745</ele>
        <time>2021-02-28T13:18:38Z</time>
      </trkpt>
      <trkpt lat="43.58641" lon="3.74744">
        <ele>96.671265</ele>
        <time>2021-02-28T13:18:43Z</time>
      </trkpt>
      <trkpt lat="43.58627" lon="3.74732">
        <ele>96.451805</ele>
        <time>2021-02-28T13:18:48Z</time>
      </trkpt>
      <trkpt lat="43.58614" lon="3.74723">
        <ele>96.190361</ele>
        <time>2021-02-28T13:18:53Z</time>
      </trkpt>
      <trkpt lat="43.58614" lon="3.74709">
        <ele>95.888512</ele>
        <time>2021-02-28T13:18:58Z</time>
      </trkpt>
      <trkpt lat="43.58621" lon="3.7469">
        <ele>95.83886</ele>
        <time>2021-02-28T13:19:03Z</time>
      </trkpt>
      <trkpt lat="43.5863" lon="3.74671">
        <ele>95.965057</ele>
        <time>2021-02-28T13:19:08Z</time>
      </trkpt>
      <trkpt lat="43.58639" lon="3.74653">
        <ele>96.236</ele>
        <time>2021-02-28T13:19:13Z</time>
      </trkpt>
      <trkpt lat="43.58648" lon="3.74633">
        <ele>96.421387</ele>
        <time>2021-02-28T13:19:18Z</time>
      </trkpt>
      <trkpt lat="43.58654" lon="3.7461">
        <ele>96.542381</ele>
        <time>2021-02-28T13:19:23Z</time>
      </trkpt>
      <trkpt lat="43.58657" lon="3.74576">
        <ele>96.033119</ele>
        <time>2021-02-28T13:19:28Z</time>
      </trkpt>
      <trkpt lat="43.58655" lon="3.74544">
        <ele>94.780251</ele>
        <time>2021-02-28T13:19:33Z</time>
      </trkpt>
      <trkpt lat="43.58651" lon="3.74516">
        <ele>93.425621</ele>
        <time>2021-02-28T13:19:38Z</time>
      </trkpt>
      <trkpt lat="43.58647" lon="3.74486">
        <ele>92.122162</ele>
        <time>2021-02-28T13:19:43Z</time>
      </trkpt>
      <trkpt lat="43.58646" lon="3.74458">
        <ele>91.788673</ele>
        <time>2021-02-28T13:19:48Z</time>
      </trkpt>
      <trkpt lat="43.58649" lon="3.7443">
        <ele>92.498375</ele>
        <time>2021-02-28T13:19:53Z</time>
      </trkpt>
      <trkpt lat="43.58659" lon="3.74404">
        <ele>93.573486</ele>
        <time>2021-02-28T13:19:58Z</time>
      </trkpt>
      <trkpt lat="43.58672" lon="3.74379">
        <ele>95.389565</ele>
        <time>2021-02-28T13:20:03Z</time>
      </trkpt>
      <trkpt lat="43.58685" lon="3.74353">
        <ele>97.194466</ele>
        <time>2021-02-28T13:20:08Z</time>
      </trkpt>
      <trkpt lat="43.587" lon="3.74329">
        <ele>98.640892</ele>
        <time>2021-02-28T13:20:13Z</time>
      </trkpt>
      <trkpt lat="43.58719" lon="3.74313">
        <ele>99.385826</ele>
        <time>2021-02-28T13:20:18Z</time>
      </trkpt>
      <trkpt lat="43.58733" lon="3.74308">
        <ele>100.383644</ele>
        <time>2021-02-28T13:20:23Z</time>
      </trkpt>
      <trkpt lat="43.58744" lon="3.74306">
        <ele>101.040306</ele>
        <time>2021-02-28T13:20:28Z</time>
      </trkpt>
      <trkpt lat="43.58755" lon="3.74306">
        <ele>101.447227</ele>
        <time>2021-02-28T13:20:33Z</time>
      </trkpt>
      <trkpt lat="43.58767" lon="3.74305">
        <ele>101.911415</ele>
        <time>2021-02-28T13:20:38Z</time>
      </trkpt>
      <trkpt lat="43.58776" lon="3.74307">
        <ele>102.480919</ele>
        <time>2021-02-28T13:20:43Z</time>
      </trkpt>
      <trkpt lat="43.58791" lon="3.74282">
        <ele>102.880547</ele>
        <time>2021-02-28T13:21:03Z</time>
      </trkpt>
      <trkpt lat="43.588" lon="3.74267">
        <ele>102.820274</ele>
        <time>2021-02-28T13:21:13Z</time>
      </trkpt>
      <trkpt lat="43.58807" lon="3.74251">
        <ele>102.78167</ele>
        <time>2021-02-28T13:21:18Z</time>
      </trkpt>
      <trkpt lat="43.58814" lon="3.74235">
        <ele>102.744133</ele>
        <time>2021-02-28T13:21:23Z</time>
      </trkpt>
      <trkpt lat="43.58822" lon="3.74221">
        <ele>102.725739</ele>
        <time>2021-02-28T13:21:28Z</time>
      </trkpt>
      <trkpt lat="43.58826" lon="3.74213">
        <ele>102.762032</ele>
        <time>2021-02-28T13:21:33Z</time>
      </trkpt>
      <trkpt lat="43.58813" lon="3.74234">
        <ele>102.698708</ele>
        <time>2021-02-28T13:22:28Z</time>
      </trkpt>
      <trkpt lat="43.58805" lon="3.74255">
        <ele>102.689369</ele>
        <time>2021-02-28T13:22:38Z</time>
      </trkpt>
      <trkpt lat="43.58793" lon="3.74276">
        <ele>102.70163</ele>
        <time>2021-02-28T13:22:43Z</time>
      </trkpt>
      <trkpt lat="43.58778" lon="3.74298">
        <ele>102.747398</ele>
        <time>2021-02-28T13:22:48Z</time>
      </trkpt>
      <trkpt lat="43.58753" lon="3.74304">
        <ele>102.717865</ele>
        <time>2021-02-28T13:22:53Z</time>
      </trkpt>
      <trkpt lat="43.58725" lon="3.74308">
        <ele>102.070923</ele>
        <time>2021-02-28T13:22:58Z</time>
      </trkpt>
      <trkpt lat="43.58712" lon="3.74297">
        <ele>100.857086</ele>
        <time>2021-02-28T13:23:03Z</time>
      </trkpt>
      <trkpt lat="43.58719" lon="3.74279">
        <ele>100.211792</ele>
        <time>2021-02-28T13:23:08Z</time>
      </trkpt>
      <trkpt lat="43.58723" lon="3.74262">
        <ele>100.090942</ele>
        <time>2021-02-28T13:23:13Z</time>
      </trkpt>
      <trkpt lat="43.58725" lon="3.74247">
        <ele>99.928596</ele>
        <time>2021-02-28T13:23:18Z</time>
      </trkpt>
      <trkpt lat="43.58728" lon="3.74233">
        <ele>99.651558</ele>
        <time>2021-02-28T13:23:23Z</time>
      </trkpt>
      <trkpt lat="43.5873" lon="3.74221">
        <ele>99.484276</ele>
        <time>2021-02-28T13:23:28Z</time>
      </trkpt>
      <trkpt lat="43.5873" lon="3.74207">
        <ele>99.257935</ele>
        <time>2021-02-28T13:23:33Z</time>
      </trkpt>
      <trkpt lat="43.58731" lon="3.74195">
        <ele>99.224953</ele>
        <time>2021-02-28T13:23:38Z</time>
      </trkpt>
      <trkpt lat="43.58729" lon="3.74181">
        <ele>99.228355</ele>
        <time>2021-02-28T13:23:43Z</time>
      </trkpt>
      <trkpt lat="43.58722" lon="3.74175">
        <ele>99.199867</ele>
        <time>2021-02-28T13:23:48Z</time>
      </trkpt>
      <trkpt lat="43.58726" lon="3.74178">
        <ele>99.067055</ele>
        <time>2021-02-28T13:23:53Z</time>
      </trkpt>
      <trkpt lat="43.58731" lon="3.74164">
        <ele>99.072594</ele>
        <time>2021-02-28T13:23:58Z</time>
      </trkpt>
      <trkpt lat="43.58729" lon="3.7413">
        <ele>99.203285</ele>
        <time>2021-02-28T13:24:03Z</time>
      </trkpt>
      <trkpt lat="43.5873" lon="3.74086">
        <ele>99.192383</ele>
        <time>2021-02-28T13:24:08Z</time>
      </trkpt>
      <trkpt lat="43.58746" lon="3.74045">
        <ele>99.189453</ele>
        <time>2021-02-28T13:24:13Z</time>
      </trkpt>
      <trkpt lat="43.58744" lon="3.74021">
        <ele>100.339027</ele>
        <time>2021-02-28T13:24:18Z</time>
      </trkpt>
      <trkpt lat="43.58743" lon="3.74005">
        <ele>101.312988</ele>
        <time>2021-02-28T13:24:23Z</time>
      </trkpt>
      <trkpt lat="43.5874" lon="3.73989">
        <ele>101.751465</ele>
        <time>2021-02-28T13:24:28Z</time>
      </trkpt>
      <trkpt lat="43.5873" lon="3.73976">
        <ele>102.395668</ele>
        <time>2021-02-28T13:24:33Z</time>
      </trkpt>
      <trkpt lat="43.58721" lon="3.7397">
        <ele>102.838951</ele>
        <time>2021-02-28T13:24:38Z</time>
      </trkpt>
      <trkpt lat="43.58714" lon="3.73962">
        <ele>102.954918</ele>
        <time>2021-02-28T13:24:43Z</time>
      </trkpt>
      <trkpt lat="43.58708" lon="3.73954">
        <ele>103.074059</ele>
        <time>2021-02-28T13:24:48Z</time>
      </trkpt>
      <trkpt lat="43.58704" lon="3.73943">
        <ele>103.229164</ele>
        <time>2021-02-28T13:24:53Z</time>
      </trkpt>
      <trkpt lat="43.58701" lon="3.73933">
        <ele>103.55941</ele>
        <time>2021-02-28T13:24:58Z</time>
      </trkpt>
      <trkpt lat="43.58704" lon="3.73927">
        <ele>103.946373</ele>
        <time>2021-02-28T13:25:03Z</time>
      </trkpt>
      <trkpt lat="43.58711" lon="3.73922">
        <ele>104.419273</ele>
        <time>2021-02-28T13:25:08Z</time>
      </trkpt>
      <trkpt lat="43.58719" lon="3.73917">
        <ele>104.557045</ele>
        <time>2021-02-28T13:25:13Z</time>
      </trkpt>
      <trkpt lat="43.58726" lon="3.73912">
        <ele>105.087563</ele>
        <time>2021-02-28T13:25:18Z</time>
      </trkpt>
      <trkpt lat="43.58732" lon="3.73907">
        <ele>105.49601</ele>
        <time>2021-02-28T13:25:23Z</time>
      </trkpt>
      <trkpt lat="43.58739" lon="3.73901">
        <ele>105.951416</ele>
        <time>2021-02-28T13:25:28Z</time>
      </trkpt>
      <trkpt lat="43.58746" lon="3.73895">
        <ele>106.269615</ele>
        <time>2021-02-28T13:25:33Z</time>
      </trkpt>
      <trkpt lat="43.58752" lon="3.7389">
        <ele>106.879234</ele>
        <time>2021-02-28T13:25:38Z</time>
      </trkpt>
      <trkpt lat="43.58759" lon="3.73885">
        <ele>107.327637</ele>
        <time>2021-02-28T13:25:43Z</time>
      </trkpt>
      <trkpt lat="43.58767" lon="3.7388">
        <ele>107.818939</ele>
        <time>2021-02-28T13:25:48Z</time>
      </trkpt>
      <trkpt lat="43.58774" lon="3.73875">
        <ele>108.420502</ele>
        <time>2021-02-28T13:25:53Z</time>
      </trkpt>
      <trkpt lat="43.58781" lon="3.73871">
        <ele>109.342285</ele>
        <time>2021-02-28T13:25:58Z</time>
      </trkpt>
      <trkpt lat="43.58786" lon="3.73867">
        <ele>110.08773</ele>
        <time>2021-02-28T13:26:03Z</time>
      </trkpt>
      <trkpt lat="43.58793" lon="3.73863">
        <ele>110.73877</ele>
        <time>2021-02-28T13:26:08Z</time>
      </trkpt>
      <trkpt lat="43.58799" lon="3.73857">
        <ele>111.310547</ele>
        <time>2021-02-28T13:26:13Z</time>
      </trkpt>
      <trkpt lat="43.58803" lon="3.73849">
        <ele>112.348228</ele>
        <time>2021-02-28T13:26:18Z</time>
      </trkpt>
      <trkpt lat="43.58805" lon="3.73839">
        <ele>112.691978</ele>
        <time>2021-02-28T13:26:23Z</time>
      </trkpt>
      <trkpt lat="43.58804" lon="3.73828">
        <ele>113.570557</ele>
        <time>2021-02-28T13:26:28Z</time>
      </trkpt>
      <trkpt lat="43.58804" lon="3.73819">
        <ele>114.066734</ele>
        <time>2021-02-28T13:26:33Z</time>
      </trkpt>
      <trkpt lat="43.58805" lon="3.73809">
        <ele>114.641846</ele>
        <time>2021-02-28T13:26:38Z</time>
      </trkpt>
      <trkpt lat="43.58808" lon="3.73801">
        <ele>115.417397</ele>
        <time>2021-02-28T13:26:43Z</time>
      </trkpt>
      <trkpt lat="43.58811" lon="3.73793">
        <ele>115.845947</ele>
        <time>2021-02-28T13:26:48Z</time>
      </trkpt>
      <trkpt lat="43.58815" lon="3.73786">
        <ele>116.378746</ele>
        <time>2021-02-28T13:26:53Z</time>
      </trkpt>
      <trkpt lat="43.5882" lon="3.73781">
        <ele>116.786377</ele>
        <time>2021-02-28T13:26:58Z</time>
      </trkpt>
      <trkpt lat="43.58823" lon="3.73774">
        <ele>117.346107</ele>
        <time>2021-02-28T13:27:03Z</time>
      </trkpt>
      <trkpt lat="43.58825" lon="3.73765">
        <ele>117.810875</ele>
        <time>2021-02-28T13:27:08Z</time>
      </trkpt>
      <trkpt lat="43.58825" lon="3.73755">
        <ele>118.226891</ele>
        <time>2021-02-28T13:27:13Z</time>
      </trkpt>
      <trkpt lat="43.58827" lon="3.73744">
        <ele>118.551025</ele>
        <time>2021-02-28T13:27:18Z</time>
      </trkpt>
      <trkpt lat="43.58827" lon="3.73732">
        <ele>118.90918</ele>
        <time>2021-02-28T13:27:23Z</time>
      </trkpt>
      <trkpt lat="43.58826" lon="3.73718">
        <ele>119.307701</ele>
        <time>2021-02-28T13:27:28Z</time>
      </trkpt>
      <trkpt lat="43.58825" lon="3.73702">
        <ele>119.393959</ele>
        <time>2021-02-28T13:27:33Z</time>
      </trkpt>
      <trkpt lat="43.58831" lon="3.73692">
        <ele>119.45858</ele>
        <time>2021-02-28T13:27:38Z</time>
      </trkpt>
      <trkpt lat="43.58839" lon="3.73673">
        <ele>120.154137</ele>
        <time>2021-02-28T13:27:43Z</time>
      </trkpt>
      <trkpt lat="43.58839" lon="3.73654">
        <ele>121.372261</ele>
        <time>2021-02-28T13:27:48Z</time>
      </trkpt>
      <trkpt lat="43.58845" lon="3.73641">
        <ele>121.882599</ele>
        <time>2021-02-28T13:27:53Z</time>
      </trkpt>
      <trkpt lat="43.58854" lon="3.73629">
        <ele>122.241173</ele>
        <time>2021-02-28T13:27:58Z</time>
      </trkpt>
      <trkpt lat="43.58859" lon="3.73619">
        <ele>123.275887</ele>
        <time>2021-02-28T13:28:03Z</time>
      </trkpt>
      <trkpt lat="43.58867" lon="3.73604">
        <ele>123.895576</ele>
        <time>2021-02-28T13:28:08Z</time>
      </trkpt>
      <trkpt lat="43.58872" lon="3.73595">
        <ele>124.400505</ele>
        <time>2021-02-28T13:28:13Z</time>
      </trkpt>
      <trkpt lat="43.58877" lon="3.73582">
        <ele>124.866081</ele>
        <time>2021-02-28T13:28:18Z</time>
      </trkpt>
      <trkpt lat="43.58884" lon="3.73572">
        <ele>125.034363</ele>
        <time>2021-02-28T13:28:23Z</time>
      </trkpt>
      <trkpt lat="43.58891" lon="3.73561">
        <ele>125.338615</ele>
        <time>2021-02-28T13:28:28Z</time>
      </trkpt>
      <trkpt lat="43.58884" lon="3.7355">
        <ele>125.416924</ele>
        <time>2021-02-28T13:28:33Z</time>
      </trkpt>
      <trkpt lat="43.58875" lon="3.73557">
        <ele>125.311394</ele>
        <time>2021-02-28T13:28:38Z</time>
      </trkpt>
      <trkpt lat="43.58862" lon="3.73561">
        <ele>124.858978</ele>
        <time>2021-02-28T13:28:43Z</time>
      </trkpt>
      <trkpt lat="43.58848" lon="3.7357">
        <ele>124.037132</ele>
        <time>2021-02-28T13:28:48Z</time>
      </trkpt>
      <trkpt lat="43.58833" lon="3.73589">
        <ele>123.101295</ele>
        <time>2021-02-28T13:28:53Z</time>
      </trkpt>
      <trkpt lat="43.58816" lon="3.73609">
        <ele>122.148926</ele>
        <time>2021-02-28T13:28:58Z</time>
      </trkpt>
      <trkpt lat="43.58794" lon="3.73624">
        <ele>120.71225</ele>
        <time>2021-02-28T13:29:03Z</time>
      </trkpt>
      <trkpt lat="43.58768" lon="3.73628">
        <ele>119.637146</ele>
        <time>2021-02-28T13:29:08Z</time>
      </trkpt>
      <trkpt lat="43.58744" lon="3.73645">
        <ele>118.577576</ele>
        <time>2021-02-28T13:29:13Z</time>
      </trkpt>
      <trkpt lat="43.58724" lon="3.7365">
        <ele>116.985588</ele>
        <time>2021-02-28T13:29:18Z</time>
      </trkpt>
      <trkpt lat="43.58701" lon="3.73642">
        <ele>116.099037</ele>
        <time>2021-02-28T13:29:23Z</time>
      </trkpt>
      <trkpt lat="43.58681" lon="3.73626">
        <ele>115.812874</ele>
        <time>2021-02-28T13:29:28Z</time>
      </trkpt>
      <trkpt lat="43.58658" lon="3.73616">
        <ele>115.901695</ele>
        <time>2021-02-28T13:29:33Z</time>
      </trkpt>
      <trkpt lat="43.58636" lon="3.73622">
        <ele>116.156136</ele>
        <time>2021-02-28T13:29:38Z</time>
      </trkpt>
      <trkpt lat="43.58626" lon="3.73619">
        <ele>116.092041</ele>
        <time>2021-02-28T13:29:43Z</time>
      </trkpt>
      <trkpt lat="43.58614" lon="3.73615">
        <ele>116.038605</ele>
        <time>2021-02-28T13:29:48Z</time>
      </trkpt>
      <trkpt lat="43.58598" lon="3.73609">
        <ele>115.921722</ele>
        <time>2021-02-28T13:29:53Z</time>
      </trkpt>
      <trkpt lat="43.58582" lon="3.736">
        <ele>115.550804</ele>
        <time>2021-02-28T13:29:58Z</time>
      </trkpt>
      <trkpt lat="43.58565" lon="3.73592">
        <ele>114.925896</ele>
        <time>2021-02-28T13:30:03Z</time>
      </trkpt>
      <trkpt lat="43.5855" lon="3.73587">
        <ele>114.315926</ele>
        <time>2021-02-28T13:30:08Z</time>
      </trkpt>
      <trkpt lat="43.5854" lon="3.73585">
        <ele>113.411736</ele>
        <time>2021-02-28T13:30:13Z</time>
      </trkpt>
      <trkpt lat="43.58536" lon="3.73598">
        <ele>112.194527</ele>
        <time>2021-02-28T13:33:23Z</time>
      </trkpt>
      <trkpt lat="43.58534" lon="3.73609">
        <ele>112.122475</ele>
        <time>2021-02-28T13:33:33Z</time>
      </trkpt>
      <trkpt lat="43.58529" lon="3.73622">
        <ele>112.092072</ele>
        <time>2021-02-28T13:33:38Z</time>
      </trkpt>
      <trkpt lat="43.58521" lon="3.73634">
        <ele>111.83773</ele>
        <time>2021-02-28T13:33:43Z</time>
      </trkpt>
      <trkpt lat="43.58513" lon="3.73648">
        <ele>111.262123</ele>
        <time>2021-02-28T13:33:48Z</time>
      </trkpt>
      <trkpt lat="43.58507" lon="3.73663">
        <ele>110.520752</ele>
        <time>2021-02-28T13:33:53Z</time>
      </trkpt>
      <trkpt lat="43.58499" lon="3.73677">
        <ele>109.761314</ele>
        <time>2021-02-28T13:33:58Z</time>
      </trkpt>
      <trkpt lat="43.5849" lon="3.7369">
        <ele>109.193489</ele>
        <time>2021-02-28T13:34:03Z</time>
      </trkpt>
      <trkpt lat="43.58483" lon="3.73703">
        <ele>108.135963</ele>
        <time>2021-02-28T13:34:08Z</time>
      </trkpt>
      <trkpt lat="43.58476" lon="3.73718">
        <ele>107.130104</ele>
        <time>2021-02-28T13:34:13Z</time>
      </trkpt>
      <trkpt lat="43.58467" lon="3.73736">
        <ele>105.983643</ele>
        <time>2021-02-28T13:34:18Z</time>
      </trkpt>
      <trkpt lat="43.58453" lon="3.73757">
        <ele>104.454872</ele>
        <time>2021-02-28T13:34:23Z</time>
      </trkpt>
      <trkpt lat="43.58437" lon="3.73781">
        <ele>101.93335</ele>
        <time>2021-02-28T13:34:28Z</time>
      </trkpt>
      <trkpt lat="43.58429" lon="3.73818">
        <ele>99.324059</ele>
        <time>2021-02-28T13:34:33Z</time>
      </trkpt>
      <trkpt lat="43.58428" lon="3.73853">
        <ele>97.100677</ele>
        <time>2021-02-28T13:34:38Z</time>
      </trkpt>
      <trkpt lat="43.58427" lon="3.73872">
        <ele>96.743248</ele>
        <time>2021-02-28T13:34:43Z</time>
      </trkpt>
      <trkpt lat="43.58426" lon="3.73885">
        <ele>96.688599</ele>
        <time>2021-02-28T13:34:48Z</time>
      </trkpt>
      <trkpt lat="43.58423" lon="3.73892">
        <ele>96.602325</ele>
        <time>2021-02-28T13:34:58Z</time>
      </trkpt>
      <trkpt lat="43.58418" lon="3.73919">
        <ele>96.235413</ele>
        <time>2021-02-28T13:35:13Z</time>
      </trkpt>
      <trkpt lat="43.58415" lon="3.73943">
        <ele>96.030006</ele>
        <time>2021-02-28T13:35:23Z</time>
      </trkpt>
      <trkpt lat="43.58412" lon="3.73958">
        <ele>96.01458</ele>
        <time>2021-02-28T13:35:28Z</time>
      </trkpt>
      <trkpt lat="43.58408" lon="3.73974">
        <ele>96.03434</ele>
        <time>2021-02-28T13:35:33Z</time>
      </trkpt>
      <trkpt lat="43.584" lon="3.73993">
        <ele>96.004631</ele>
        <time>2021-02-28T13:35:38Z</time>
      </trkpt>
      <trkpt lat="43.58387" lon="3.74015">
        <ele>95.887062</ele>
        <time>2021-02-28T13:35:43Z</time>
      </trkpt>
      <trkpt lat="43.58376" lon="3.74032">
        <ele>95.779976</ele>
        <time>2021-02-28T13:35:48Z</time>
      </trkpt>
      <trkpt lat="43.58369" lon="3.74051">
        <ele>95.785118</ele>
        <time>2021-02-28T13:35:53Z</time>
      </trkpt>
      <trkpt lat="43.58363" lon="3.74071">
        <ele>95.959137</ele>
        <time>2021-02-28T13:35:58Z</time>
      </trkpt>
      <trkpt lat="43.58353" lon="3.74085">
        <ele>96.497475</ele>
        <time>2021-02-28T13:36:03Z</time>
      </trkpt>
      <trkpt lat="43.58342" lon="3.74099">
        <ele>96.910881</ele>
        <time>2021-02-28T13:36:08Z</time>
      </trkpt>
      <trkpt lat="43.58331" lon="3.74105">
        <ele>96.972168</ele>
        <time>2021-02-28T13:36:13Z</time>
      </trkpt>
      <trkpt lat="43.58325" lon="3.74093">
        <ele>96.888428</ele>
        <time>2021-02-28T13:36:18Z</time>
      </trkpt>
      <trkpt lat="43.58324" lon="3.74078">
        <ele>96.768402</ele>
        <time>2021-02-28T13:36:23Z</time>
      </trkpt>
      <trkpt lat="43.58317" lon="3.74065">
        <ele>96.397667</ele>
        <time>2021-02-28T13:36:28Z</time>
      </trkpt>
      <trkpt lat="43.58309" lon="3.74057">
        <ele>95.590462</ele>
        <time>2021-02-28T13:36:33Z</time>
      </trkpt>
      <trkpt lat="43.58296" lon="3.74044">
        <ele>94.959412</ele>
        <time>2021-02-28T13:36:38Z</time>
      </trkpt>
      <trkpt lat="43.58281" lon="3.74031">
        <ele>94.02124</ele>
        <time>2021-02-28T13:36:43Z</time>
      </trkpt>
      <trkpt lat="43.58267" lon="3.7402">
        <ele>92.412117</ele>
        <time>2021-02-28T13:36:48Z</time>
      </trkpt>
      <trkpt lat="43.58272" lon="3.74006">
        <ele>91.527313</ele>
        <time>2021-02-28T13:36:53Z</time>
      </trkpt>
      <trkpt lat="43.58283" lon="3.73983">
        <ele>90.934669</ele>
        <time>2021-02-28T13:36:58Z</time>
      </trkpt>
      <trkpt lat="43.58289" lon="3.73962">
        <ele>89.233582</ele>
        <time>2021-02-28T13:37:03Z</time>
      </trkpt>
      <trkpt lat="43.58298" lon="3.7394">
        <ele>87.431694</ele>
        <time>2021-02-28T13:37:08Z</time>
      </trkpt>
      <trkpt lat="43.583" lon="3.73932">
        <ele>86.128838</ele>
        <time>2021-02-28T13:37:13Z</time>
      </trkpt>
      <trkpt lat="43.58297" lon="3.73925">
        <ele>85.522148</ele>
        <time>2021-02-28T13:37:18Z</time>
      </trkpt>
      <trkpt lat="43.58282" lon="3.73915">
        <ele>85.169701</ele>
        <time>2021-02-28T13:37:23Z</time>
      </trkpt>
      <trkpt lat="43.58262" lon="3.73907">
        <ele>83.696648</ele>
        <time>2021-02-28T13:37:28Z</time>
      </trkpt>
      <trkpt lat="43.5825" lon="3.73889">
        <ele>81.739182</ele>
        <time>2021-02-28T13:37:33Z</time>
      </trkpt>
      <trkpt lat="43.58241" lon="3.73878">
        <ele>79.587059</ele>
        <time>2021-02-28T13:37:38Z</time>
      </trkpt>
      <trkpt lat="43.5823" lon="3.73856">
        <ele>78.383018</ele>
        <time>2021-02-28T13:37:43Z</time>
      </trkpt>
      <trkpt lat="43.58216" lon="3.73838">
        <ele>76.766113</ele>
        <time>2021-02-28T13:37:48Z</time>
      </trkpt>
      <trkpt lat="43.58207" lon="3.73831">
        <ele>74.885826</ele>
        <time>2021-02-28T13:37:53Z</time>
      </trkpt>
      <trkpt lat="43.582" lon="3.73827">
        <ele>73.709694</ele>
        <time>2021-02-28T13:37:58Z</time>
      </trkpt>
      <trkpt lat="43.58204" lon="3.73814">
        <ele>73.531944</ele>
        <time>2021-02-28T13:38:03Z</time>
      </trkpt>
      <trkpt lat="43.5821" lon="3.7379">
        <ele>72.192383</ele>
        <time>2021-02-28T13:38:28Z</time>
      </trkpt>
      <trkpt lat="43.58218" lon="3.7378">
        <ele>72.487885</ele>
        <time>2021-02-28T13:38:38Z</time>
      </trkpt>
      <trkpt lat="43.58229" lon="3.73765">
        <ele>72.962044</ele>
        <time>2021-02-28T13:38:43Z</time>
      </trkpt>
      <trkpt lat="43.58245" lon="3.73747">
        <ele>73.658394</ele>
        <time>2021-02-28T13:38:48Z</time>
      </trkpt>
      <trkpt lat="43.58249" lon="3.73729">
        <ele>74.21701</ele>
        <time>2021-02-28T13:38:53Z</time>
      </trkpt>
      <trkpt lat="43.58243" lon="3.73712">
        <ele>74.83152</ele>
        <time>2021-02-28T13:38:58Z</time>
      </trkpt>
      <trkpt lat="43.58239" lon="3.73704">
        <ele>75.444084</ele>
        <time>2021-02-28T13:39:03Z</time>
      </trkpt>
      <trkpt lat="43.58229" lon="3.73706">
        <ele>76.161758</ele>
        <time>2021-02-28T13:39:08Z</time>
      </trkpt>
      <trkpt lat="43.58215" lon="3.73713">
        <ele>76.206726</ele>
        <time>2021-02-28T13:39:13Z</time>
      </trkpt>
      <trkpt lat="43.58202" lon="3.73721">
        <ele>75.749947</ele>
        <time>2021-02-28T13:39:18Z</time>
      </trkpt>
      <trkpt lat="43.58188" lon="3.73728">
        <ele>75.334709</ele>
        <time>2021-02-28T13:39:23Z</time>
      </trkpt>
      <trkpt lat="43.58178" lon="3.73737">
        <ele>75.111404</ele>
        <time>2021-02-28T13:39:28Z</time>
      </trkpt>
      <trkpt lat="43.58166" lon="3.73745">
        <ele>74.745178</ele>
        <time>2021-02-28T13:39:33Z</time>
      </trkpt>
      <trkpt lat="43.5815" lon="3.7375">
        <ele>74.552208</ele>
        <time>2021-02-28T13:39:38Z</time>
      </trkpt>
      <trkpt lat="43.58135" lon="3.73755">
        <ele>74.568199</ele>
        <time>2021-02-28T13:39:43Z</time>
      </trkpt>
      <trkpt lat="43.58119" lon="3.73758">
        <ele>74.74411</ele>
        <time>2021-02-28T13:39:48Z</time>
      </trkpt>
      <trkpt lat="43.58102" lon="3.73762">
        <ele>75.196213</ele>
        <time>2021-02-28T13:39:53Z</time>
      </trkpt>
      <trkpt lat="43.58088" lon="3.73765">
        <ele>75.633415</ele>
        <time>2021-02-28T13:39:58Z</time>
      </trkpt>
      <trkpt lat="43.58075" lon="3.73769">
        <ele>75.833565</ele>
        <time>2021-02-28T13:40:03Z</time>
      </trkpt>
      <trkpt lat="43.5807" lon="3.73783">
        <ele>76.030586</ele>
        <time>2021-02-28T13:40:08Z</time>
      </trkpt>
      <trkpt lat="43.58063" lon="3.73786">
        <ele>75.836937</ele>
        <time>2021-02-28T13:40:13Z</time>
      </trkpt>
      <trkpt lat="43.58048" lon="3.73801">
        <ele>75.640465</ele>
        <time>2021-02-28T13:40:23Z</time>
      </trkpt>
      <trkpt lat="43.58032" lon="3.73821">
        <ele>75.479828</ele>
        <time>2021-02-28T13:40:33Z</time>
      </trkpt>
      <trkpt lat="43.5802" lon="3.73842">
        <ele>75.446358</ele>
        <time>2021-02-28T13:40:38Z</time>
      </trkpt>
      <trkpt lat="43.5801" lon="3.73868">
        <ele>75.373421</ele>
        <time>2021-02-28T13:40:43Z</time>
      </trkpt>
      <trkpt lat="43.57999" lon="3.73889">
        <ele>74.836456</ele>
        <time>2021-02-28T13:40:48Z</time>
      </trkpt>
      <trkpt lat="43.5799" lon="3.73911">
        <ele>74.253746</ele>
        <time>2021-02-28T13:40:53Z</time>
      </trkpt>
      <trkpt lat="43.57981" lon="3.73933">
        <ele>74.216057</ele>
        <time>2021-02-28T13:40:58Z</time>
      </trkpt>
      <trkpt lat="43.57971" lon="3.73951">
        <ele>74.316895</ele>
        <time>2021-02-28T13:41:03Z</time>
      </trkpt>
      <trkpt lat="43.57961" lon="3.73968">
        <ele>74.284004</ele>
        <time>2021-02-28T13:41:08Z</time>
      </trkpt>
      <trkpt lat="43.57949" lon="3.73971">
        <ele>74.23336</ele>
        <time>2021-02-28T13:41:13Z</time>
      </trkpt>
      <trkpt lat="43.57941" lon="3.7397">
        <ele>74.375786</ele>
        <time>2021-02-28T13:41:18Z</time>
      </trkpt>
      <trkpt lat="43.57934" lon="3.73963">
        <ele>74.634483</ele>
        <time>2021-02-28T13:41:23Z</time>
      </trkpt>
      <trkpt lat="43.57929" lon="3.73956">
        <ele>75.062103</ele>
        <time>2021-02-28T13:41:28Z</time>
      </trkpt>
      <trkpt lat="43.57924" lon="3.73949">
        <ele>75.629189</ele>
        <time>2021-02-28T13:41:33Z</time>
      </trkpt>
      <trkpt lat="43.5792" lon="3.73942">
        <ele>76.233559</ele>
        <time>2021-02-28T13:41:38Z</time>
      </trkpt>
      <trkpt lat="43.57916" lon="3.73935">
        <ele>76.97998</ele>
        <time>2021-02-28T13:41:43Z</time>
      </trkpt>
      <trkpt lat="43.57911" lon="3.73926">
        <ele>77.715607</ele>
        <time>2021-02-28T13:41:48Z</time>
      </trkpt>
      <trkpt lat="43.57908" lon="3.73917">
        <ele>78.511086</ele>
        <time>2021-02-28T13:41:53Z</time>
      </trkpt>
      <trkpt lat="43.57904" lon="3.73906">
        <ele>79.310722</ele>
        <time>2021-02-28T13:41:58Z</time>
      </trkpt>
      <trkpt lat="43.57901" lon="3.73894">
        <ele>80.253555</ele>
        <time>2021-02-28T13:42:03Z</time>
      </trkpt>
      <trkpt lat="43.57899" lon="3.73884">
        <ele>81.053062</ele>
        <time>2021-02-28T13:42:08Z</time>
      </trkpt>
      <trkpt lat="43.57897" lon="3.73874">
        <ele>81.898186</ele>
        <time>2021-02-28T13:42:13Z</time>
      </trkpt>
      <trkpt lat="43.57896" lon="3.73863">
        <ele>82.838409</ele>
        <time>2021-02-28T13:42:18Z</time>
      </trkpt>
      <trkpt lat="43.57893" lon="3.73852">
        <ele>83.669762</ele>
        <time>2021-02-28T13:42:23Z</time>
      </trkpt>
      <trkpt lat="43.57888" lon="3.73845">
        <ele>84.419846</ele>
        <time>2021-02-28T13:42:28Z</time>
      </trkpt>
      <trkpt lat="43.57882" lon="3.7384">
        <ele>85.474663</ele>
        <time>2021-02-28T13:42:33Z</time>
      </trkpt>
      <trkpt lat="43.57877" lon="3.73834">
        <ele>86.311371</ele>
        <time>2021-02-28T13:42:38Z</time>
      </trkpt>
      <trkpt lat="43.57873" lon="3.73828">
        <ele>87.160133</ele>
        <time>2021-02-28T13:42:43Z</time>
      </trkpt>
      <trkpt lat="43.57868" lon="3.73821">
        <ele>87.943504</ele>
        <time>2021-02-28T13:42:48Z</time>
      </trkpt>
      <trkpt lat="43.57864" lon="3.73815">
        <ele>88.768044</ele>
        <time>2021-02-28T13:42:53Z</time>
      </trkpt>
      <trkpt lat="43.57858" lon="3.73811">
        <ele>89.474487</ele>
        <time>2021-02-28T13:42:58Z</time>
      </trkpt>
      <trkpt lat="43.57852" lon="3.73807">
        <ele>89.688721</ele>
        <time>2021-02-28T13:43:03Z</time>
      </trkpt>
      <trkpt lat="43.57847" lon="3.73803">
        <ele>89.71714</ele>
        <time>2021-02-28T13:43:08Z</time>
      </trkpt>
      <trkpt lat="43.57842" lon="3.73797">
        <ele>89.719177</ele>
        <time>2021-02-28T13:43:13Z</time>
      </trkpt>
      <trkpt lat="43.57837" lon="3.73792">
        <ele>89.76712</ele>
        <time>2021-02-28T13:43:18Z</time>
      </trkpt>
      <trkpt lat="43.57832" lon="3.73787">
        <ele>89.83213</ele>
        <time>2021-02-28T13:43:23Z</time>
      </trkpt>
      <trkpt lat="43.57825" lon="3.73785">
        <ele>89.837746</ele>
        <time>2021-02-28T13:43:28Z</time>
      </trkpt>
      <trkpt lat="43.57818" lon="3.73782">
        <ele>89.795937</ele>
        <time>2021-02-28T13:43:33Z</time>
      </trkpt>
      <trkpt lat="43.57813" lon="3.73778">
        <ele>89.744896</ele>
        <time>2021-02-28T13:43:38Z</time>
      </trkpt>
      <trkpt lat="43.57807" lon="3.73773">
        <ele>89.759163</ele>
        <time>2021-02-28T13:43:43Z</time>
      </trkpt>
      <trkpt lat="43.57802" lon="3.73769">
        <ele>89.817024</ele>
        <time>2021-02-28T13:43:48Z</time>
      </trkpt>
      <trkpt lat="43.57797" lon="3.73761">
        <ele>89.9105</ele>
        <time>2021-02-28T13:43:53Z</time>
      </trkpt>
      <trkpt lat="43.57793" lon="3.73751">
        <ele>90.079887</ele>
        <time>2021-02-28T13:43:58Z</time>
      </trkpt>
      <trkpt lat="43.57787" lon="3.73744">
        <ele>90.343201</ele>
        <time>2021-02-28T13:44:03Z</time>
      </trkpt>
      <trkpt lat="43.57781" lon="3.73737">
        <ele>90.404968</ele>
        <time>2021-02-28T13:44:08Z</time>
      </trkpt>
      <trkpt lat="43.57785" lon="3.73734">
        <ele>90.361336</ele>
        <time>2021-02-28T13:44:13Z</time>
      </trkpt>
      <trkpt lat="43.57793" lon="3.73738">
        <ele>90.373634</ele>
        <time>2021-02-28T13:44:18Z</time>
      </trkpt>
      <trkpt lat="43.57801" lon="3.73742">
        <ele>90.79232</ele>
        <time>2021-02-28T13:44:23Z</time>
      </trkpt>
      <trkpt lat="43.5781" lon="3.73747">
        <ele>91.031151</ele>
        <time>2021-02-28T13:44:28Z</time>
      </trkpt>
      <trkpt lat="43.57831" lon="3.73758">
        <ele>90.924133</ele>
        <time>2021-02-28T13:44:58Z</time>
      </trkpt>
      <trkpt lat="43.57845" lon="3.73759">
        <ele>90.911186</ele>
        <time>2021-02-28T13:45:08Z</time>
      </trkpt>
      <trkpt lat="43.57855" lon="3.73756">
        <ele>91.111565</ele>
        <time>2021-02-28T13:45:13Z</time>
      </trkpt>
      <trkpt lat="43.57864" lon="3.73761">
        <ele>91.364037</ele>
        <time>2021-02-28T13:45:18Z</time>
      </trkpt>
      <trkpt lat="43.57861" lon="3.7375">
        <ele>91.490303</ele>
        <time>2021-02-28T13:45:33Z</time>
      </trkpt>
      <trkpt lat="43.57854" lon="3.73734">
        <ele>91.681976</ele>
        <time>2021-02-28T13:45:43Z</time>
      </trkpt>
      <trkpt lat="43.57849" lon="3.73717">
        <ele>91.976746</ele>
        <time>2021-02-28T13:45:48Z</time>
      </trkpt>
      <trkpt lat="43.57845" lon="3.73703">
        <ele>92.448647</ele>
        <time>2021-02-28T13:45:53Z</time>
      </trkpt>
      <trkpt lat="43.5784" lon="3.73693">
        <ele>92.793457</ele>
        <time>2021-02-28T13:45:58Z</time>
      </trkpt>
      <trkpt lat="43.57836" lon="3.73684">
        <ele>93.035484</ele>
        <time>2021-02-28T13:46:03Z</time>
      </trkpt>
      <trkpt lat="43.57832" lon="3.73676">
        <ele>93.218102</ele>
        <time>2021-02-28T13:46:08Z</time>
      </trkpt>
      <trkpt lat="43.5783" lon="3.73665">
        <ele>93.392059</ele>
        <time>2021-02-28T13:46:13Z</time>
      </trkpt>
      <trkpt lat="43.5783" lon="3.73654">
        <ele>93.736511</ele>
        <time>2021-02-28T13:46:18Z</time>
      </trkpt>
      <trkpt lat="43.57829" lon="3.73644">
        <ele>94.123466</ele>
        <time>2021-02-28T13:46:23Z</time>
      </trkpt>
      <trkpt lat="43.57826" lon="3.73634">
        <ele>94.433678</ele>
        <time>2021-02-28T13:46:28Z</time>
      </trkpt>
      <trkpt lat="43.5782" lon="3.73625">
        <ele>94.828827</ele>
        <time>2021-02-28T13:46:33Z</time>
      </trkpt>
      <trkpt lat="43.57815" lon="3.73619">
        <ele>95.136436</ele>
        <time>2021-02-28T13:46:38Z</time>
      </trkpt>
      <trkpt lat="43.57804" lon="3.73612">
        <ele>95.409813</ele>
        <time>2021-02-28T13:46:43Z</time>
      </trkpt>
      <trkpt lat="43.57795" lon="3.736">
        <ele>95.643074</ele>
        <time>2021-02-28T13:46:48Z</time>
      </trkpt>
      <trkpt lat="43.57787" lon="3.73583">
        <ele>95.963509</ele>
        <time>2021-02-28T13:46:53Z</time>
      </trkpt>
      <trkpt lat="43.57783" lon="3.73566">
        <ele>96.344978</ele>
        <time>2021-02-28T13:46:58Z</time>
      </trkpt>
      <trkpt lat="43.57776" lon="3.73556">
        <ele>96.911285</ele>
        <time>2021-02-28T13:47:58Z</time>
      </trkpt>
      <trkpt lat="43.57762" lon="3.73537">
        <ele>96.954613</ele>
        <time>2021-02-28T13:48:08Z</time>
      </trkpt>
      <trkpt lat="43.57749" lon="3.73519">
        <ele>97.159645</ele>
        <time>2021-02-28T13:48:13Z</time>
      </trkpt>
      <trkpt lat="43.57739" lon="3.7351">
        <ele>97.705688</ele>
        <time>2021-02-28T13:48:18Z</time>
      </trkpt>
      <trkpt lat="43.57728" lon="3.73506">
        <ele>97.864586</ele>
        <time>2021-02-28T13:48:23Z</time>
      </trkpt>
      <trkpt lat="43.57718" lon="3.73502">
        <ele>97.861084</ele>
        <time>2021-02-28T13:48:28Z</time>
      </trkpt>
      <trkpt lat="43.57707" lon="3.73498">
        <ele>97.588623</ele>
        <time>2021-02-28T13:48:33Z</time>
      </trkpt>
      <trkpt lat="43.57697" lon="3.73491">
        <ele>97.301353</ele>
        <time>2021-02-28T13:48:38Z</time>
      </trkpt>
      <trkpt lat="43.5769" lon="3.73478">
        <ele>97.020348</ele>
        <time>2021-02-28T13:48:43Z</time>
      </trkpt>
      <trkpt lat="43.57684" lon="3.73466">
        <ele>97.024818</ele>
        <time>2021-02-28T13:48:48Z</time>
      </trkpt>
      <trkpt lat="43.57681" lon="3.73452">
        <ele>97.08712</ele>
        <time>2021-02-28T13:48:53Z</time>
      </trkpt>
      <trkpt lat="43.5768" lon="3.73438">
        <ele>97.255531</ele>
        <time>2021-02-28T13:48:58Z</time>
      </trkpt>
      <trkpt lat="43.57682" lon="3.73424">
        <ele>97.624123</ele>
        <time>2021-02-28T13:49:03Z</time>
      </trkpt>
      <trkpt lat="43.57687" lon="3.73412">
        <ele>97.967934</ele>
        <time>2021-02-28T13:49:08Z</time>
      </trkpt>
      <trkpt lat="43.57695" lon="3.73404">
        <ele>98.456261</ele>
        <time>2021-02-28T13:49:13Z</time>
      </trkpt>
      <trkpt lat="43.577" lon="3.73396">
        <ele>98.712852</ele>
        <time>2021-02-28T13:49:18Z</time>
      </trkpt>
      <trkpt lat="43.57698" lon="3.73384">
        <ele>99.005096</ele>
        <time>2021-02-28T13:49:23Z</time>
      </trkpt>
      <trkpt lat="43.57694" lon="3.73373">
        <ele>99.314049</ele>
        <time>2021-02-28T13:49:28Z</time>
      </trkpt>
      <trkpt lat="43.57689" lon="3.73357">
        <ele>99.360268</ele>
        <time>2021-02-28T13:49:33Z</time>
      </trkpt>
      <trkpt lat="43.57685" lon="3.73341">
        <ele>99.418213</ele>
        <time>2021-02-28T13:49:38Z</time>
      </trkpt>
      <trkpt lat="43.57682" lon="3.73324">
        <ele>99.57267</ele>
        <time>2021-02-28T13:49:43Z</time>
      </trkpt>
      <trkpt lat="43.57686" lon="3.7331">
        <ele>99.708672</ele>
        <time>2021-02-28T13:49:48Z</time>
      </trkpt>
      <trkpt lat="43.57694" lon="3.73298">
        <ele>99.83075</ele>
        <time>2021-02-28T13:49:53Z</time>
      </trkpt>
      <trkpt lat="43.57701" lon="3.73286">
        <ele>100.109169</ele>
        <time>2021-02-28T13:49:58Z</time>
      </trkpt>
      <trkpt lat="43.57708" lon="3.73273">
        <ele>100.459503</ele>
        <time>2021-02-28T13:50:03Z</time>
      </trkpt>
      <trkpt lat="43.57716" lon="3.73261">
        <ele>100.659645</ele>
        <time>2021-02-28T13:50:08Z</time>
      </trkpt>
      <trkpt lat="43.57726" lon="3.73248">
        <ele>100.756813</ele>
        <time>2021-02-28T13:50:13Z</time>
      </trkpt>
      <trkpt lat="43.57738" lon="3.73233">
        <ele>100.715973</ele>
        <time>2021-02-28T13:50:18Z</time>
      </trkpt>
      <trkpt lat="43.57753" lon="3.73217">
        <ele>100.70282</ele>
        <time>2021-02-28T13:50:23Z</time>
      </trkpt>
      <trkpt lat="43.57763" lon="3.73197">
        <ele>100.821045</ele>
        <time>2021-02-28T13:50:28Z</time>
      </trkpt>
      <trkpt lat="43.57776" lon="3.73191">
        <ele>100.862877</ele>
        <time>2021-02-28T13:50:33Z</time>
      </trkpt>
      <trkpt lat="43.57786" lon="3.73173">
        <ele>101.009193</ele>
        <time>2021-02-28T13:50:38Z</time>
      </trkpt>
      <trkpt lat="43.57796" lon="3.7315">
        <ele>101.028404</ele>
        <time>2021-02-28T13:50:43Z</time>
      </trkpt>
      <trkpt lat="43.57792" lon="3.73132">
        <ele>100.833496</ele>
        <time>2021-02-28T13:50:48Z</time>
      </trkpt>
      <trkpt lat="43.5779" lon="3.73109">
        <ele>100.176109</ele>
        <time>2021-02-28T13:50:53Z</time>
      </trkpt>
      <trkpt lat="43.57787" lon="3.73081">
        <ele>99.189941</ele>
        <time>2021-02-28T13:50:58Z</time>
      </trkpt>
      <trkpt lat="43.57783" lon="3.73057">
        <ele>97.929688</ele>
        <time>2021-02-28T13:51:03Z</time>
      </trkpt>
      <trkpt lat="43.5777" lon="3.73038">
        <ele>96.658333</ele>
        <time>2021-02-28T13:51:08Z</time>
      </trkpt>
      <trkpt lat="43.57762" lon="3.73019">
        <ele>95.430023</ele>
        <time>2021-02-28T13:51:13Z</time>
      </trkpt>
      <trkpt lat="43.57747" lon="3.73002">
        <ele>94.506775</ele>
        <time>2021-02-28T13:51:18Z</time>
      </trkpt>
      <trkpt lat="43.57732" lon="3.72984">
        <ele>92.945564</ele>
        <time>2021-02-28T13:51:23Z</time>
      </trkpt>
      <trkpt lat="43.57718" lon="3.72963">
        <ele>91.411125</ele>
        <time>2021-02-28T13:51:28Z</time>
      </trkpt>
      <trkpt lat="43.57705" lon="3.72941">
        <ele>90.639198</ele>
        <time>2021-02-28T13:51:33Z</time>
      </trkpt>
      <trkpt lat="43.5769" lon="3.72921">
        <ele>90.256737</ele>
        <time>2021-02-28T13:51:38Z</time>
      </trkpt>
      <trkpt lat="43.57673" lon="3.72908">
        <ele>89.770119</ele>
        <time>2021-02-28T13:51:43Z</time>
      </trkpt>
      <trkpt lat="43.57659" lon="3.72892">
        <ele>89.488678</ele>
        <time>2021-02-28T13:51:48Z</time>
      </trkpt>
      <trkpt lat="43.57646" lon="3.7287">
        <ele>88.913841</ele>
        <time>2021-02-28T13:51:53Z</time>
      </trkpt>
      <trkpt lat="43.57642" lon="3.72851">
        <ele>87.976952</ele>
        <time>2021-02-28T13:51:58Z</time>
      </trkpt>
      <trkpt lat="43.57641" lon="3.72828">
        <ele>86.956261</ele>
        <time>2021-02-28T13:52:03Z</time>
      </trkpt>
      <trkpt lat="43.57628" lon="3.7281">
        <ele>85.888649</ele>
        <time>2021-02-28T13:52:08Z</time>
      </trkpt>
      <trkpt lat="43.57615" lon="3.72793">
        <ele>84.796837</ele>
        <time>2021-02-28T13:52:13Z</time>
      </trkpt>
      <trkpt lat="43.57593" lon="3.72779">
        <ele>83.851028</ele>
        <time>2021-02-28T13:52:18Z</time>
      </trkpt>
      <trkpt lat="43.57577" lon="3.72764">
        <ele>82.576942</ele>
        <time>2021-02-28T13:52:23Z</time>
      </trkpt>
      <trkpt lat="43.57558" lon="3.7275">
        <ele>81.518867</ele>
        <time>2021-02-28T13:52:28Z</time>
      </trkpt>
      <trkpt lat="43.57542" lon="3.72728">
        <ele>81.533287</ele>
        <time>2021-02-28T13:52:33Z</time>
      </trkpt>
      <trkpt lat="43.57537" lon="3.7272">
        <ele>81.786522</ele>
        <time>2021-02-28T13:52:38Z</time>
      </trkpt>
      <trkpt lat="43.57539" lon="3.72706">
        <ele>81.876411</ele>
        <time>2021-02-28T13:52:43Z</time>
      </trkpt>
      <trkpt lat="43.57538" lon="3.72684">
        <ele>81.85154</ele>
        <time>2021-02-28T13:52:48Z</time>
      </trkpt>
      <trkpt lat="43.57536" lon="3.7266">
        <ele>81.842049</ele>
        <time>2021-02-28T13:52:53Z</time>
      </trkpt>
      <trkpt lat="43.57536" lon="3.72639">
        <ele>82.002541</ele>
        <time>2021-02-28T13:52:58Z</time>
      </trkpt>
      <trkpt lat="43.57537" lon="3.7262">
        <ele>82.188866</ele>
        <time>2021-02-28T13:53:03Z</time>
      </trkpt>
      <trkpt lat="43.5753" lon="3.72607">
        <ele>82.481041</ele>
        <time>2021-02-28T13:53:08Z</time>
      </trkpt>
      <trkpt lat="43.57518" lon="3.72599">
        <ele>82.994751</ele>
        <time>2021-02-28T13:53:13Z</time>
      </trkpt>
      <trkpt lat="43.5751" lon="3.72587">
        <ele>83.782867</ele>
        <time>2021-02-28T13:53:18Z</time>
      </trkpt>
      <trkpt lat="43.57502" lon="3.72575">
        <ele>84.473915</ele>
        <time>2021-02-28T13:53:23Z</time>
      </trkpt>
      <trkpt lat="43.57494" lon="3.72565">
        <ele>85.048988</ele>
        <time>2021-02-28T13:53:28Z</time>
      </trkpt>
      <trkpt lat="43.57486" lon="3.72556">
        <ele>85.559929</ele>
        <time>2021-02-28T13:53:33Z</time>
      </trkpt>
      <trkpt lat="43.5748" lon="3.72544">
        <ele>85.995949</ele>
        <time>2021-02-28T13:53:38Z</time>
      </trkpt>
      <trkpt lat="43.57473" lon="3.72536">
        <ele>86.331787</ele>
        <time>2021-02-28T13:53:43Z</time>
      </trkpt>
      <trkpt lat="43.57465" lon="3.72529">
        <ele>86.406403</ele>
        <time>2021-02-28T13:53:48Z</time>
      </trkpt>
      <trkpt lat="43.57455" lon="3.72525">
        <ele>86.766472</ele>
        <time>2021-02-28T13:53:53Z</time>
      </trkpt>
      <trkpt lat="43.57447" lon="3.72519">
        <ele>87.020264</ele>
        <time>2021-02-28T13:53:58Z</time>
      </trkpt>
      <trkpt lat="43.57438" lon="3.72511">
        <ele>87.647919</ele>
        <time>2021-02-28T13:54:03Z</time>
      </trkpt>
      <trkpt lat="43.57431" lon="3.72502">
        <ele>88.450111</ele>
        <time>2021-02-28T13:54:08Z</time>
      </trkpt>
      <trkpt lat="43.57425" lon="3.72491">
        <ele>89.111015</ele>
        <time>2021-02-28T13:54:13Z</time>
      </trkpt>
      <trkpt lat="43.57418" lon="3.7248">
        <ele>89.726051</ele>
        <time>2021-02-28T13:54:18Z</time>
      </trkpt>
      <trkpt lat="43.5741" lon="3.72472">
        <ele>90.315308</ele>
        <time>2021-02-28T13:54:23Z</time>
      </trkpt>
      <trkpt lat="43.57402" lon="3.72462">
        <ele>90.657196</ele>
        <time>2021-02-28T13:54:28Z</time>
      </trkpt>
      <trkpt lat="43.57395" lon="3.72451">
        <ele>91.514679</ele>
        <time>2021-02-28T13:54:33Z</time>
      </trkpt>
      <trkpt lat="43.57389" lon="3.7244">
        <ele>92.118248</ele>
        <time>2021-02-28T13:54:38Z</time>
      </trkpt>
      <trkpt lat="43.5738" lon="3.7243">
        <ele>92.601532</ele>
        <time>2021-02-28T13:54:43Z</time>
      </trkpt>
      <trkpt lat="43.57373" lon="3.7242">
        <ele>93.346519</ele>
        <time>2021-02-28T13:54:48Z</time>
      </trkpt>
      <trkpt lat="43.57366" lon="3.72409">
        <ele>94.067909</ele>
        <time>2021-02-28T13:54:53Z</time>
      </trkpt>
      <trkpt lat="43.57359" lon="3.72399">
        <ele>95.03109</ele>
        <time>2021-02-28T13:54:58Z</time>
      </trkpt>
      <trkpt lat="43.57352" lon="3.72388">
        <ele>95.811577</ele>
        <time>2021-02-28T13:55:03Z</time>
      </trkpt>
      <trkpt lat="43.57345" lon="3.72377">
        <ele>96.297615</ele>
        <time>2021-02-28T13:55:08Z</time>
      </trkpt>
      <trkpt lat="43.57342" lon="3.72364">
        <ele>96.872993</ele>
        <time>2021-02-28T13:55:13Z</time>
      </trkpt>
      <trkpt lat="43.57342" lon="3.72353">
        <ele>97.553352</ele>
        <time>2021-02-28T13:55:18Z</time>
      </trkpt>
      <trkpt lat="43.57345" lon="3.72345">
        <ele>97.732147</ele>
        <time>2021-02-28T13:55:23Z</time>
      </trkpt>
      <trkpt lat="43.57345" lon="3.72335">
        <ele>97.775734</ele>
        <time>2021-02-28T13:55:28Z</time>
      </trkpt>
      <trkpt lat="43.57344" lon="3.72325">
        <ele>97.825806</ele>
        <time>2021-02-28T13:55:33Z</time>
      </trkpt>
      <trkpt lat="43.57344" lon="3.72316">
        <ele>97.965599</ele>
        <time>2021-02-28T13:55:38Z</time>
      </trkpt>
      <trkpt lat="43.57342" lon="3.72308">
        <ele>98.076622</ele>
        <time>2021-02-28T13:55:43Z</time>
      </trkpt>
      <trkpt lat="43.5734" lon="3.72303">
        <ele>98.288666</ele>
        <time>2021-02-28T13:55:48Z</time>
      </trkpt>
      <trkpt lat="43.57336" lon="3.72296">
        <ele>98.440033</ele>
        <time>2021-02-28T13:55:53Z</time>
      </trkpt>
      <trkpt lat="43.57331" lon="3.72289">
        <ele>98.772552</ele>
        <time>2021-02-28T13:55:58Z</time>
      </trkpt>
      <trkpt lat="43.57327" lon="3.72278">
        <ele>98.975456</ele>
        <time>2021-02-28T13:56:03Z</time>
      </trkpt>
      <trkpt lat="43.57322" lon="3.72269">
        <ele>99.345177</ele>
        <time>2021-02-28T13:56:08Z</time>
      </trkpt>
      <trkpt lat="43.57316" lon="3.72258">
        <ele>99.638245</ele>
        <time>2021-02-28T13:56:13Z</time>
      </trkpt>
      <trkpt lat="43.5731" lon="3.72245">
        <ele>99.873169</ele>
        <time>2021-02-28T13:56:18Z</time>
      </trkpt>
      <trkpt lat="43.57304" lon="3.7223">
        <ele>100.16021</ele>
        <time>2021-02-28T13:56:23Z</time>
      </trkpt>
      <trkpt lat="43.57297" lon="3.72216">
        <ele>100.31192</ele>
        <time>2021-02-28T13:56:28Z</time>
      </trkpt>
      <trkpt lat="43.57291" lon="3.72202">
        <ele>100.406548</ele>
        <time>2021-02-28T13:56:33Z</time>
      </trkpt>
      <trkpt lat="43.57283" lon="3.72191">
        <ele>100.411522</ele>
        <time>2021-02-28T13:56:38Z</time>
      </trkpt>
      <trkpt lat="43.57274" lon="3.72182">
        <ele>100.39325</ele>
        <time>2021-02-28T13:56:43Z</time>
      </trkpt>
      <trkpt lat="43.57262" lon="3.72177">
        <ele>100.375603</ele>
        <time>2021-02-28T13:56:48Z</time>
      </trkpt>
      <trkpt lat="43.57255" lon="3.72164">
        <ele>100.332603</ele>
        <time>2021-02-28T13:56:53Z</time>
      </trkpt>
      <trkpt lat="43.5725" lon="3.72151">
        <ele>100.142647</ele>
        <time>2021-02-28T13:56:58Z</time>
      </trkpt>
      <trkpt lat="43.57243" lon="3.72141">
        <ele>99.90332</ele>
        <time>2021-02-28T13:57:03Z</time>
      </trkpt>
      <trkpt lat="43.57237" lon="3.72133">
        <ele>99.750343</ele>
        <time>2021-02-28T13:57:08Z</time>
      </trkpt>
      <trkpt lat="43.57229" lon="3.72126">
        <ele>99.643555</ele>
        <time>2021-02-28T13:57:13Z</time>
      </trkpt>
      <trkpt lat="43.57222" lon="3.72121">
        <ele>99.472412</ele>
        <time>2021-02-28T13:57:18Z</time>
      </trkpt>
      <trkpt lat="43.57214" lon="3.72116">
        <ele>99.340515</ele>
        <time>2021-02-28T13:57:23Z</time>
      </trkpt>
      <trkpt lat="43.57209" lon="3.72106">
        <ele>99.15078</ele>
        <time>2021-02-28T14:04:28Z</time>
      </trkpt>
      <trkpt lat="43.57209" lon="3.72088">
        <ele>98.859978</ele>
        <time>2021-02-28T14:04:38Z</time>
      </trkpt>
      <trkpt lat="43.57216" lon="3.72071">
        <ele>98.375008</ele>
        <time>2021-02-28T14:04:43Z</time>
      </trkpt>
      <trkpt lat="43.57209" lon="3.72048">
        <ele>97.949135</ele>
        <time>2021-02-28T14:04:48Z</time>
      </trkpt>
      <trkpt lat="43.572" lon="3.72024">
        <ele>97.217529</ele>
        <time>2021-02-28T14:04:53Z</time>
      </trkpt>
      <trkpt lat="43.572" lon="3.72008">
        <ele>96.385078</ele>
        <time>2021-02-28T14:04:58Z</time>
      </trkpt>
      <trkpt lat="43.572" lon="3.71994">
        <ele>95.579994</ele>
        <time>2021-02-28T14:05:03Z</time>
      </trkpt>
      <trkpt lat="43.57198" lon="3.71986">
        <ele>95.165245</ele>
        <time>2021-02-28T14:05:13Z</time>
      </trkpt>
      <trkpt lat="43.57189" lon="3.71983">
        <ele>94.861473</ele>
        <time>2021-02-28T14:05:18Z</time>
      </trkpt>
      <trkpt lat="43.5718" lon="3.71982">
        <ele>94.563377</ele>
        <time>2021-02-28T14:05:23Z</time>
      </trkpt>
      <trkpt lat="43.57167" lon="3.71981">
        <ele>94.170357</ele>
        <time>2021-02-28T14:05:28Z</time>
      </trkpt>
      <trkpt lat="43.57161" lon="3.71967">
        <ele>93.613304</ele>
        <time>2021-02-28T14:05:33Z</time>
      </trkpt>
      <trkpt lat="43.57154" lon="3.71949">
        <ele>92.89431</ele>
        <time>2021-02-28T14:05:38Z</time>
      </trkpt>
      <trkpt lat="43.57137" lon="3.71934">
        <ele>91.566101</ele>
        <time>2021-02-28T14:05:43Z</time>
      </trkpt>
      <trkpt lat="43.57119" lon="3.7192">
        <ele>90.081352</ele>
        <time>2021-02-28T14:05:48Z</time>
      </trkpt>
      <trkpt lat="43.57101" lon="3.71908">
        <ele>88.727722</ele>
        <time>2021-02-28T14:05:53Z</time>
      </trkpt>
      <trkpt lat="43.57092" lon="3.71885">
        <ele>86.701546</ele>
        <time>2021-02-28T14:05:58Z</time>
      </trkpt>
      <trkpt lat="43.5709" lon="3.71859">
        <ele>84.992683</ele>
        <time>2021-02-28T14:06:03Z</time>
      </trkpt>
      <trkpt lat="43.57079" lon="3.71838">
        <ele>84.377487</ele>
        <time>2021-02-28T14:06:08Z</time>
      </trkpt>
      <trkpt lat="43.57055" lon="3.71847">
        <ele>83.778023</ele>
        <time>2021-02-28T14:06:13Z</time>
      </trkpt>
      <trkpt lat="43.57026" lon="3.7184">
        <ele>82.150597</ele>
        <time>2021-02-28T14:06:18Z</time>
      </trkpt>
      <trkpt lat="43.56997" lon="3.71831">
        <ele>81.197304</ele>
        <time>2021-02-28T14:06:23Z</time>
      </trkpt>
      <trkpt lat="43.56973" lon="3.71813">
        <ele>81.147736</ele>
        <time>2021-02-28T14:06:28Z</time>
      </trkpt>
      <trkpt lat="43.56954" lon="3.71791">
        <ele>81.079239</ele>
        <time>2021-02-28T14:06:33Z</time>
      </trkpt>
      <trkpt lat="43.56938" lon="3.71768">
        <ele>80.980003</ele>
        <time>2021-02-28T14:06:38Z</time>
      </trkpt>
      <trkpt lat="43.56924" lon="3.71745">
        <ele>80.886536</ele>
        <time>2021-02-28T14:06:43Z</time>
      </trkpt>
      <trkpt lat="43.56909" lon="3.71733">
        <ele>80.562347</ele>
        <time>2021-02-28T14:06:48Z</time>
      </trkpt>
      <trkpt lat="43.56896" lon="3.71727">
        <ele>80.241859</ele>
        <time>2021-02-28T14:06:53Z</time>
      </trkpt>
      <trkpt lat="43.56886" lon="3.71717">
        <ele>80.137779</ele>
        <time>2021-02-28T14:06:58Z</time>
      </trkpt>
      <trkpt lat="43.56876" lon="3.71702">
        <ele>79.944427</ele>
        <time>2021-02-28T14:07:03Z</time>
      </trkpt>
      <trkpt lat="43.56866" lon="3.71705">
        <ele>79.332756</ele>
        <time>2021-02-28T14:07:08Z</time>
      </trkpt>
      <trkpt lat="43.56855" lon="3.71704">
        <ele>79.351608</ele>
        <time>2021-02-28T14:07:13Z</time>
      </trkpt>
      <trkpt lat="43.56846" lon="3.7169">
        <ele>79.409492</ele>
        <time>2021-02-28T14:07:18Z</time>
      </trkpt>
      <trkpt lat="43.56836" lon="3.71677">
        <ele>78.679192</ele>
        <time>2021-02-28T14:07:23Z</time>
      </trkpt>
      <trkpt lat="43.56825" lon="3.71664">
        <ele>77.964981</ele>
        <time>2021-02-28T14:07:28Z</time>
      </trkpt>
      <trkpt lat="43.56815" lon="3.71655">
        <ele>77.385727</ele>
        <time>2021-02-28T14:07:33Z</time>
      </trkpt>
      <trkpt lat="43.56797" lon="3.71641">
        <ele>76.465683</ele>
        <time>2021-02-28T14:07:38Z</time>
      </trkpt>
      <trkpt lat="43.56793" lon="3.71621">
        <ele>75.691292</ele>
        <time>2021-02-28T14:07:43Z</time>
      </trkpt>
      <trkpt lat="43.56802" lon="3.7161">
        <ele>74.565819</ele>
        <time>2021-02-28T14:07:48Z</time>
      </trkpt>
      <trkpt lat="43.56807" lon="3.71601">
        <ele>73.668549</ele>
        <time>2021-02-28T14:07:53Z</time>
      </trkpt>
      <trkpt lat="43.56795" lon="3.71594">
        <ele>73.635162</ele>
        <time>2021-02-28T14:07:58Z</time>
      </trkpt>
      <trkpt lat="43.56784" lon="3.71586">
        <ele>73.592827</ele>
        <time>2021-02-28T14:08:03Z</time>
      </trkpt>
      <trkpt lat="43.56772" lon="3.71576">
        <ele>73.400902</ele>
        <time>2021-02-28T14:08:08Z</time>
      </trkpt>
      <trkpt lat="43.56759" lon="3.7157">
        <ele>73.170242</ele>
        <time>2021-02-28T14:08:13Z</time>
      </trkpt>
      <trkpt lat="43.56746" lon="3.71564">
        <ele>72.982887</ele>
        <time>2021-02-28T14:08:18Z</time>
      </trkpt>
      <trkpt lat="43.56733" lon="3.71557">
        <ele>72.839043</ele>
        <time>2021-02-28T14:08:23Z</time>
      </trkpt>
      <trkpt lat="43.56726" lon="3.71542">
        <ele>72.686729</ele>
        <time>2021-02-28T14:08:28Z</time>
      </trkpt>
      <trkpt lat="43.56731" lon="3.71526">
        <ele>72.528885</ele>
        <time>2021-02-28T14:08:33Z</time>
      </trkpt>
      <trkpt lat="43.56734" lon="3.71518">
        <ele>72.377907</ele>
        <time>2021-02-28T14:08:38Z</time>
      </trkpt>
      <trkpt lat="43.5673" lon="3.71531">
        <ele>72.32975</ele>
        <time>2021-02-28T14:09:43Z</time>
      </trkpt>
      <trkpt lat="43.56731" lon="3.7155">
        <ele>72.346992</ele>
        <time>2021-02-28T14:09:53Z</time>
      </trkpt>
      <trkpt lat="43.56744" lon="3.71562">
        <ele>72.466499</ele>
        <time>2021-02-28T14:09:58Z</time>
      </trkpt>
      <trkpt lat="43.56762" lon="3.71572">
        <ele>72.576187</ele>
        <time>2021-02-28T14:10:03Z</time>
      </trkpt>
      <trkpt lat="43.5677" lon="3.71587">
        <ele>72.885094</ele>
        <time>2021-02-28T14:10:08Z</time>
      </trkpt>
      <trkpt lat="43.56773" lon="3.71602">
        <ele>73.060249</ele>
        <time>2021-02-28T14:10:13Z</time>
      </trkpt>
      <trkpt lat="43.56766" lon="3.71606">
        <ele>73.097267</ele>
        <time>2021-02-28T14:10:18Z</time>
      </trkpt>
      <trkpt lat="43.56756" lon="3.71616">
        <ele>73.041321</ele>
        <time>2021-02-28T14:10:23Z</time>
      </trkpt>
      <trkpt lat="43.56744" lon="3.71623">
        <ele>73.124153</ele>
        <time>2021-02-28T14:10:28Z</time>
      </trkpt>
      <trkpt lat="43.5673" lon="3.71636">
        <ele>73.684814</ele>
        <time>2021-02-28T14:10:33Z</time>
      </trkpt>
      <trkpt lat="43.56715" lon="3.71648">
        <ele>74.701256</ele>
        <time>2021-02-28T14:10:38Z</time>
      </trkpt>
      <trkpt lat="43.56706" lon="3.71647">
        <ele>75.155762</ele>
        <time>2021-02-28T14:10:43Z</time>
      </trkpt>
      <trkpt lat="43.56696" lon="3.71645">
        <ele>75.500816</ele>
        <time>2021-02-28T14:10:48Z</time>
      </trkpt>
      <trkpt lat="43.56688" lon="3.71645">
        <ele>75.358856</ele>
        <time>2021-02-28T14:10:53Z</time>
      </trkpt>
      <trkpt lat="43.56678" lon="3.71655">
        <ele>75.23629</ele>
        <time>2021-02-28T14:10:58Z</time>
      </trkpt>
      <trkpt lat="43.56669" lon="3.71662">
        <ele>75.557495</ele>
        <time>2021-02-28T14:11:03Z</time>
      </trkpt>
      <trkpt lat="43.56658" lon="3.71663">
        <ele>75.767868</ele>
        <time>2021-02-28T14:11:08Z</time>
      </trkpt>
      <trkpt lat="43.5665" lon="3.7166">
        <ele>75.744209</ele>
        <time>2021-02-28T14:11:13Z</time>
      </trkpt>
      <trkpt lat="43.56642" lon="3.71655">
        <ele>75.359741</ele>
        <time>2021-02-28T14:11:18Z</time>
      </trkpt>
      <trkpt lat="43.56635" lon="3.7165">
        <ele>74.848877</ele>
        <time>2021-02-28T14:11:23Z</time>
      </trkpt>
      <trkpt lat="43.56628" lon="3.71645">
        <ele>74.422668</ele>
        <time>2021-02-28T14:11:28Z</time>
      </trkpt>
      <trkpt lat="43.56622" lon="3.7164">
        <ele>73.912392</ele>
        <time>2021-02-28T14:11:33Z</time>
      </trkpt>
      <trkpt lat="43.56614" lon="3.71634">
        <ele>73.473686</ele>
        <time>2021-02-28T14:11:38Z</time>
      </trkpt>
      <trkpt lat="43.56606" lon="3.7163">
        <ele>73.191689</ele>
        <time>2021-02-28T14:11:43Z</time>
      </trkpt>
      <trkpt lat="43.56599" lon="3.71627">
        <ele>72.671318</ele>
        <time>2021-02-28T14:11:48Z</time>
      </trkpt>
      <trkpt lat="43.56591" lon="3.7163">
        <ele>72.373108</ele>
        <time>2021-02-28T14:11:53Z</time>
      </trkpt>
      <trkpt lat="43.56583" lon="3.71634">
        <ele>72.316765</ele>
        <time>2021-02-28T14:11:58Z</time>
      </trkpt>
      <trkpt lat="43.56573" lon="3.71644">
        <ele>72.532059</ele>
        <time>2021-02-28T14:12:23Z</time>
      </trkpt>
      <trkpt lat="43.56562" lon="3.71656">
        <ele>72.754356</ele>
        <time>2021-02-28T14:12:43Z</time>
      </trkpt>
      <trkpt lat="43.56556" lon="3.71666">
        <ele>72.886772</ele>
        <time>2021-02-28T14:12:53Z</time>
      </trkpt>
      <trkpt lat="43.5655" lon="3.71677">
        <ele>73.14492</ele>
        <time>2021-02-28T14:12:58Z</time>
      </trkpt>
      <trkpt lat="43.56546" lon="3.71682">
        <ele>73.333435</ele>
        <time>2021-02-28T14:13:03Z</time>
      </trkpt>
      <trkpt lat="43.56537" lon="3.71705">
        <ele>73.548531</ele>
        <time>2021-02-28T14:13:23Z</time>
      </trkpt>
      <trkpt lat="43.5653" lon="3.71718">
        <ele>73.722374</ele>
        <time>2021-02-28T14:13:33Z</time>
      </trkpt>
      <trkpt lat="43.56523" lon="3.71731">
        <ele>73.821106</ele>
        <time>2021-02-28T14:13:38Z</time>
      </trkpt>
      <trkpt lat="43.56516" lon="3.71744">
        <ele>73.787193</ele>
        <time>2021-02-28T14:13:43Z</time>
      </trkpt>
      <trkpt lat="43.56505" lon="3.71755">
        <ele>73.694916</ele>
        <time>2021-02-28T14:13:48Z</time>
      </trkpt>
      <trkpt lat="43.56494" lon="3.71765">
        <ele>73.500702</ele>
        <time>2021-02-28T14:13:53Z</time>
      </trkpt>
      <trkpt lat="43.56484" lon="3.7177">
        <ele>72.817879</ele>
        <time>2021-02-28T14:13:58Z</time>
      </trkpt>
      <trkpt lat="43.56475" lon="3.71774">
        <ele>71.874847</ele>
        <time>2021-02-28T14:14:03Z</time>
      </trkpt>
      <trkpt lat="43.56466" lon="3.71772">
        <ele>71.291695</ele>
        <time>2021-02-28T14:14:08Z</time>
      </trkpt>
      <trkpt lat="43.56456" lon="3.71764">
        <ele>70.591133</ele>
        <time>2021-02-28T14:14:13Z</time>
      </trkpt>
      <trkpt lat="43.56446" lon="3.71758">
        <ele>69.94928</ele>
        <time>2021-02-28T14:14:18Z</time>
      </trkpt>
      <trkpt lat="43.56435" lon="3.71752">
        <ele>69.343971</ele>
        <time>2021-02-28T14:14:23Z</time>
      </trkpt>
      <trkpt lat="43.56425" lon="3.71748">
        <ele>68.8312</ele>
        <time>2021-02-28T14:14:28Z</time>
      </trkpt>
      <trkpt lat="43.56414" lon="3.71744">
        <ele>68.207542</ele>
        <time>2021-02-28T14:14:33Z</time>
      </trkpt>
      <trkpt lat="43.56401" lon="3.71739">
        <ele>67.353119</ele>
        <time>2021-02-28T14:14:38Z</time>
      </trkpt>
      <trkpt lat="43.56399" lon="3.71729">
        <ele>66.403305</ele>
        <time>2021-02-28T14:14:43Z</time>
      </trkpt>
      <trkpt lat="43.56403" lon="3.7172">
        <ele>66.266869</ele>
        <time>2021-02-28T14:14:48Z</time>
      </trkpt>
      <trkpt lat="43.56408" lon="3.7171">
        <ele>66.494942</ele>
        <time>2021-02-28T14:14:53Z</time>
      </trkpt>
      <trkpt lat="43.56413" lon="3.71698">
        <ele>66.94754</ele>
        <time>2021-02-28T14:14:58Z</time>
      </trkpt>
      <trkpt lat="43.56417" lon="3.71686">
        <ele>67.381828</ele>
        <time>2021-02-28T14:15:03Z</time>
      </trkpt>
      <trkpt lat="43.56421" lon="3.71673">
        <ele>67.697876</ele>
        <time>2021-02-28T14:15:08Z</time>
      </trkpt>
      <trkpt lat="43.56426" lon="3.71661">
        <ele>67.909454</ele>
        <time>2021-02-28T14:15:13Z</time>
      </trkpt>
      <trkpt lat="43.56431" lon="3.7165">
        <ele>68.090195</ele>
        <time>2021-02-28T14:15:18Z</time>
      </trkpt>
      <trkpt lat="43.56435" lon="3.71636">
        <ele>68.235764</ele>
        <time>2021-02-28T14:15:23Z</time>
      </trkpt>
      <trkpt lat="43.56437" lon="3.71621">
        <ele>68.292274</ele>
        <time>2021-02-28T14:15:28Z</time>
      </trkpt>
      <trkpt lat="43.56435" lon="3.71612">
        <ele>68.26107</ele>
        <time>2021-02-28T14:15:33Z</time>
      </trkpt>
      <trkpt lat="43.56431" lon="3.71602">
        <ele>68.173744</ele>
        <time>2021-02-28T14:15:38Z</time>
      </trkpt>
      <trkpt lat="43.56432" lon="3.71595">
        <ele>67.7369</ele>
        <time>2021-02-28T14:15:43Z</time>
      </trkpt>
      <trkpt lat="43.56416" lon="3.71588">
        <ele>67.17334</ele>
        <time>2021-02-28T14:18:28Z</time>
      </trkpt>
      <trkpt lat="43.56406" lon="3.71584">
        <ele>66.762939</ele>
        <time>2021-02-28T14:18:38Z</time>
      </trkpt>
      <trkpt lat="43.56401" lon="3.71573">
        <ele>66.293457</ele>
        <time>2021-02-28T14:18:43Z</time>
      </trkpt>
      <trkpt lat="43.56402" lon="3.71561">
        <ele>65.919434</ele>
        <time>2021-02-28T14:18:48Z</time>
      </trkpt>
      <trkpt lat="43.56405" lon="3.71549">
        <ele>65.237221</ele>
        <time>2021-02-28T14:18:53Z</time>
      </trkpt>
      <trkpt lat="43.56409" lon="3.71541">
        <ele>64.788574</ele>
        <time>2021-02-28T14:18:58Z</time>
      </trkpt>
      <trkpt lat="43.56405" lon="3.71529">
        <ele>64.500893</ele>
        <time>2021-02-28T14:19:03Z</time>
      </trkpt>
      <trkpt lat="43.56404" lon="3.71522">
        <ele>64.082848</ele>
        <time>2021-02-28T14:19:08Z</time>
      </trkpt>
      <trkpt lat="43.56389" lon="3.71521">
        <ele>62.865234</ele>
        <time>2021-02-28T14:20:58Z</time>
      </trkpt>
      <trkpt lat="43.56381" lon="3.71516">
        <ele>62.671223</ele>
        <time>2021-02-28T14:21:08Z</time>
      </trkpt>
      <trkpt lat="43.56381" lon="3.71521">
        <ele>62.370117</ele>
        <time>2021-02-28T14:21:13Z</time>
      </trkpt>
      <trkpt lat="43.56378" lon="3.71536">
        <ele>62.618816</ele>
        <time>2021-02-28T14:21:18Z</time>
      </trkpt>
      <trkpt lat="43.56373" lon="3.71547">
        <ele>63.041504</ele>
        <time>2021-02-28T14:21:28Z</time>
      </trkpt>
      <trkpt lat="43.56368" lon="3.71542">
        <ele>63.554119</ele>
        <time>2021-02-28T14:21:33Z</time>
      </trkpt>
      <trkpt lat="43.56365" lon="3.71532">
        <ele>63.45882</ele>
        <time>2021-02-28T14:21:38Z</time>
      </trkpt>
      <trkpt lat="43.56362" lon="3.71529">
        <ele>62.852539</ele>
        <time>2021-02-28T14:21:43Z</time>
      </trkpt>
      <trkpt lat="43.56353" lon="3.7153">
        <ele>62.249676</ele>
        <time>2021-02-28T14:21:53Z</time>
      </trkpt>
      <trkpt lat="43.56348" lon="3.71531">
        <ele>62.126984</ele>
        <time>2021-02-28T14:22:03Z</time>
      </trkpt>
      <trkpt lat="43.56336" lon="3.71538">
        <ele>61.836456</ele>
        <time>2021-02-28T14:22:08Z</time>
      </trkpt>
      <trkpt lat="43.56325" lon="3.7155">
        <ele>61.022919</ele>
        <time>2021-02-28T14:22:13Z</time>
      </trkpt>
      <trkpt lat="43.56315" lon="3.71564">
        <ele>60.351593</ele>
        <time>2021-02-28T14:22:18Z</time>
      </trkpt>
      <trkpt lat="43.56303" lon="3.71576">
        <ele>59.229404</ele>
        <time>2021-02-28T14:22:23Z</time>
      </trkpt>
      <trkpt lat="43.56295" lon="3.71589">
        <ele>58.511417</ele>
        <time>2021-02-28T14:22:28Z</time>
      </trkpt>
      <trkpt lat="43.56284" lon="3.71584">
        <ele>57.855072</ele>
        <time>2021-02-28T14:22:33Z</time>
      </trkpt>
      <trkpt lat="43.56279" lon="3.71597">
        <ele>56.570515</ele>
        <time>2021-02-28T14:22:38Z</time>
      </trkpt>
      <trkpt lat="43.56277" lon="3.71609">
        <ele>55.989178</ele>
        <time>2021-02-28T14:22:43Z</time>
      </trkpt>
      <trkpt lat="43.56274" lon="3.71619">
        <ele>55.898174</ele>
        <time>2021-02-28T14:22:48Z</time>
      </trkpt>
      <trkpt lat="43.56264" lon="3.71616">
        <ele>55.634277</ele>
        <time>2021-02-28T14:22:53Z</time>
      </trkpt>
      <trkpt lat="43.56253" lon="3.71597">
        <ele>54.598053</ele>
        <time>2021-02-28T14:22:58Z</time>
      </trkpt>
      <trkpt lat="43.5624" lon="3.71578">
        <ele>53.423534</ele>
        <time>2021-02-28T14:23:03Z</time>
      </trkpt>
      <trkpt lat="43.56224" lon="3.71562">
        <ele>51.347485</ele>
        <time>2021-02-28T14:23:08Z</time>
      </trkpt>
      <trkpt lat="43.5621" lon="3.71555">
        <ele>49.322666</ele>
        <time>2021-02-28T14:23:13Z</time>
      </trkpt>
      <trkpt lat="43.56221" lon="3.71568">
        <ele>48.190716</ele>
        <time>2021-02-28T14:26:13Z</time>
      </trkpt>
      <trkpt lat="43.56231" lon="3.7158">
        <ele>48.793594</ele>
        <time>2021-02-28T14:26:23Z</time>
      </trkpt>
      <trkpt lat="43.56239" lon="3.71593">
        <ele>49.770306</ele>
        <time>2021-02-28T14:26:28Z</time>
      </trkpt>
      <trkpt lat="43.56247" lon="3.71606">
        <ele>51.098507</ele>
        <time>2021-02-28T14:26:33Z</time>
      </trkpt>
      <trkpt lat="43.56258" lon="3.71624">
        <ele>52.322987</ele>
        <time>2021-02-28T14:26:38Z</time>
      </trkpt>
      <trkpt lat="43.5627" lon="3.71645">
        <ele>53.567871</ele>
        <time>2021-02-28T14:26:43Z</time>
      </trkpt>
      <trkpt lat="43.5628" lon="3.71664">
        <ele>54.63208</ele>
        <time>2021-02-28T14:26:48Z</time>
      </trkpt>
      <trkpt lat="43.5629" lon="3.71684">
        <ele>55.568115</ele>
        <time>2021-02-28T14:26:53Z</time>
      </trkpt>
      <trkpt lat="43.56297" lon="3.71705">
        <ele>56.426174</ele>
        <time>2021-02-28T14:26:58Z</time>
      </trkpt>
      <trkpt lat="43.56303" lon="3.71725">
        <ele>57.035297</ele>
        <time>2021-02-28T14:27:03Z</time>
      </trkpt>
      <trkpt lat="43.56308" lon="3.7174">
        <ele>57.371231</ele>
        <time>2021-02-28T14:27:08Z</time>
      </trkpt>
      <trkpt lat="43.56311" lon="3.71754">
        <ele>57.532078</ele>
        <time>2021-02-28T14:27:13Z</time>
      </trkpt>
      <trkpt lat="43.56316" lon="3.71768">
        <ele>57.551815</ele>
        <time>2021-02-28T14:27:18Z</time>
      </trkpt>
      <trkpt lat="43.56318" lon="3.71782">
        <ele>57.528889</ele>
        <time>2021-02-28T14:27:23Z</time>
      </trkpt>
      <trkpt lat="43.56321" lon="3.71798">
        <ele>57.482422</ele>
        <time>2021-02-28T14:27:28Z</time>
      </trkpt>
      <trkpt lat="43.56325" lon="3.71816">
        <ele>57.325195</ele>
        <time>2021-02-28T14:27:33Z</time>
      </trkpt>
      <trkpt lat="43.56327" lon="3.71839">
        <ele>57.129559</ele>
        <time>2021-02-28T14:27:38Z</time>
      </trkpt>
      <trkpt lat="43.56331" lon="3.71861">
        <ele>56.709137</ele>
        <time>2021-02-28T14:27:43Z</time>
      </trkpt>
      <trkpt lat="43.56332" lon="3.71884">
        <ele>56.274113</ele>
        <time>2021-02-28T14:27:48Z</time>
      </trkpt>
      <trkpt lat="43.56332" lon="3.71908">
        <ele>55.614666</ele>
        <time>2021-02-28T14:27:53Z</time>
      </trkpt>
      <trkpt lat="43.56332" lon="3.71933">
        <ele>55.197979</ele>
        <time>2021-02-28T14:27:58Z</time>
      </trkpt>
      <trkpt lat="43.56331" lon="3.71958">
        <ele>54.981232</ele>
        <time>2021-02-28T14:28:03Z</time>
      </trkpt>
      <trkpt lat="43.56332" lon="3.71983">
        <ele>54.725697</ele>
        <time>2021-02-28T14:28:08Z</time>
      </trkpt>
      <trkpt lat="43.56332" lon="3.72009">
        <ele>54.427082</ele>
        <time>2021-02-28T14:28:13Z</time>
      </trkpt>
      <trkpt lat="43.56331" lon="3.72031">
        <ele>53.997803</ele>
        <time>2021-02-28T14:28:18Z</time>
      </trkpt>
      <trkpt lat="43.56332" lon="3.72056">
        <ele>53.662964</ele>
        <time>2021-02-28T14:28:23Z</time>
      </trkpt>
      <trkpt lat="43.56331" lon="3.72078">
        <ele>53.402542</ele>
        <time>2021-02-28T14:28:28Z</time>
      </trkpt>
      <trkpt lat="43.56331" lon="3.721">
        <ele>53.207333</ele>
        <time>2021-02-28T14:28:33Z</time>
      </trkpt>
      <trkpt lat="43.56331" lon="3.72122">
        <ele>52.981701</ele>
        <time>2021-02-28T14:28:38Z</time>
      </trkpt>
      <trkpt lat="43.56331" lon="3.72145">
        <ele>52.588867</ele>
        <time>2021-02-28T14:28:43Z</time>
      </trkpt>
      <trkpt lat="43.56332" lon="3.72166">
        <ele>52.309002</ele>
        <time>2021-02-28T14:28:48Z</time>
      </trkpt>
      <trkpt lat="43.56334" lon="3.72187">
        <ele>52.179047</ele>
        <time>2021-02-28T14:28:53Z</time>
      </trkpt>
      <trkpt lat="43.56335" lon="3.72208">
        <ele>52.15918</ele>
        <time>2021-02-28T14:28:58Z</time>
      </trkpt>
      <trkpt lat="43.56336" lon="3.72219">
        <ele>52.100361</ele>
        <time>2021-02-28T14:29:03Z</time>
      </trkpt>
      <trkpt lat="43.56339" lon="3.72234">
        <ele>52.084156</ele>
        <time>2021-02-28T14:29:08Z</time>
      </trkpt>
      <trkpt lat="43.56343" lon="3.72248">
        <ele>52.230831</ele>
        <time>2021-02-28T14:29:13Z</time>
      </trkpt>
      <trkpt lat="43.56347" lon="3.72263">
        <ele>52.51865</ele>
        <time>2021-02-28T14:29:18Z</time>
      </trkpt>
      <trkpt lat="43.5635" lon="3.72276">
        <ele>52.754375</ele>
        <time>2021-02-28T14:29:23Z</time>
      </trkpt>
      <trkpt lat="43.56356" lon="3.72292">
        <ele>52.923969</ele>
        <time>2021-02-28T14:29:28Z</time>
      </trkpt>
      <trkpt lat="43.56365" lon="3.72318">
        <ele>53.209503</ele>
        <time>2021-02-28T14:29:33Z</time>
      </trkpt>
      <trkpt lat="43.56377" lon="3.72346">
        <ele>53.441799</ele>
        <time>2021-02-28T14:29:38Z</time>
      </trkpt>
      <trkpt lat="43.56388" lon="3.72367">
        <ele>53.708179</ele>
        <time>2021-02-28T14:29:43Z</time>
      </trkpt>
      <trkpt lat="43.56402" lon="3.72386">
        <ele>53.976849</ele>
        <time>2021-02-28T14:29:48Z</time>
      </trkpt>
      <trkpt lat="43.56416" lon="3.72406">
        <ele>54.320969</ele>
        <time>2021-02-28T14:29:53Z</time>
      </trkpt>
      <trkpt lat="43.56431" lon="3.72426">
        <ele>54.530186</ele>
        <time>2021-02-28T14:29:58Z</time>
      </trkpt>
      <trkpt lat="43.56447" lon="3.72442">
        <ele>54.799931</ele>
        <time>2021-02-28T14:30:03Z</time>
      </trkpt>
      <trkpt lat="43.56463" lon="3.72457">
        <ele>55.207279</ele>
        <time>2021-02-28T14:30:08Z</time>
      </trkpt>
      <trkpt lat="43.5648" lon="3.72474">
        <ele>55.551228</ele>
        <time>2021-02-28T14:30:13Z</time>
      </trkpt>
      <trkpt lat="43.56498" lon="3.7249">
        <ele>55.803799</ele>
        <time>2021-02-28T14:30:18Z</time>
      </trkpt>
      <trkpt lat="43.56515" lon="3.72507">
        <ele>56.018177</ele>
        <time>2021-02-28T14:30:23Z</time>
      </trkpt>
      <trkpt lat="43.56531" lon="3.72524">
        <ele>56.247334</ele>
        <time>2021-02-28T14:30:28Z</time>
      </trkpt>
      <trkpt lat="43.56546" lon="3.72544">
        <ele>56.641201</ele>
        <time>2021-02-28T14:30:33Z</time>
      </trkpt>
      <trkpt lat="43.56561" lon="3.72561">
        <ele>56.721958</ele>
        <time>2021-02-28T14:30:38Z</time>
      </trkpt>
      <trkpt lat="43.56575" lon="3.72575">
        <ele>56.682892</ele>
        <time>2021-02-28T14:30:43Z</time>
      </trkpt>
      <trkpt lat="43.56586" lon="3.72584">
        <ele>56.830566</ele>
        <time>2021-02-28T14:30:48Z</time>
      </trkpt>
      <trkpt lat="43.56596" lon="3.72593">
        <ele>57.131023</ele>
        <time>2021-02-28T14:30:53Z</time>
      </trkpt>
      <trkpt lat="43.56611" lon="3.72605">
        <ele>57.394215</ele>
        <time>2021-02-28T14:30:58Z</time>
      </trkpt>
      <trkpt lat="43.56625" lon="3.72619">
        <ele>57.71991</ele>
        <time>2021-02-28T14:31:03Z</time>
      </trkpt>
      <trkpt lat="43.56642" lon="3.72635">
        <ele>57.857452</ele>
        <time>2021-02-28T14:31:08Z</time>
      </trkpt>
      <trkpt lat="43.5666" lon="3.72652">
        <ele>58.246662</ele>
        <time>2021-02-28T14:31:13Z</time>
      </trkpt>
      <trkpt lat="43.56677" lon="3.72669">
        <ele>58.884907</ele>
        <time>2021-02-28T14:31:18Z</time>
      </trkpt>
      <trkpt lat="43.56692" lon="3.72692">
        <ele>59.436314</ele>
        <time>2021-02-28T14:31:23Z</time>
      </trkpt>
      <trkpt lat="43.56706" lon="3.72715">
        <ele>59.528427</ele>
        <time>2021-02-28T14:31:28Z</time>
      </trkpt>
      <trkpt lat="43.56722" lon="3.72725">
        <ele>59.575665</ele>
        <time>2021-02-28T14:31:33Z</time>
      </trkpt>
      <trkpt lat="43.56739" lon="3.7274">
        <ele>60.247925</ele>
        <time>2021-02-28T14:31:38Z</time>
      </trkpt>
      <trkpt lat="43.56754" lon="3.72757">
        <ele>60.811554</ele>
        <time>2021-02-28T14:31:43Z</time>
      </trkpt>
      <trkpt lat="43.5677" lon="3.72775">
        <ele>61.146637</ele>
        <time>2021-02-28T14:31:48Z</time>
      </trkpt>
      <trkpt lat="43.56783" lon="3.72792">
        <ele>61.447514</ele>
        <time>2021-02-28T14:31:53Z</time>
      </trkpt>
      <trkpt lat="43.56795" lon="3.7281">
        <ele>61.54031</ele>
        <time>2021-02-28T14:31:58Z</time>
      </trkpt>
      <trkpt lat="43.56807" lon="3.72826">
        <ele>61.480133</ele>
        <time>2021-02-28T14:32:03Z</time>
      </trkpt>
      <trkpt lat="43.56818" lon="3.72843">
        <ele>61.248684</ele>
        <time>2021-02-28T14:32:08Z</time>
      </trkpt>
      <trkpt lat="43.56829" lon="3.7286">
        <ele>60.868587</ele>
        <time>2021-02-28T14:32:13Z</time>
      </trkpt>
      <trkpt lat="43.56839" lon="3.72873">
        <ele>60.413303</ele>
        <time>2021-02-28T14:32:18Z</time>
      </trkpt>
      <trkpt lat="43.56847" lon="3.7288">
        <ele>60.226196</ele>
        <time>2021-02-28T14:32:23Z</time>
      </trkpt>
      <trkpt lat="43.56852" lon="3.72884">
        <ele>60.286762</ele>
        <time>2021-02-28T14:32:28Z</time>
      </trkpt>
      <trkpt lat="43.56857" lon="3.72892">
        <ele>60.302975</ele>
        <time>2021-02-28T14:32:33Z</time>
      </trkpt>
      <trkpt lat="43.56869" lon="3.72912">
        <ele>60.203236</ele>
        <time>2021-02-28T14:32:38Z</time>
      </trkpt>
      <trkpt lat="43.56878" lon="3.72928">
        <ele>59.935852</ele>
        <time>2021-02-28T14:32:43Z</time>
      </trkpt>
      <trkpt lat="43.56888" lon="3.72945">
        <ele>59.48138</ele>
        <time>2021-02-28T14:32:48Z</time>
      </trkpt>
      <trkpt lat="43.56899" lon="3.72963">
        <ele>59.235889</ele>
        <time>2021-02-28T14:32:53Z</time>
      </trkpt>
      <trkpt lat="43.56909" lon="3.7298">
        <ele>58.946392</ele>
        <time>2021-02-28T14:32:58Z</time>
      </trkpt>
      <trkpt lat="43.56919" lon="3.72998">
        <ele>58.910679</ele>
        <time>2021-02-28T14:33:03Z</time>
      </trkpt>
      <trkpt lat="43.56926" lon="3.73008">
        <ele>59.38525</ele>
        <time>2021-02-28T14:33:08Z</time>
      </trkpt>
      <trkpt lat="43.56931" lon="3.73017">
        <ele>59.883419</ele>
        <time>2021-02-28T14:33:13Z</time>
      </trkpt>
      <trkpt lat="43.56939" lon="3.73027">
        <ele>60.194134</ele>
        <time>2021-02-28T14:33:18Z</time>
      </trkpt>
      <trkpt lat="43.56949" lon="3.73044">
        <ele>60.703751</ele>
        <time>2021-02-28T14:33:23Z</time>
      </trkpt>
      <trkpt lat="43.5696" lon="3.73063">
        <ele>61.204136</ele>
        <time>2021-02-28T14:33:28Z</time>
      </trkpt>
      <trkpt lat="43.56971" lon="3.73083">
        <ele>61.751553</ele>
        <time>2021-02-28T14:33:33Z</time>
      </trkpt>
      <trkpt lat="43.5698" lon="3.731">
        <ele>62.337879</ele>
        <time>2021-02-28T14:33:38Z</time>
      </trkpt>
      <trkpt lat="43.56991" lon="3.73114">
        <ele>63.190384</ele>
        <time>2021-02-28T14:33:43Z</time>
      </trkpt>
      <trkpt lat="43.57001" lon="3.73134">
        <ele>63.856659</ele>
        <time>2021-02-28T14:33:48Z</time>
      </trkpt>
      <trkpt lat="43.57013" lon="3.73151">
        <ele>64.587898</ele>
        <time>2021-02-28T14:33:53Z</time>
      </trkpt>
      <trkpt lat="43.57024" lon="3.7317">
        <ele>65.313316</ele>
        <time>2021-02-28T14:33:58Z</time>
      </trkpt>
      <trkpt lat="43.57034" lon="3.7319">
        <ele>65.857826</ele>
        <time>2021-02-28T14:34:03Z</time>
      </trkpt>
      <trkpt lat="43.57047" lon="3.73211">
        <ele>66.357803</ele>
        <time>2021-02-28T14:34:08Z</time>
      </trkpt>
      <trkpt lat="43.57058" lon="3.7323">
        <ele>66.729012</ele>
        <time>2021-02-28T14:34:13Z</time>
      </trkpt>
      <trkpt lat="43.57071" lon="3.73251">
        <ele>66.849854</ele>
        <time>2021-02-28T14:34:18Z</time>
      </trkpt>
      <trkpt lat="43.57082" lon="3.73269">
        <ele>67.058418</ele>
        <time>2021-02-28T14:34:23Z</time>
      </trkpt>
      <trkpt lat="43.57094" lon="3.73293">
        <ele>67.119881</ele>
        <time>2021-02-28T14:34:28Z</time>
      </trkpt>
      <trkpt lat="43.57106" lon="3.73318">
        <ele>66.933998</ele>
        <time>2021-02-28T14:34:33Z</time>
      </trkpt>
      <trkpt lat="43.57121" lon="3.7334">
        <ele>66.547325</ele>
        <time>2021-02-28T14:34:38Z</time>
      </trkpt>
      <trkpt lat="43.57136" lon="3.73364">
        <ele>66.109375</ele>
        <time>2021-02-28T14:34:43Z</time>
      </trkpt>
      <trkpt lat="43.5715" lon="3.73389">
        <ele>65.809898</ele>
        <time>2021-02-28T14:34:48Z</time>
      </trkpt>
      <trkpt lat="43.57164" lon="3.73414">
        <ele>65.001328</ele>
        <time>2021-02-28T14:34:53Z</time>
      </trkpt>
      <trkpt lat="43.57176" lon="3.73441">
        <ele>64.161446</ele>
        <time>2021-02-28T14:34:58Z</time>
      </trkpt>
      <trkpt lat="43.5719" lon="3.73464">
        <ele>62.94725</ele>
        <time>2021-02-28T14:35:03Z</time>
      </trkpt>
      <trkpt lat="43.57198" lon="3.73481">
        <ele>61.542542</ele>
        <time>2021-02-28T14:35:08Z</time>
      </trkpt>
      <trkpt lat="43.57206" lon="3.73494">
        <ele>60.676746</ele>
        <time>2021-02-28T14:35:13Z</time>
      </trkpt>
      <trkpt lat="43.57212" lon="3.73507">
        <ele>60.110535</ele>
        <time>2021-02-28T14:35:18Z</time>
      </trkpt>
      <trkpt lat="43.57222" lon="3.73522">
        <ele>59.51894</ele>
        <time>2021-02-28T14:35:23Z</time>
      </trkpt>
      <trkpt lat="43.57232" lon="3.73537">
        <ele>58.792255</ele>
        <time>2021-02-28T14:35:28Z</time>
      </trkpt>
      <trkpt lat="43.57239" lon="3.73556">
        <ele>58.016174</ele>
        <time>2021-02-28T14:35:33Z</time>
      </trkpt>
      <trkpt lat="43.57248" lon="3.73579">
        <ele>57.422596</ele>
        <time>2021-02-28T14:35:38Z</time>
      </trkpt>
      <trkpt lat="43.5726" lon="3.73601">
        <ele>56.874126</ele>
        <time>2021-02-28T14:35:43Z</time>
      </trkpt>
      <trkpt lat="43.57271" lon="3.73622">
        <ele>56.733318</ele>
        <time>2021-02-28T14:35:48Z</time>
      </trkpt>
      <trkpt lat="43.57282" lon="3.73644">
        <ele>56.77417</ele>
        <time>2021-02-28T14:35:53Z</time>
      </trkpt>
      <trkpt lat="43.57294" lon="3.73661">
        <ele>56.978107</ele>
        <time>2021-02-28T14:35:58Z</time>
      </trkpt>
      <trkpt lat="43.57306" lon="3.73684">
        <ele>57.198162</ele>
        <time>2021-02-28T14:36:03Z</time>
      </trkpt>
      <trkpt lat="43.57318" lon="3.73707">
        <ele>57.391682</ele>
        <time>2021-02-28T14:36:08Z</time>
      </trkpt>
      <trkpt lat="43.57335" lon="3.73735">
        <ele>57.755753</ele>
        <time>2021-02-28T14:36:13Z</time>
      </trkpt>
      <trkpt lat="43.57351" lon="3.73761">
        <ele>58.527634</ele>
        <time>2021-02-28T14:36:18Z</time>
      </trkpt>
      <trkpt lat="43.57365" lon="3.73786">
        <ele>58.789444</ele>
        <time>2021-02-28T14:36:23Z</time>
      </trkpt>
      <trkpt lat="43.5738" lon="3.73811">
        <ele>58.604748</ele>
        <time>2021-02-28T14:36:28Z</time>
      </trkpt>
      <trkpt lat="43.57394" lon="3.73836">
        <ele>58.081646</ele>
        <time>2021-02-28T14:36:33Z</time>
      </trkpt>
      <trkpt lat="43.57408" lon="3.73863">
        <ele>58.052914</ele>
        <time>2021-02-28T14:36:38Z</time>
      </trkpt>
      <trkpt lat="43.57422" lon="3.73888">
        <ele>58.083988</ele>
        <time>2021-02-28T14:36:43Z</time>
      </trkpt>
      <trkpt lat="43.57437" lon="3.73914">
        <ele>58.001129</ele>
        <time>2021-02-28T14:36:48Z</time>
      </trkpt>
      <trkpt lat="43.57451" lon="3.73939">
        <ele>58.011719</ele>
        <time>2021-02-28T14:36:53Z</time>
      </trkpt>
      <trkpt lat="43.57467" lon="3.73962">
        <ele>58.132343</ele>
        <time>2021-02-28T14:36:58Z</time>
      </trkpt>
      <trkpt lat="43.57483" lon="3.73985">
        <ele>58.703434</ele>
        <time>2021-02-28T14:37:03Z</time>
      </trkpt>
      <trkpt lat="43.57501" lon="3.74006">
        <ele>59.36034</ele>
        <time>2021-02-28T14:37:08Z</time>
      </trkpt>
      <trkpt lat="43.57517" lon="3.74028">
        <ele>59.982189</ele>
        <time>2021-02-28T14:37:13Z</time>
      </trkpt>
      <trkpt lat="43.57535" lon="3.74047">
        <ele>60.551388</ele>
        <time>2021-02-28T14:37:18Z</time>
      </trkpt>
      <trkpt lat="43.57555" lon="3.74068">
        <ele>61.280628</ele>
        <time>2021-02-28T14:37:23Z</time>
      </trkpt>
      <trkpt lat="43.57582" lon="3.741">
        <ele>61.859798</ele>
        <time>2021-02-28T14:37:28Z</time>
      </trkpt>
      <trkpt lat="43.57607" lon="3.74125">
        <ele>62.014057</ele>
        <time>2021-02-28T14:37:33Z</time>
      </trkpt>
      <trkpt lat="43.57623" lon="3.7414">
        <ele>61.950077</ele>
        <time>2021-02-28T14:37:38Z</time>
      </trkpt>
      <trkpt lat="43.57635" lon="3.74153">
        <ele>61.743092</ele>
        <time>2021-02-28T14:37:43Z</time>
      </trkpt>
      <trkpt lat="43.57649" lon="3.74172">
        <ele>61.412357</ele>
        <time>2021-02-28T14:37:48Z</time>
      </trkpt>
      <trkpt lat="43.57665" lon="3.74191">
        <ele>60.687664</ele>
        <time>2021-02-28T14:37:53Z</time>
      </trkpt>
      <trkpt lat="43.57682" lon="3.7421">
        <ele>60.204914</ele>
        <time>2021-02-28T14:37:58Z</time>
      </trkpt>
      <trkpt lat="43.57699" lon="3.74229">
        <ele>59.747314</ele>
        <time>2021-02-28T14:38:03Z</time>
      </trkpt>
      <trkpt lat="43.57717" lon="3.74247">
        <ele>59.496231</ele>
        <time>2021-02-28T14:38:08Z</time>
      </trkpt>
      <trkpt lat="43.57735" lon="3.74266">
        <ele>59.148102</ele>
        <time>2021-02-28T14:38:13Z</time>
      </trkpt>
      <trkpt lat="43.57753" lon="3.74288">
        <ele>58.941586</ele>
        <time>2021-02-28T14:38:18Z</time>
      </trkpt>
      <trkpt lat="43.57771" lon="3.74309">
        <ele>59.010441</ele>
        <time>2021-02-28T14:38:23Z</time>
      </trkpt>
      <trkpt lat="43.57789" lon="3.74329">
        <ele>59.352703</ele>
        <time>2021-02-28T14:38:28Z</time>
      </trkpt>
      <trkpt lat="43.57805" lon="3.7435">
        <ele>59.722576</ele>
        <time>2021-02-28T14:38:33Z</time>
      </trkpt>
      <trkpt lat="43.57819" lon="3.74369">
        <ele>60.243744</ele>
        <time>2021-02-28T14:38:38Z</time>
      </trkpt>
      <trkpt lat="43.57832" lon="3.74389">
        <ele>60.974979</ele>
        <time>2021-02-28T14:38:43Z</time>
      </trkpt>
      <trkpt lat="43.57844" lon="3.7441">
        <ele>61.50441</ele>
        <time>2021-02-28T14:38:48Z</time>
      </trkpt>
      <trkpt lat="43.57857" lon="3.74433">
        <ele>61.836994</ele>
        <time>2021-02-28T14:38:53Z</time>
      </trkpt>
      <trkpt lat="43.57869" lon="3.7446">
        <ele>61.978428</ele>
        <time>2021-02-28T14:38:58Z</time>
      </trkpt>
      <trkpt lat="43.57881" lon="3.74486">
        <ele>62.030598</ele>
        <time>2021-02-28T14:39:03Z</time>
      </trkpt>
      <trkpt lat="43.57894" lon="3.74513">
        <ele>61.826641</ele>
        <time>2021-02-28T14:39:08Z</time>
      </trkpt>
      <trkpt lat="43.57906" lon="3.74542">
        <ele>61.337555</ele>
        <time>2021-02-28T14:39:13Z</time>
      </trkpt>
      <trkpt lat="43.57919" lon="3.74568">
        <ele>60.716919</ele>
        <time>2021-02-28T14:39:18Z</time>
      </trkpt>
      <trkpt lat="43.57933" lon="3.74595">
        <ele>60.058987</ele>
        <time>2021-02-28T14:39:23Z</time>
      </trkpt>
      <trkpt lat="43.57945" lon="3.74619">
        <ele>59.012478</ele>
        <time>2021-02-28T14:39:28Z</time>
      </trkpt>
      <trkpt lat="43.57956" lon="3.74644">
        <ele>57.855633</ele>
        <time>2021-02-28T14:39:33Z</time>
      </trkpt>
      <trkpt lat="43.57968" lon="3.74669">
        <ele>57.061886</ele>
        <time>2021-02-28T14:39:38Z</time>
      </trkpt>
      <trkpt lat="43.57979" lon="3.74692">
        <ele>56.796955</ele>
        <time>2021-02-28T14:39:43Z</time>
      </trkpt>
      <trkpt lat="43.5799" lon="3.74717">
        <ele>56.414562</ele>
        <time>2021-02-28T14:39:48Z</time>
      </trkpt>
      <trkpt lat="43.58002" lon="3.74741">
        <ele>56.019775</ele>
        <time>2021-02-28T14:39:53Z</time>
      </trkpt>
      <trkpt lat="43.58014" lon="3.74764">
        <ele>55.545612</ele>
        <time>2021-02-28T14:39:58Z</time>
      </trkpt>
      <trkpt lat="43.58004" lon="3.74783">
        <ele>55.367496</ele>
        <time>2021-02-28T14:40:03Z</time>
      </trkpt>
      <trkpt lat="43.57991" lon="3.74798">
        <ele>54.147659</ele>
        <time>2021-02-28T14:40:08Z</time>
      </trkpt>
      <trkpt lat="43.5797" lon="3.74819">
        <ele>52.996094</ele>
        <time>2021-02-28T14:40:13Z</time>
      </trkpt>
      <trkpt lat="43.57948" lon="3.7484">
        <ele>51.800945</ele>
        <time>2021-02-28T14:40:18Z</time>
      </trkpt>
      <trkpt lat="43.57926" lon="3.74862">
        <ele>50.817791</ele>
        <time>2021-02-28T14:40:23Z</time>
      </trkpt>
      <trkpt lat="43.57902" lon="3.74885">
        <ele>49.604412</ele>
        <time>2021-02-28T14:40:28Z</time>
      </trkpt>
      <trkpt lat="43.57879" lon="3.74907">
        <ele>48.54842</ele>
        <time>2021-02-28T14:40:33Z</time>
      </trkpt>
      <trkpt lat="43.57863" lon="3.74935">
        <ele>47.745441</ele>
        <time>2021-02-28T14:40:38Z</time>
      </trkpt>
      <trkpt lat="43.57849" lon="3.74961">
        <ele>47.053791</ele>
        <time>2021-02-28T14:40:43Z</time>
      </trkpt>
      <trkpt lat="43.57855" lon="3.7498">
        <ele>46.826069</ele>
        <time>2021-02-28T14:40:48Z</time>
      </trkpt>
      <trkpt lat="43.57858" lon="3.7499">
        <ele>46.829952</ele>
        <time>2021-02-28T14:40:53Z</time>
      </trkpt>
      <trkpt lat="43.57846" lon="3.75023">
        <ele>46.810253</ele>
        <time>2021-02-28T14:47:43Z</time>
      </trkpt>
      <trkpt lat="43.57833" lon="3.75047">
        <ele>46.581188</ele>
        <time>2021-02-28T14:47:53Z</time>
      </trkpt>
      <trkpt lat="43.5782" lon="3.75071">
        <ele>46.147644</ele>
        <time>2021-02-28T14:47:58Z</time>
      </trkpt>
      <trkpt lat="43.57813" lon="3.75099">
        <ele>45.749348</ele>
        <time>2021-02-28T14:48:03Z</time>
      </trkpt>
      <trkpt lat="43.57803" lon="3.75124">
        <ele>45.534016</ele>
        <time>2021-02-28T14:48:08Z</time>
      </trkpt>
      <trkpt lat="43.57808" lon="3.75144">
        <ele>45.31673</ele>
        <time>2021-02-28T14:48:13Z</time>
      </trkpt>
      <trkpt lat="43.57798" lon="3.75166">
        <ele>45.266277</ele>
        <time>2021-02-28T14:48:18Z</time>
      </trkpt>
      <trkpt lat="43.57786" lon="3.7519">
        <ele>45.109821</ele>
        <time>2021-02-28T14:48:23Z</time>
      </trkpt>
      <trkpt lat="43.57776" lon="3.75218">
        <ele>44.786346</ele>
        <time>2021-02-28T14:48:28Z</time>
      </trkpt>
      <trkpt lat="43.57766" lon="3.75245">
        <ele>44.015381</ele>
        <time>2021-02-28T14:48:33Z</time>
      </trkpt>
      <trkpt lat="43.57752" lon="3.75268">
        <ele>43.431263</ele>
        <time>2021-02-28T14:48:38Z</time>
      </trkpt>
      <trkpt lat="43.57737" lon="3.75277">
        <ele>42.640728</ele>
        <time>2021-02-28T14:48:43Z</time>
      </trkpt>
      <trkpt lat="43.57741" lon="3.75298">
        <ele>42.04385</ele>
        <time>2021-02-28T14:48:48Z</time>
      </trkpt>
      <trkpt lat="43.57751" lon="3.7532">
        <ele>41.901821</ele>
        <time>2021-02-28T14:48:53Z</time>
      </trkpt>
      <trkpt lat="43.57764" lon="3.75338">
        <ele>42.051205</ele>
        <time>2021-02-28T14:48:58Z</time>
      </trkpt>
      <trkpt lat="43.57777" lon="3.75358">
        <ele>42.443691</ele>
        <time>2021-02-28T14:49:03Z</time>
      </trkpt>
      <trkpt lat="43.5778" lon="3.75384">
        <ele>42.694641</ele>
        <time>2021-02-28T14:49:08Z</time>
      </trkpt>
      <trkpt lat="43.5779" lon="3.75409">
        <ele>42.668106</ele>
        <time>2021-02-28T14:49:13Z</time>
      </trkpt>
      <trkpt lat="43.578" lon="3.75434">
        <ele>42.728153</ele>
        <time>2021-02-28T14:49:18Z</time>
      </trkpt>
      <trkpt lat="43.57809" lon="3.75459">
        <ele>43.141064</ele>
        <time>2021-02-28T14:49:23Z</time>
      </trkpt>
      <trkpt lat="43.57819" lon="3.75483">
        <ele>43.548431</ele>
        <time>2021-02-28T14:49:28Z</time>
      </trkpt>
      <trkpt lat="43.57827" lon="3.75507">
        <ele>43.803478</ele>
        <time>2021-02-28T14:49:33Z</time>
      </trkpt>
      <trkpt lat="43.57834" lon="3.75533">
        <ele>43.995403</ele>
        <time>2021-02-28T14:49:38Z</time>
      </trkpt>
      <trkpt lat="43.5784" lon="3.75558">
        <ele>44.114471</ele>
        <time>2021-02-28T14:49:43Z</time>
      </trkpt>
      <trkpt lat="43.57847" lon="3.75583">
        <ele>44.281086</ele>
        <time>2021-02-28T14:49:48Z</time>
      </trkpt>
      <trkpt lat="43.57858" lon="3.75594">
        <ele>44.481121</ele>
        <time>2021-02-28T14:49:53Z</time>
      </trkpt>
      <trkpt lat="43.57865" lon="3.75612">
        <ele>44.784016</ele>
        <time>2021-02-28T14:49:58Z</time>
      </trkpt>
      <trkpt lat="43.57868" lon="3.75636">
        <ele>44.998936</ele>
        <time>2021-02-28T14:50:03Z</time>
      </trkpt>
      <trkpt lat="43.57861" lon="3.7566">
        <ele>45.046967</ele>
        <time>2021-02-28T14:50:08Z</time>
      </trkpt>
      <trkpt lat="43.57855" lon="3.75686">
        <ele>44.933945</ele>
        <time>2021-02-28T14:50:13Z</time>
      </trkpt>
      <trkpt lat="43.57854" lon="3.75715">
        <ele>44.489811</ele>
        <time>2021-02-28T14:50:18Z</time>
      </trkpt>
      <trkpt lat="43.57851" lon="3.75744">
        <ele>44.089314</ele>
        <time>2021-02-28T14:50:23Z</time>
      </trkpt>
      <trkpt lat="43.57847" lon="3.75775">
        <ele>43.70393</ele>
        <time>2021-02-28T14:50:28Z</time>
      </trkpt>
      <trkpt lat="43.57843" lon="3.75807">
        <ele>43.323933</ele>
        <time>2021-02-28T14:50:33Z</time>
      </trkpt>
      <trkpt lat="43.57839" lon="3.75839">
        <ele>43.054783</ele>
        <time>2021-02-28T14:50:38Z</time>
      </trkpt>
      <trkpt lat="43.57834" lon="3.75875">
        <ele>42.808903</ele>
        <time>2021-02-28T14:50:43Z</time>
      </trkpt>
      <trkpt lat="43.5783" lon="3.75912">
        <ele>42.503815</ele>
        <time>2021-02-28T14:50:48Z</time>
      </trkpt>
      <trkpt lat="43.57825" lon="3.75951">
        <ele>41.932861</ele>
        <time>2021-02-28T14:50:53Z</time>
      </trkpt>
      <trkpt lat="43.5782" lon="3.75991">
        <ele>41.363255</ele>
        <time>2021-02-28T14:50:58Z</time>
      </trkpt>
      <trkpt lat="43.57815" lon="3.7603">
        <ele>40.905254</ele>
        <time>2021-02-28T14:51:03Z</time>
      </trkpt>
      <trkpt lat="43.57811" lon="3.76068">
        <ele>40.510181</ele>
        <time>2021-02-28T14:51:08Z</time>
      </trkpt>
      <trkpt lat="43.57809" lon="3.76107">
        <ele>40.246445</ele>
        <time>2021-02-28T14:51:13Z</time>
      </trkpt>
      <trkpt lat="43.57813" lon="3.76144">
        <ele>39.810627</ele>
        <time>2021-02-28T14:51:18Z</time>
      </trkpt>
      <trkpt lat="43.57806" lon="3.7618">
        <ele>39.303631</ele>
        <time>2021-02-28T14:51:23Z</time>
      </trkpt>
      <trkpt lat="43.57805" lon="3.76218">
        <ele>38.777588</ele>
        <time>2021-02-28T14:51:28Z</time>
      </trkpt>
      <trkpt lat="43.57806" lon="3.76255">
        <ele>38.128536</ele>
        <time>2021-02-28T14:51:33Z</time>
      </trkpt>
      <trkpt lat="43.57809" lon="3.76293">
        <ele>37.851257</ele>
        <time>2021-02-28T14:51:38Z</time>
      </trkpt>
      <trkpt lat="43.57814" lon="3.7633">
        <ele>37.425106</ele>
        <time>2021-02-28T14:51:43Z</time>
      </trkpt>
      <trkpt lat="43.5782" lon="3.76366">
        <ele>37.351524</ele>
        <time>2021-02-28T14:51:48Z</time>
      </trkpt>
      <trkpt lat="43.57826" lon="3.76401">
        <ele>37.356762</ele>
        <time>2021-02-28T14:51:53Z</time>
      </trkpt>
      <trkpt lat="43.57834" lon="3.76435">
        <ele>37.419758</ele>
        <time>2021-02-28T14:51:58Z</time>
      </trkpt>
      <trkpt lat="43.57844" lon="3.76468">
        <ele>37.347004</ele>
        <time>2021-02-28T14:52:03Z</time>
      </trkpt>
      <trkpt lat="43.57855" lon="3.765">
        <ele>37.091145</ele>
        <time>2021-02-28T14:52:08Z</time>
      </trkpt>
      <trkpt lat="43.57865" lon="3.76532">
        <ele>36.916504</ele>
        <time>2021-02-28T14:52:13Z</time>
      </trkpt>
      <trkpt lat="43.57877" lon="3.76563">
        <ele>36.991291</ele>
        <time>2021-02-28T14:52:18Z</time>
      </trkpt>
      <trkpt lat="43.5789" lon="3.76592">
        <ele>37.162354</ele>
        <time>2021-02-28T14:52:23Z</time>
      </trkpt>
      <trkpt lat="43.57903" lon="3.76622">
        <ele>37.351398</ele>
        <time>2021-02-28T14:52:28Z</time>
      </trkpt>
      <trkpt lat="43.57919" lon="3.7665">
        <ele>37.546875</ele>
        <time>2021-02-28T14:52:33Z</time>
      </trkpt>
      <trkpt lat="43.57932" lon="3.76678">
        <ele>37.763752</ele>
        <time>2021-02-28T14:52:38Z</time>
      </trkpt>
      <trkpt lat="43.57946" lon="3.76707">
        <ele>37.935139</ele>
        <time>2021-02-28T14:52:43Z</time>
      </trkpt>
      <trkpt lat="43.57962" lon="3.76731">
        <ele>38.168377</ele>
        <time>2021-02-28T14:52:48Z</time>
      </trkpt>
      <trkpt lat="43.57983" lon="3.76743">
        <ele>38.403889</ele>
        <time>2021-02-28T14:52:53Z</time>
      </trkpt>
      <trkpt lat="43.58004" lon="3.76753">
        <ele>38.70166</ele>
        <time>2021-02-28T14:52:58Z</time>
      </trkpt>
      <trkpt lat="43.58014" lon="3.76775">
        <ele>38.992352</ele>
        <time>2021-02-28T14:53:03Z</time>
      </trkpt>
      <trkpt lat="43.58018" lon="3.76803">
        <ele>39.294827</ele>
        <time>2021-02-28T14:53:08Z</time>
      </trkpt>
      <trkpt lat="43.58018" lon="3.76833">
        <ele>39.65694</ele>
        <time>2021-02-28T14:53:13Z</time>
      </trkpt>
      <trkpt lat="43.58024" lon="3.76862">
        <ele>39.77203</ele>
        <time>2021-02-28T14:53:18Z</time>
      </trkpt>
      <trkpt lat="43.58036" lon="3.76888">
        <ele>39.586102</ele>
        <time>2021-02-28T14:53:23Z</time>
      </trkpt>
      <trkpt lat="43.58049" lon="3.76915">
        <ele>39.270508</ele>
        <time>2021-02-28T14:53:28Z</time>
      </trkpt>
      <trkpt lat="43.58063" lon="3.76942">
        <ele>38.953598</ele>
        <time>2021-02-28T14:53:33Z</time>
      </trkpt>
      <trkpt lat="43.58077" lon="3.76969">
        <ele>38.93446</ele>
        <time>2021-02-28T14:53:38Z</time>
      </trkpt>
      <trkpt lat="43.58089" lon="3.76996">
        <ele>38.91901</ele>
        <time>2021-02-28T14:53:43Z</time>
      </trkpt>
      <trkpt lat="43.58103" lon="3.77023">
        <ele>38.701416</ele>
        <time>2021-02-28T14:53:48Z</time>
      </trkpt>
      <trkpt lat="43.58117" lon="3.7705">
        <ele>38.243652</ele>
        <time>2021-02-28T14:53:53Z</time>
      </trkpt>
      <trkpt lat="43.5813" lon="3.77076">
        <ele>37.854328</ele>
        <time>2021-02-28T14:53:58Z</time>
      </trkpt>
      <trkpt lat="43.58141" lon="3.77098">
        <ele>37.467693</ele>
        <time>2021-02-28T14:54:03Z</time>
      </trkpt>
      <trkpt lat="43.58147" lon="3.7711">
        <ele>37.144531</ele>
        <time>2021-02-28T14:54:08Z</time>
      </trkpt>
      <trkpt lat="43.58154" lon="3.77123">
        <ele>36.922894</ele>
        <time>2021-02-28T14:54:33Z</time>
      </trkpt>
      <trkpt lat="43.58164" lon="3.7714">
        <ele>36.822571</ele>
        <time>2021-02-28T14:54:43Z</time>
      </trkpt>
      <trkpt lat="43.58173" lon="3.7716">
        <ele>36.708527</ele>
        <time>2021-02-28T14:54:48Z</time>
      </trkpt>
      <trkpt lat="43.58184" lon="3.77183">
        <ele>36.612427</ele>
        <time>2021-02-28T14:54:53Z</time>
      </trkpt>
      <trkpt lat="43.58192" lon="3.77204">
        <ele>36.583286</ele>
        <time>2021-02-28T14:54:58Z</time>
      </trkpt>
      <trkpt lat="43.58206" lon="3.77229">
        <ele>36.463104</ele>
        <time>2021-02-28T14:55:03Z</time>
      </trkpt>
      <trkpt lat="43.5822" lon="3.77256">
        <ele>36.23222</ele>
        <time>2021-02-28T14:55:08Z</time>
      </trkpt>
      <trkpt lat="43.58233" lon="3.77286">
        <ele>36.186531</ele>
        <time>2021-02-28T14:55:13Z</time>
      </trkpt>
      <trkpt lat="43.5825" lon="3.77318">
        <ele>36.350178</ele>
        <time>2021-02-28T14:55:18Z</time>
      </trkpt>
      <trkpt lat="43.58263" lon="3.77345">
        <ele>36.508274</ele>
        <time>2021-02-28T14:55:23Z</time>
      </trkpt>
      <trkpt lat="43.58275" lon="3.77369">
        <ele>36.441452</ele>
        <time>2021-02-28T14:55:28Z</time>
      </trkpt>
      <trkpt lat="43.5829" lon="3.77397">
        <ele>36.209927</ele>
        <time>2021-02-28T14:55:33Z</time>
      </trkpt>
      <trkpt lat="43.58304" lon="3.77424">
        <ele>36.144199</ele>
        <time>2021-02-28T14:55:38Z</time>
      </trkpt>
      <trkpt lat="43.58316" lon="3.77449">
        <ele>36.144604</ele>
        <time>2021-02-28T14:55:43Z</time>
      </trkpt>
      <trkpt lat="43.58331" lon="3.77475">
        <ele>36.041523</ele>
        <time>2021-02-28T14:55:48Z</time>
      </trkpt>
      <trkpt lat="43.58344" lon="3.77501">
        <ele>36</ele>
        <time>2021-02-28T14:55:53Z</time>
      </trkpt>
      <trkpt lat="43.58359" lon="3.7753">
        <ele>36.015949</ele>
        <time>2021-02-28T14:55:58Z</time>
      </trkpt>
      <trkpt lat="43.58373" lon="3.77559">
        <ele>36.175861</ele>
        <time>2021-02-28T14:56:03Z</time>
      </trkpt>
      <trkpt lat="43.58386" lon="3.77586">
        <ele>36.385742</ele>
        <time>2021-02-28T14:56:08Z</time>
      </trkpt>
      <trkpt lat="43.58399" lon="3.77612">
        <ele>36.542606</ele>
        <time>2021-02-28T14:56:13Z</time>
      </trkpt>
      <trkpt lat="43.58412" lon="3.77639">
        <ele>36.502583</ele>
        <time>2021-02-28T14:56:18Z</time>
      </trkpt>
      <trkpt lat="43.58424" lon="3.77665">
        <ele>36.260422</ele>
        <time>2021-02-28T14:56:23Z</time>
      </trkpt>
      <trkpt lat="43.58436" lon="3.77693">
        <ele>36.180656</ele>
        <time>2021-02-28T14:56:28Z</time>
      </trkpt>
      <trkpt lat="43.58447" lon="3.77721">
        <ele>36.307453</ele>
        <time>2021-02-28T14:56:33Z</time>
      </trkpt>
      <trkpt lat="43.58456" lon="3.77749">
        <ele>36.437744</ele>
        <time>2021-02-28T14:56:38Z</time>
      </trkpt>
      <trkpt lat="43.58463" lon="3.77778">
        <ele>36.596355</ele>
        <time>2021-02-28T14:56:43Z</time>
      </trkpt>
      <trkpt lat="43.58469" lon="3.77807">
        <ele>36.699871</ele>
        <time>2021-02-28T14:56:48Z</time>
      </trkpt>
      <trkpt lat="43.58482" lon="3.7783">
        <ele>36.807453</ele>
        <time>2021-02-28T14:56:53Z</time>
      </trkpt>
      <trkpt lat="43.58478" lon="3.77856">
        <ele>36.922039</ele>
        <time>2021-02-28T14:56:58Z</time>
      </trkpt>
      <trkpt lat="43.58488" lon="3.77877">
        <ele>36.965576</ele>
        <time>2021-02-28T14:57:03Z</time>
      </trkpt>
      <trkpt lat="43.58498" lon="3.77894">
        <ele>37.061687</ele>
        <time>2021-02-28T14:57:08Z</time>
      </trkpt>
      <trkpt lat="43.58498" lon="3.77924">
        <ele>37.214844</ele>
        <time>2021-02-28T14:57:13Z</time>
      </trkpt>
      <trkpt lat="43.58494" lon="3.77954">
        <ele>37.261276</ele>
        <time>2021-02-28T14:57:18Z</time>
      </trkpt>
      <trkpt lat="43.5849" lon="3.77982">
        <ele>37.376751</ele>
        <time>2021-02-28T14:57:23Z</time>
      </trkpt>
      <trkpt lat="43.58488" lon="3.7801">
        <ele>37.800804</ele>
        <time>2021-02-28T14:57:28Z</time>
      </trkpt>
      <trkpt lat="43.58487" lon="3.78039">
        <ele>38.409821</ele>
        <time>2021-02-28T14:57:33Z</time>
      </trkpt>
      <trkpt lat="43.58487" lon="3.78067">
        <ele>39.191162</ele>
        <time>2021-02-28T14:57:38Z</time>
      </trkpt>
      <trkpt lat="43.58487" lon="3.78095">
        <ele>39.915485</ele>
        <time>2021-02-28T14:57:43Z</time>
      </trkpt>
      <trkpt lat="43.58487" lon="3.78123">
        <ele>40.096996</ele>
        <time>2021-02-28T14:57:48Z</time>
      </trkpt>
      <trkpt lat="43.58488" lon="3.7815">
        <ele>40.133049</ele>
        <time>2021-02-28T14:57:53Z</time>
      </trkpt>
      <trkpt lat="43.58489" lon="3.78176">
        <ele>40.314129</ele>
        <time>2021-02-28T14:57:58Z</time>
      </trkpt>
      <trkpt lat="43.58489" lon="3.78203">
        <ele>40.613377</ele>
        <time>2021-02-28T14:58:03Z</time>
      </trkpt>
      <trkpt lat="43.58495" lon="3.78228">
        <ele>40.952232</ele>
        <time>2021-02-28T14:58:08Z</time>
      </trkpt>
      <trkpt lat="43.58508" lon="3.78246">
        <ele>41.23391</ele>
        <time>2021-02-28T14:58:13Z</time>
      </trkpt>
      <trkpt lat="43.58517" lon="3.78264">
        <ele>41.560608</ele>
        <time>2021-02-28T14:58:18Z</time>
      </trkpt>
      <trkpt lat="43.58536" lon="3.7827">
        <ele>41.932053</ele>
        <time>2021-02-28T14:58:23Z</time>
      </trkpt>
      <trkpt lat="43.58551" lon="3.78271">
        <ele>42.276134</ele>
        <time>2021-02-28T14:58:28Z</time>
      </trkpt>
      <trkpt lat="43.58562" lon="3.78266">
        <ele>42.988647</ele>
        <time>2021-02-28T14:58:33Z</time>
      </trkpt>
      <trkpt lat="43.5857" lon="3.7826">
        <ele>43.535809</ele>
        <time>2021-02-28T14:58:38Z</time>
      </trkpt>
      <trkpt lat="43.58579" lon="3.78254">
        <ele>44.150471</ele>
        <time>2021-02-28T14:58:43Z</time>
      </trkpt>
      <trkpt lat="43.58591" lon="3.78251">
        <ele>44.59676</ele>
        <time>2021-02-28T14:58:48Z</time>
      </trkpt>
      <trkpt lat="43.58601" lon="3.78258">
        <ele>45.437256</ele>
        <time>2021-02-28T14:58:53Z</time>
      </trkpt>
      <trkpt lat="43.58611" lon="3.78263">
        <ele>46.463867</ele>
        <time>2021-02-28T14:58:58Z</time>
      </trkpt>
      <trkpt lat="43.58621" lon="3.78271">
        <ele>46.751141</ele>
        <time>2021-02-28T14:59:03Z</time>
      </trkpt>
      <trkpt lat="43.5863" lon="3.78284">
        <ele>47.795002</ele>
        <time>2021-02-28T14:59:08Z</time>
      </trkpt>
      <trkpt lat="43.58642" lon="3.78287">
        <ele>48.66325</ele>
        <time>2021-02-28T14:59:13Z</time>
      </trkpt>
      <trkpt lat="43.58649" lon="3.78274">
        <ele>49.335449</ele>
        <time>2021-02-28T14:59:18Z</time>
      </trkpt>
      <trkpt lat="43.58655" lon="3.78261">
        <ele>50.035156</ele>
        <time>2021-02-28T14:59:23Z</time>
      </trkpt>
      <trkpt lat="43.58663" lon="3.78251">
        <ele>50.363281</ele>
        <time>2021-02-28T14:59:28Z</time>
      </trkpt>
      <trkpt lat="43.58667" lon="3.78242">
        <ele>50.815838</ele>
        <time>2021-02-28T14:59:33Z</time>
      </trkpt>
      <trkpt lat="43.5867" lon="3.78232">
        <ele>50.957275</ele>
        <time>2021-02-28T14:59:38Z</time>
      </trkpt>
      <trkpt lat="43.58676" lon="3.78223">
        <ele>51.082275</ele>
        <time>2021-02-28T14:59:43Z</time>
      </trkpt>
      <trkpt lat="43.58688" lon="3.78221">
        <ele>51.336102</ele>
        <time>2021-02-28T14:59:48Z</time>
      </trkpt>
      <trkpt lat="43.58699" lon="3.7822">
        <ele>52.136185</ele>
        <time>2021-02-28T14:59:53Z</time>
      </trkpt>
      <trkpt lat="43.58709" lon="3.78216">
        <ele>52.790455</ele>
        <time>2021-02-28T14:59:58Z</time>
      </trkpt>
      <trkpt lat="43.5872" lon="3.78215">
        <ele>53.605743</ele>
        <time>2021-02-28T15:00:03Z</time>
      </trkpt>
      <trkpt lat="43.5873" lon="3.78211">
        <ele>54.298176</ele>
        <time>2021-02-28T15:00:08Z</time>
      </trkpt>
      <trkpt lat="43.58746" lon="3.78206">
        <ele>55.099285</ele>
        <time>2021-02-28T15:00:13Z</time>
      </trkpt>
      <trkpt lat="43.58763" lon="3.78204">
        <ele>55.929134</ele>
        <time>2021-02-28T15:00:18Z</time>
      </trkpt>
      <trkpt lat="43.58779" lon="3.78209">
        <ele>57.020039</ele>
        <time>2021-02-28T15:00:23Z</time>
      </trkpt>
      <trkpt lat="43.58794" lon="3.78206">
        <ele>58.062222</ele>
        <time>2021-02-28T15:00:28Z</time>
      </trkpt>
      <trkpt lat="43.58809" lon="3.78199">
        <ele>59.019642</ele>
        <time>2021-02-28T15:00:33Z</time>
      </trkpt>
      <trkpt lat="43.58823" lon="3.78193">
        <ele>59.390118</ele>
        <time>2021-02-28T15:00:38Z</time>
      </trkpt>
      <trkpt lat="43.58839" lon="3.7819">
        <ele>59.471058</ele>
        <time>2021-02-28T15:00:43Z</time>
      </trkpt>
      <trkpt lat="43.58851" lon="3.78189">
        <ele>59.584438</ele>
        <time>2021-02-28T15:00:48Z</time>
      </trkpt>
      <trkpt lat="43.58862" lon="3.78193">
        <ele>59.88562</ele>
        <time>2021-02-28T15:00:53Z</time>
      </trkpt>
      <trkpt lat="43.58875" lon="3.78192">
        <ele>60.242664</ele>
        <time>2021-02-28T15:00:58Z</time>
      </trkpt>
      <trkpt lat="43.58886" lon="3.78184">
        <ele>60.392437</ele>
        <time>2021-02-28T15:01:03Z</time>
      </trkpt>
      <trkpt lat="43.589" lon="3.7819">
        <ele>60.328308</ele>
        <time>2021-02-28T15:01:08Z</time>
      </trkpt>
      <trkpt lat="43.58915" lon="3.78189">
        <ele>60.482159</ele>
        <time>2021-02-28T15:01:13Z</time>
      </trkpt>
      <trkpt lat="43.58931" lon="3.78182">
        <ele>60.633221</ele>
        <time>2021-02-28T15:01:18Z</time>
      </trkpt>
      <trkpt lat="43.58943" lon="3.78179">
        <ele>60.284336</ele>
        <time>2021-02-28T15:01:23Z</time>
      </trkpt>
      <trkpt lat="43.58956" lon="3.78178">
        <ele>60.094696</ele>
        <time>2021-02-28T15:01:28Z</time>
      </trkpt>
      <trkpt lat="43.58963" lon="3.78189">
        <ele>60.070988</ele>
        <time>2021-02-28T15:01:33Z</time>
      </trkpt>
      <trkpt lat="43.58974" lon="3.78195">
        <ele>60.532658</ele>
        <time>2021-02-28T15:01:38Z</time>
      </trkpt>
      <trkpt lat="43.58982" lon="3.78205">
        <ele>61.326283</ele>
        <time>2021-02-28T15:01:43Z</time>
      </trkpt>
      <trkpt lat="43.58988" lon="3.78217">
        <ele>61.937805</ele>
        <time>2021-02-28T15:01:48Z</time>
      </trkpt>
      <trkpt lat="43.58995" lon="3.78231">
        <ele>62.327961</ele>
        <time>2021-02-28T15:01:53Z</time>
      </trkpt>
      <trkpt lat="43.59005" lon="3.78234">
        <ele>62.636883</ele>
        <time>2021-02-28T15:01:58Z</time>
      </trkpt>
      <trkpt lat="43.59015" lon="3.78237">
        <ele>63.200848</ele>
        <time>2021-02-28T15:02:53Z</time>
      </trkpt>
      <trkpt lat="43.59018" lon="3.78229">
        <ele>63.020996</ele>
        <time>2021-02-28T15:03:03Z</time>
      </trkpt>
      <trkpt lat="43.59029" lon="3.78229">
        <ele>62.793457</ele>
        <time>2021-02-28T15:03:08Z</time>
      </trkpt>
      <trkpt lat="43.59044" lon="3.78244">
        <ele>62.73579</ele>
        <time>2021-02-28T15:03:33Z</time>
      </trkpt>
      <trkpt lat="43.59053" lon="3.78261">
        <ele>62.781246</ele>
        <time>2021-02-28T15:03:43Z</time>
      </trkpt>
      <trkpt lat="43.59065" lon="3.78279">
        <ele>63.046722</ele>
        <time>2021-02-28T15:03:48Z</time>
      </trkpt>
      <trkpt lat="43.59074" lon="3.78299">
        <ele>63.035503</ele>
        <time>2021-02-28T15:03:53Z</time>
      </trkpt>
      <trkpt lat="43.59082" lon="3.78319">
        <ele>62.889324</ele>
        <time>2021-02-28T15:03:58Z</time>
      </trkpt>
      <trkpt lat="43.5909" lon="3.78342">
        <ele>62.55957</ele>
        <time>2021-02-28T15:04:03Z</time>
      </trkpt>
      <trkpt lat="43.59093" lon="3.78361">
        <ele>62.424503</ele>
        <time>2021-02-28T15:04:08Z</time>
      </trkpt>
      <trkpt lat="43.59093" lon="3.78366">
        <ele>62.387165</ele>
        <time>2021-02-28T15:04:13Z</time>
      </trkpt>
      <trkpt lat="43.591" lon="3.78391">
        <ele>62.539288</ele>
        <time>2021-02-28T15:04:53Z</time>
      </trkpt>
      <trkpt lat="43.59105" lon="3.78422">
        <ele>62.592426</ele>
        <time>2021-02-28T15:05:03Z</time>
      </trkpt>
      <trkpt lat="43.5911" lon="3.78454">
        <ele>62.494831</ele>
        <time>2021-02-28T15:05:08Z</time>
      </trkpt>
      <trkpt lat="43.59106" lon="3.78504">
        <ele>61.753407</ele>
        <time>2021-02-28T15:05:13Z</time>
      </trkpt>
      <trkpt lat="43.59104" lon="3.78548">
        <ele>60.952168</ele>
        <time>2021-02-28T15:05:18Z</time>
      </trkpt>
      <trkpt lat="43.59105" lon="3.78578">
        <ele>59.137043</ele>
        <time>2021-02-28T15:05:23Z</time>
      </trkpt>
      <trkpt lat="43.59093" lon="3.7862">
        <ele>57.80098</ele>
        <time>2021-02-28T15:05:28Z</time>
      </trkpt>
      <trkpt lat="43.59081" lon="3.78655">
        <ele>56.69392</ele>
        <time>2021-02-28T15:05:33Z</time>
      </trkpt>
      <trkpt lat="43.59068" lon="3.78688">
        <ele>53.63393</ele>
        <time>2021-02-28T15:05:38Z</time>
      </trkpt>
      <trkpt lat="43.59068" lon="3.78733">
        <ele>51.881641</ele>
        <time>2021-02-28T15:05:43Z</time>
      </trkpt>
      <trkpt lat="43.59081" lon="3.78777">
        <ele>50.197262</ele>
        <time>2021-02-28T15:05:48Z</time>
      </trkpt>
      <trkpt lat="43.59093" lon="3.78818">
        <ele>48.343182</ele>
        <time>2021-02-28T15:05:53Z</time>
      </trkpt>
      <trkpt lat="43.59107" lon="3.7886">
        <ele>47.421387</ele>
        <time>2021-02-28T15:05:58Z</time>
      </trkpt>
      <trkpt lat="43.59122" lon="3.78875">
        <ele>46.643147</ele>
        <time>2021-02-28T15:06:03Z</time>
      </trkpt>
      <trkpt lat="43.59127" lon="3.78905">
        <ele>46.503906</ele>
        <time>2021-02-28T15:06:08Z</time>
      </trkpt>
      <trkpt lat="43.59137" lon="3.78932">
        <ele>46.220051</ele>
        <time>2021-02-28T15:06:13Z</time>
      </trkpt>
      <trkpt lat="43.59152" lon="3.78958">
        <ele>46.099365</ele>
        <time>2021-02-28T15:06:18Z</time>
      </trkpt>
      <trkpt lat="43.59168" lon="3.78983">
        <ele>45.819305</ele>
        <time>2021-02-28T15:06:23Z</time>
      </trkpt>
      <trkpt lat="43.59181" lon="3.79006">
        <ele>45.438354</ele>
        <time>2021-02-28T15:06:28Z</time>
      </trkpt>
      <trkpt lat="43.59183" lon="3.79032">
        <ele>44.553303</ele>
        <time>2021-02-28T15:06:33Z</time>
      </trkpt>
      <trkpt lat="43.59176" lon="3.79058">
        <ele>43.912445</ele>
        <time>2021-02-28T15:06:38Z</time>
      </trkpt>
      <trkpt lat="43.59169" lon="3.79087">
        <ele>43.459427</ele>
        <time>2021-02-28T15:06:43Z</time>
      </trkpt>
      <trkpt lat="43.59165" lon="3.79116">
        <ele>43.089268</ele>
        <time>2021-02-28T15:06:48Z</time>
      </trkpt>
      <trkpt lat="43.5916" lon="3.79148">
        <ele>42.908604</ele>
        <time>2021-02-28T15:06:53Z</time>
      </trkpt>
      <trkpt lat="43.59161" lon="3.79189">
        <ele>41.956905</ele>
        <time>2021-02-28T15:06:58Z</time>
      </trkpt>
      <trkpt lat="43.59152" lon="3.7924">
        <ele>40.841274</ele>
        <time>2021-02-28T15:07:03Z</time>
      </trkpt>
      <trkpt lat="43.59134" lon="3.79284">
        <ele>40.223026</ele>
        <time>2021-02-28T15:07:08Z</time>
      </trkpt>
      <trkpt lat="43.59118" lon="3.79318">
        <ele>40.583027</ele>
        <time>2021-02-28T15:07:13Z</time>
      </trkpt>
      <trkpt lat="43.5911" lon="3.79347">
        <ele>41.198097</ele>
        <time>2021-02-28T15:07:18Z</time>
      </trkpt>
      <trkpt lat="43.5911" lon="3.79382">
        <ele>41.189594</ele>
        <time>2021-02-28T15:07:23Z</time>
      </trkpt>
      <trkpt lat="43.59105" lon="3.79406">
        <ele>40.589478</ele>
        <time>2021-02-28T15:07:28Z</time>
      </trkpt>
      <trkpt lat="43.591" lon="3.79426">
        <ele>39.947819</ele>
        <time>2021-02-28T15:07:33Z</time>
      </trkpt>
      <trkpt lat="43.59094" lon="3.79447">
        <ele>39.46022</ele>
        <time>2021-02-28T15:07:38Z</time>
      </trkpt>
      <trkpt lat="43.59087" lon="3.79469">
        <ele>38.934692</ele>
        <time>2021-02-28T15:07:43Z</time>
      </trkpt>
      <trkpt lat="43.59079" lon="3.79492">
        <ele>38.531406</ele>
        <time>2021-02-28T15:07:48Z</time>
      </trkpt>
      <trkpt lat="43.59071" lon="3.79513">
        <ele>38.068264</ele>
        <time>2021-02-28T15:07:53Z</time>
      </trkpt>
      <trkpt lat="43.59061" lon="3.79535">
        <ele>37.571121</ele>
        <time>2021-02-28T15:07:58Z</time>
      </trkpt>
      <trkpt lat="43.59052" lon="3.79557">
        <ele>37.106525</ele>
        <time>2021-02-28T15:08:03Z</time>
      </trkpt>
      <trkpt lat="43.59041" lon="3.79577">
        <ele>36.740234</ele>
        <time>2021-02-28T15:08:08Z</time>
      </trkpt>
      <trkpt lat="43.59028" lon="3.79593">
        <ele>36.276855</ele>
        <time>2021-02-28T15:08:13Z</time>
      </trkpt>
      <trkpt lat="43.59012" lon="3.79608">
        <ele>36.210693</ele>
        <time>2021-02-28T15:08:18Z</time>
      </trkpt>
      <trkpt lat="43.58997" lon="3.79623">
        <ele>36.415039</ele>
        <time>2021-02-28T15:08:23Z</time>
      </trkpt>
      <trkpt lat="43.58983" lon="3.7964">
        <ele>36.602619</ele>
        <time>2021-02-28T15:08:28Z</time>
      </trkpt>
      <trkpt lat="43.58975" lon="3.79661">
        <ele>36.881184</ele>
        <time>2021-02-28T15:08:33Z</time>
      </trkpt>
      <trkpt lat="43.58979" lon="3.79683">
        <ele>37.177814</ele>
        <time>2021-02-28T15:08:38Z</time>
      </trkpt>
      <trkpt lat="43.58989" lon="3.79703">
        <ele>37.503094</ele>
        <time>2021-02-28T15:08:43Z</time>
      </trkpt>
      <trkpt lat="43.58976" lon="3.7972">
        <ele>37.796551</ele>
        <time>2021-02-28T15:08:48Z</time>
      </trkpt>
      <trkpt lat="43.58957" lon="3.79732">
        <ele>38.058815</ele>
        <time>2021-02-28T15:08:53Z</time>
      </trkpt>
      <trkpt lat="43.58937" lon="3.7975">
        <ele>38.140106</ele>
        <time>2021-02-28T15:08:58Z</time>
      </trkpt>
      <trkpt lat="43.58919" lon="3.79772">
        <ele>38.142822</ele>
        <time>2021-02-28T15:09:03Z</time>
      </trkpt>
      <trkpt lat="43.58903" lon="3.79794">
        <ele>38.171467</ele>
        <time>2021-02-28T15:09:08Z</time>
      </trkpt>
      <trkpt lat="43.5889" lon="3.79815">
        <ele>38.261883</ele>
        <time>2021-02-28T15:09:13Z</time>
      </trkpt>
      <trkpt lat="43.58898" lon="3.79835">
        <ele>38.374992</ele>
        <time>2021-02-28T15:09:18Z</time>
      </trkpt>
      <trkpt lat="43.58908" lon="3.79855">
        <ele>38.755676</ele>
        <time>2021-02-28T15:09:23Z</time>
      </trkpt>
      <trkpt lat="43.58918" lon="3.79876">
        <ele>39.163673</ele>
        <time>2021-02-28T15:09:28Z</time>
      </trkpt>
      <trkpt lat="43.58928" lon="3.79897">
        <ele>39.336113</ele>
        <time>2021-02-28T15:09:33Z</time>
      </trkpt>
      <trkpt lat="43.58938" lon="3.79917">
        <ele>39.756176</ele>
        <time>2021-02-28T15:09:38Z</time>
      </trkpt>
      <trkpt lat="43.58947" lon="3.79938">
        <ele>40.18523</ele>
        <time>2021-02-28T15:09:43Z</time>
      </trkpt>
      <trkpt lat="43.58957" lon="3.79958">
        <ele>40.52425</ele>
        <time>2021-02-28T15:09:48Z</time>
      </trkpt>
      <trkpt lat="43.58967" lon="3.79978">
        <ele>40.811687</ele>
        <time>2021-02-28T15:09:53Z</time>
      </trkpt>
      <trkpt lat="43.58977" lon="3.79998">
        <ele>41.080963</ele>
        <time>2021-02-28T15:09:58Z</time>
      </trkpt>
      <trkpt lat="43.58987" lon="3.80019">
        <ele>41.457561</ele>
        <time>2021-02-28T15:10:03Z</time>
      </trkpt>
      <trkpt lat="43.58997" lon="3.80039">
        <ele>41.846371</ele>
        <time>2021-02-28T15:10:08Z</time>
      </trkpt>
      <trkpt lat="43.59007" lon="3.80057">
        <ele>42.308125</ele>
        <time>2021-02-28T15:10:13Z</time>
      </trkpt>
      <trkpt lat="43.59016" lon="3.80072">
        <ele>42.591278</ele>
        <time>2021-02-28T15:10:18Z</time>
      </trkpt>
      <trkpt lat="43.59024" lon="3.80083">
        <ele>42.751629</ele>
        <time>2021-02-28T15:10:23Z</time>
      </trkpt>
      <trkpt lat="43.59033" lon="3.80082">
        <ele>42.885334</ele>
        <time>2021-02-28T15:10:28Z</time>
      </trkpt>
      <trkpt lat="43.59047" lon="3.8007">
        <ele>43.10384</ele>
        <time>2021-02-28T15:10:38Z</time>
      </trkpt>
      <trkpt lat="43.59062" lon="3.80071">
        <ele>43.398273</ele>
        <time>2021-02-28T15:10:48Z</time>
      </trkpt>
      <trkpt lat="43.59073" lon="3.80092">
        <ele>43.752441</ele>
        <time>2021-02-28T15:10:53Z</time>
      </trkpt>
      <trkpt lat="43.59087" lon="3.80104">
        <ele>44.16748</ele>
        <time>2021-02-28T15:10:58Z</time>
      </trkpt>
      <trkpt lat="43.59106" lon="3.80094">
        <ele>44.576172</ele>
        <time>2021-02-28T15:11:03Z</time>
      </trkpt>
      <trkpt lat="43.59123" lon="3.8008">
        <ele>44.960205</ele>
        <time>2021-02-28T15:11:08Z</time>
      </trkpt>
      <trkpt lat="43.5914" lon="3.80066">
        <ele>45.291016</ele>
        <time>2021-02-28T15:11:13Z</time>
      </trkpt>
      <trkpt lat="43.59157" lon="3.80053">
        <ele>45.556885</ele>
        <time>2021-02-28T15:11:18Z</time>
      </trkpt>
      <trkpt lat="43.59174" lon="3.80039">
        <ele>45.790436</ele>
        <time>2021-02-28T15:11:23Z</time>
      </trkpt>
      <trkpt lat="43.59192" lon="3.80027">
        <ele>46.114582</ele>
        <time>2021-02-28T15:11:28Z</time>
      </trkpt>
      <trkpt lat="43.59209" lon="3.80039">
        <ele>46.630859</ele>
        <time>2021-02-28T15:11:33Z</time>
      </trkpt>
      <trkpt lat="43.59221" lon="3.80059">
        <ele>47.042645</ele>
        <time>2021-02-28T15:11:38Z</time>
      </trkpt>
      <trkpt lat="43.59232" lon="3.80079">
        <ele>47.227051</ele>
        <time>2021-02-28T15:11:43Z</time>
      </trkpt>
      <trkpt lat="43.59243" lon="3.80098">
        <ele>47.521809</ele>
        <time>2021-02-28T15:11:48Z</time>
      </trkpt>
      <trkpt lat="43.59258" lon="3.80102">
        <ele>47.533401</ele>
        <time>2021-02-28T15:11:53Z</time>
      </trkpt>
      <trkpt lat="43.59274" lon="3.80089">
        <ele>47.640705</ele>
        <time>2021-02-28T15:11:58Z</time>
      </trkpt>
      <trkpt lat="43.59288" lon="3.80073">
        <ele>47.788574</ele>
        <time>2021-02-28T15:12:03Z</time>
      </trkpt>
      <trkpt lat="43.59306" lon="3.80065">
        <ele>48.346027</ele>
        <time>2021-02-28T15:12:08Z</time>
      </trkpt>
      <trkpt lat="43.59322" lon="3.80077">
        <ele>48.791504</ele>
        <time>2021-02-28T15:12:13Z</time>
      </trkpt>
      <trkpt lat="43.5934" lon="3.80088">
        <ele>48.745441</ele>
        <time>2021-02-28T15:12:18Z</time>
      </trkpt>
      <trkpt lat="43.59357" lon="3.80096">
        <ele>48.585773</ele>
        <time>2021-02-28T15:12:23Z</time>
      </trkpt>
      <trkpt lat="43.59374" lon="3.80104">
        <ele>48.460613</ele>
        <time>2021-02-28T15:12:28Z</time>
      </trkpt>
      <trkpt lat="43.59391" lon="3.80111">
        <ele>48.441135</ele>
        <time>2021-02-28T15:12:33Z</time>
      </trkpt>
      <trkpt lat="43.59407" lon="3.80119">
        <ele>49.281773</ele>
        <time>2021-02-28T15:12:38Z</time>
      </trkpt>
      <trkpt lat="43.59424" lon="3.80125">
        <ele>50.494583</ele>
        <time>2021-02-28T15:12:43Z</time>
      </trkpt>
      <trkpt lat="43.59441" lon="3.80133">
        <ele>52.116283</ele>
        <time>2021-02-28T15:12:48Z</time>
      </trkpt>
      <trkpt lat="43.59459" lon="3.80138">
        <ele>53.53532</ele>
        <time>2021-02-28T15:12:53Z</time>
      </trkpt>
      <trkpt lat="43.59478" lon="3.80138">
        <ele>54.190838</ele>
        <time>2021-02-28T15:12:58Z</time>
      </trkpt>
      <trkpt lat="43.59494" lon="3.80146">
        <ele>54.467041</ele>
        <time>2021-02-28T15:13:03Z</time>
      </trkpt>
      <trkpt lat="43.59502" lon="3.80169">
        <ele>54.707439</ele>
        <time>2021-02-28T15:13:08Z</time>
      </trkpt>
      <trkpt lat="43.5951" lon="3.80195">
        <ele>54.834473</ele>
        <time>2021-02-28T15:13:13Z</time>
      </trkpt>
      <trkpt lat="43.5952" lon="3.80219">
        <ele>54.87801</ele>
        <time>2021-02-28T15:13:18Z</time>
      </trkpt>
      <trkpt lat="43.59529" lon="3.80241">
        <ele>55.09201</ele>
        <time>2021-02-28T15:13:23Z</time>
      </trkpt>
      <trkpt lat="43.59538" lon="3.80257">
        <ele>55.379742</ele>
        <time>2021-02-28T15:13:28Z</time>
      </trkpt>
      <trkpt lat="43.59547" lon="3.80268">
        <ele>55.622074</ele>
        <time>2021-02-28T15:13:33Z</time>
      </trkpt>
      <trkpt lat="43.59553" lon="3.80282">
        <ele>55.957733</ele>
        <time>2021-02-28T15:13:38Z</time>
      </trkpt>
      <trkpt lat="43.59561" lon="3.8029">
        <ele>56.133953</ele>
        <time>2021-02-28T15:13:43Z</time>
      </trkpt>
      <trkpt lat="43.59567" lon="3.80298">
        <ele>56.385742</ele>
        <time>2021-02-28T15:13:48Z</time>
      </trkpt>
      <trkpt lat="43.59575" lon="3.80309">
        <ele>56.565594</ele>
        <time>2021-02-28T15:13:53Z</time>
      </trkpt>
      <trkpt lat="43.59586" lon="3.80328">
        <ele>56.791828</ele>
        <time>2021-02-28T15:13:58Z</time>
      </trkpt>
      <trkpt lat="43.59599" lon="3.80348">
        <ele>57.106018</ele>
        <time>2021-02-28T15:14:03Z</time>
      </trkpt>
      <trkpt lat="43.59614" lon="3.80367">
        <ele>57.497723</ele>
        <time>2021-02-28T15:14:08Z</time>
      </trkpt>
      <trkpt lat="43.59627" lon="3.80388">
        <ele>57.908203</ele>
        <time>2021-02-28T15:14:13Z</time>
      </trkpt>
      <trkpt lat="43.59636" lon="3.80409">
        <ele>58.298992</ele>
        <time>2021-02-28T15:14:18Z</time>
      </trkpt>
      <trkpt lat="43.59639" lon="3.80434">
        <ele>58.59296</ele>
        <time>2021-02-28T15:14:23Z</time>
      </trkpt>
      <trkpt lat="43.59643" lon="3.80456">
        <ele>58.730499</ele>
        <time>2021-02-28T15:14:28Z</time>
      </trkpt>
      <trkpt lat="43.59651" lon="3.80477">
        <ele>58.874348</ele>
        <time>2021-02-28T15:14:33Z</time>
      </trkpt>
      <trkpt lat="43.59658" lon="3.80497">
        <ele>58.902027</ele>
        <time>2021-02-28T15:14:38Z</time>
      </trkpt>
      <trkpt lat="43.59665" lon="3.80517">
        <ele>58.811993</ele>
        <time>2021-02-28T15:14:43Z</time>
      </trkpt>
      <trkpt lat="43.59674" lon="3.8054">
        <ele>58.726986</ele>
        <time>2021-02-28T15:14:48Z</time>
      </trkpt>
      <trkpt lat="43.59679" lon="3.80563">
        <ele>58.705227</ele>
        <time>2021-02-28T15:14:53Z</time>
      </trkpt>
      <trkpt lat="43.5968" lon="3.80585">
        <ele>58.691528</ele>
        <time>2021-02-28T15:14:58Z</time>
      </trkpt>
      <trkpt lat="43.59681" lon="3.80609">
        <ele>58.593948</ele>
        <time>2021-02-28T15:15:03Z</time>
      </trkpt>
      <trkpt lat="43.59685" lon="3.80628">
        <ele>58.467743</ele>
        <time>2021-02-28T15:15:08Z</time>
      </trkpt>
      <trkpt lat="43.59683" lon="3.8064">
        <ele>58.371861</ele>
        <time>2021-02-28T15:15:13Z</time>
      </trkpt>
      <trkpt lat="43.59687" lon="3.80655">
        <ele>58.277328</ele>
        <time>2021-02-28T15:15:18Z</time>
      </trkpt>
      <trkpt lat="43.5969" lon="3.80674">
        <ele>58.227444</ele>
        <time>2021-02-28T15:15:23Z</time>
      </trkpt>
      <trkpt lat="43.59691" lon="3.80691">
        <ele>58.184128</ele>
        <time>2021-02-28T15:15:28Z</time>
      </trkpt>
      <trkpt lat="43.59695" lon="3.80708">
        <ele>57.939163</ele>
        <time>2021-02-28T15:15:33Z</time>
      </trkpt>
      <trkpt lat="43.59699" lon="3.8073">
        <ele>57.791775</ele>
        <time>2021-02-28T15:15:38Z</time>
      </trkpt>
      <trkpt lat="43.59705" lon="3.80752">
        <ele>57.528439</ele>
        <time>2021-02-28T15:15:43Z</time>
      </trkpt>
      <trkpt lat="43.59712" lon="3.80775">
        <ele>57.436966</ele>
        <time>2021-02-28T15:15:48Z</time>
      </trkpt>
      <trkpt lat="43.59718" lon="3.80801">
        <ele>57.607162</ele>
        <time>2021-02-28T15:15:53Z</time>
      </trkpt>
      <trkpt lat="43.59723" lon="3.80828">
        <ele>57.91164</ele>
        <time>2021-02-28T15:15:58Z</time>
      </trkpt>
      <trkpt lat="43.59728" lon="3.80856">
        <ele>57.952255</ele>
        <time>2021-02-28T15:16:03Z</time>
      </trkpt>
      <trkpt lat="43.59732" lon="3.80884">
        <ele>57.781788</ele>
        <time>2021-02-28T15:16:08Z</time>
      </trkpt>
      <trkpt lat="43.59738" lon="3.80912">
        <ele>57.585163</ele>
        <time>2021-02-28T15:16:13Z</time>
      </trkpt>
      <trkpt lat="43.59745" lon="3.80939">
        <ele>57.433918</ele>
        <time>2021-02-28T15:16:18Z</time>
      </trkpt>
      <trkpt lat="43.59754" lon="3.80962">
        <ele>57.348469</ele>
        <time>2021-02-28T15:16:23Z</time>
      </trkpt>
      <trkpt lat="43.59765" lon="3.80985">
        <ele>57.286053</ele>
        <time>2021-02-28T15:16:28Z</time>
      </trkpt>
      <trkpt lat="43.59777" lon="3.81011">
        <ele>57.172771</ele>
        <time>2021-02-28T15:16:33Z</time>
      </trkpt>
      <trkpt lat="43.5979" lon="3.8104">
        <ele>56.865234</ele>
        <time>2021-02-28T15:16:38Z</time>
      </trkpt>
      <trkpt lat="43.59804" lon="3.81071">
        <ele>56.274063</ele>
        <time>2021-02-28T15:16:43Z</time>
      </trkpt>
      <trkpt lat="43.59818" lon="3.81101">
        <ele>54.696354</ele>
        <time>2021-02-28T15:16:48Z</time>
      </trkpt>
      <trkpt lat="43.59828" lon="3.81128">
        <ele>52.3615</ele>
        <time>2021-02-28T15:16:53Z</time>
      </trkpt>
      <trkpt lat="43.5984" lon="3.81153">
        <ele>50.965939</ele>
        <time>2021-02-28T15:16:58Z</time>
      </trkpt>
      <trkpt lat="43.59856" lon="3.8118">
        <ele>49.725185</ele>
        <time>2021-02-28T15:17:03Z</time>
      </trkpt>
      <trkpt lat="43.59877" lon="3.81205">
        <ele>49.465397</ele>
        <time>2021-02-28T15:17:08Z</time>
      </trkpt>
      <trkpt lat="43.59902" lon="3.81226">
        <ele>47.180313</ele>
        <time>2021-02-28T15:17:13Z</time>
      </trkpt>
      <trkpt lat="43.59928" lon="3.81247">
        <ele>45.104259</ele>
        <time>2021-02-28T15:17:18Z</time>
      </trkpt>
      <trkpt lat="43.59955" lon="3.81271">
        <ele>43.265198</ele>
        <time>2021-02-28T15:17:23Z</time>
      </trkpt>
      <trkpt lat="43.5998" lon="3.81301">
        <ele>41.006817</ele>
        <time>2021-02-28T15:17:28Z</time>
      </trkpt>
      <trkpt lat="43.60006" lon="3.81336">
        <ele>38.827496</ele>
        <time>2021-02-28T15:17:33Z</time>
      </trkpt>
      <trkpt lat="43.60027" lon="3.81366">
        <ele>37.348904</ele>
        <time>2021-02-28T15:17:38Z</time>
      </trkpt>
      <trkpt lat="43.60036" lon="3.81377">
        <ele>36.112377</ele>
        <time>2021-02-28T15:17:43Z</time>
      </trkpt>
      <trkpt lat="43.60032" lon="3.814">
        <ele>35.813313</ele>
        <time>2021-02-28T15:17:48Z</time>
      </trkpt>
      <trkpt lat="43.60023" lon="3.81429">
        <ele>35.829426</ele>
        <time>2021-02-28T15:17:53Z</time>
      </trkpt>
      <trkpt lat="43.60013" lon="3.81458">
        <ele>35.910156</ele>
        <time>2021-02-28T15:17:58Z</time>
      </trkpt>
      <trkpt lat="43.60006" lon="3.81481">
        <ele>36.161556</ele>
        <time>2021-02-28T15:18:03Z</time>
      </trkpt>
      <trkpt lat="43.6002" lon="3.81499">
        <ele>36.179623</ele>
        <time>2021-02-28T15:18:08Z</time>
      </trkpt>
      <trkpt lat="43.60041" lon="3.815">
        <ele>36.020355</ele>
        <time>2021-02-28T15:18:13Z</time>
      </trkpt>
      <trkpt lat="43.60064" lon="3.81498">
        <ele>35.999573</ele>
        <time>2021-02-28T15:18:18Z</time>
      </trkpt>
      <trkpt lat="43.60085" lon="3.81498">
        <ele>35.941231</ele>
        <time>2021-02-28T15:18:23Z</time>
      </trkpt>
      <trkpt lat="43.60106" lon="3.81501">
        <ele>35.6702</ele>
        <time>2021-02-28T15:18:28Z</time>
      </trkpt>
      <trkpt lat="43.60127" lon="3.81504">
        <ele>35.557354</ele>
        <time>2021-02-28T15:18:33Z</time>
      </trkpt>
      <trkpt lat="43.60147" lon="3.81502">
        <ele>35.175613</ele>
        <time>2021-02-28T15:18:38Z</time>
      </trkpt>
      <trkpt lat="43.60168" lon="3.81499">
        <ele>34.983318</ele>
        <time>2021-02-28T15:18:43Z</time>
      </trkpt>
      <trkpt lat="43.60187" lon="3.81496">
        <ele>34.989502</ele>
        <time>2021-02-28T15:18:48Z</time>
      </trkpt>
      <trkpt lat="43.60204" lon="3.81485">
        <ele>35</ele>
        <time>2021-02-28T15:18:53Z</time>
      </trkpt>
      <trkpt lat="43.60222" lon="3.81484">
        <ele>35</ele>
        <time>2021-02-28T15:18:58Z</time>
      </trkpt>
      <trkpt lat="43.60238" lon="3.81493">
        <ele>35</ele>
        <time>2021-02-28T15:19:03Z</time>
      </trkpt>
      <trkpt lat="43.60256" lon="3.81503">
        <ele>35</ele>
        <time>2021-02-28T15:19:08Z</time>
      </trkpt>
      <trkpt lat="43.60272" lon="3.81514">
        <ele>34.997726</ele>
        <time>2021-02-28T15:19:13Z</time>
      </trkpt>
      <trkpt lat="43.60291" lon="3.81522">
        <ele>34.997726</ele>
        <time>2021-02-28T15:19:18Z</time>
      </trkpt>
      <trkpt lat="43.60283" lon="3.81538">
        <ele>35.11264</ele>
        <time>2021-02-28T15:19:23Z</time>
      </trkpt>
      <trkpt lat="43.60272" lon="3.81563">
        <ele>35.111271</ele>
        <time>2021-02-28T15:19:28Z</time>
      </trkpt>
      <trkpt lat="43.60269" lon="3.81586">
        <ele>35.041859</ele>
        <time>2021-02-28T15:19:33Z</time>
      </trkpt>
      <trkpt lat="43.60267" lon="3.81603">
        <ele>34.937054</ele>
        <time>2021-02-28T15:19:38Z</time>
      </trkpt>
      <trkpt lat="43.60277" lon="3.81619">
        <ele>34.518799</ele>
        <time>2021-02-28T15:19:43Z</time>
      </trkpt>
      <trkpt lat="43.60289" lon="3.81627">
        <ele>34.38652</ele>
        <time>2021-02-28T15:19:48Z</time>
      </trkpt>
      <trkpt lat="43.60303" lon="3.81639">
        <ele>34.304279</ele>
        <time>2021-02-28T15:19:53Z</time>
      </trkpt>
      <trkpt lat="43.6031" lon="3.81663">
        <ele>34.028645</ele>
        <time>2021-02-28T15:19:58Z</time>
      </trkpt>
      <trkpt lat="43.60313" lon="3.8169">
        <ele>33.961426</ele>
        <time>2021-02-28T15:20:03Z</time>
      </trkpt>
      <trkpt lat="43.60317" lon="3.81719">
        <ele>33.438068</ele>
        <time>2021-02-28T15:20:08Z</time>
      </trkpt>
      <trkpt lat="43.60321" lon="3.8175">
        <ele>33.297504</ele>
        <time>2021-02-28T15:20:13Z</time>
      </trkpt>
      <trkpt lat="43.60333" lon="3.81769">
        <ele>32.680584</ele>
        <time>2021-02-28T15:20:18Z</time>
      </trkpt>
      <trkpt lat="43.60347" lon="3.81788">
        <ele>32.448025</ele>
        <time>2021-02-28T15:20:23Z</time>
      </trkpt>
      <trkpt lat="43.60363" lon="3.81806">
        <ele>32.322067</ele>
        <time>2021-02-28T15:20:28Z</time>
      </trkpt>
      <trkpt lat="43.60383" lon="3.81818">
        <ele>32.375134</ele>
        <time>2021-02-28T15:20:33Z</time>
      </trkpt>
      <trkpt lat="43.60405" lon="3.81823">
        <ele>32.473633</ele>
        <time>2021-02-28T15:20:38Z</time>
      </trkpt>
      <trkpt lat="43.60426" lon="3.8183">
        <ele>32.481243</ele>
        <time>2021-02-28T15:20:43Z</time>
      </trkpt>
      <trkpt lat="43.60447" lon="3.81838">
        <ele>32.524261</ele>
        <time>2021-02-28T15:20:48Z</time>
      </trkpt>
      <trkpt lat="43.60467" lon="3.81846">
        <ele>32.61697</ele>
        <time>2021-02-28T15:20:53Z</time>
      </trkpt>
      <trkpt lat="43.60488" lon="3.81853">
        <ele>32.762192</ele>
        <time>2021-02-28T15:20:58Z</time>
      </trkpt>
      <trkpt lat="43.60506" lon="3.81862">
        <ele>33.260578</ele>
        <time>2021-02-28T15:21:03Z</time>
      </trkpt>
      <trkpt lat="43.60521" lon="3.81879">
        <ele>33.682941</ele>
        <time>2021-02-28T15:21:08Z</time>
      </trkpt>
      <trkpt lat="43.60539" lon="3.81895">
        <ele>34.205765</ele>
        <time>2021-02-28T15:21:13Z</time>
      </trkpt>
      <trkpt lat="43.60554" lon="3.81914">
        <ele>34.615559</ele>
        <time>2021-02-28T15:21:18Z</time>
      </trkpt>
      <trkpt lat="43.6057" lon="3.81929">
        <ele>35.446651</ele>
        <time>2021-02-28T15:21:23Z</time>
      </trkpt>
      <trkpt lat="43.60589" lon="3.81929">
        <ele>35.671169</ele>
        <time>2021-02-28T15:21:28Z</time>
      </trkpt>
      <trkpt lat="43.60602" lon="3.81906">
        <ele>35.43906</ele>
        <time>2021-02-28T15:21:33Z</time>
      </trkpt>
      <trkpt lat="43.60614" lon="3.81884">
        <ele>35.43906</ele>
        <time>2021-02-28T15:21:38Z</time>
      </trkpt>
      <trkpt lat="43.60624" lon="3.81868">
        <ele>34.858784</ele>
        <time>2021-02-28T15:21:43Z</time>
      </trkpt>
      <trkpt lat="43.60635" lon="3.81857">
        <ele>34.598511</ele>
        <time>2021-02-28T15:21:48Z</time>
      </trkpt>
      <trkpt lat="43.60644" lon="3.81849">
        <ele>34.310467</ele>
        <time>2021-02-28T15:21:53Z</time>
      </trkpt>
      <trkpt lat="43.60645" lon="3.81832">
        <ele>34.08968</ele>
        <time>2021-02-28T15:21:58Z</time>
      </trkpt>
      <trkpt lat="43.6069" lon="3.81791">
        <ele>33.917393</ele>
        <time>2021-02-28T15:22:13Z</time>
      </trkpt>
      <trkpt lat="43.60698" lon="3.81803">
        <ele>33.917393</ele>
        <time>2021-02-28T15:22:18Z</time>
      </trkpt>
      <trkpt lat="43.60707" lon="3.81819">
        <ele>34.040546</ele>
        <time>2021-02-28T15:22:23Z</time>
      </trkpt>
      <trkpt lat="43.60717" lon="3.81836">
        <ele>34.495167</ele>
        <time>2021-02-28T15:22:28Z</time>
      </trkpt>
      <trkpt lat="43.60729" lon="3.81855">
        <ele>34.598602</ele>
        <time>2021-02-28T15:22:33Z</time>
      </trkpt>
      <trkpt lat="43.6074" lon="3.81876">
        <ele>34.735477</ele>
        <time>2021-02-28T15:22:38Z</time>
      </trkpt>
      <trkpt lat="43.60751" lon="3.81896">
        <ele>34.919796</ele>
        <time>2021-02-28T15:22:43Z</time>
      </trkpt>
      <trkpt lat="43.60766" lon="3.8191">
        <ele>35.002712</ele>
        <time>2021-02-28T15:22:48Z</time>
      </trkpt>
      <trkpt lat="43.6078" lon="3.81922">
        <ele>35.020153</ele>
        <time>2021-02-28T15:22:53Z</time>
      </trkpt>
      <trkpt lat="43.60792" lon="3.81931">
        <ele>35.120281</ele>
        <time>2021-02-28T15:22:58Z</time>
      </trkpt>
      <trkpt lat="43.60803" lon="3.81939">
        <ele>35.231037</ele>
        <time>2021-02-28T15:23:03Z</time>
      </trkpt>
      <trkpt lat="43.60802" lon="3.81951">
        <ele>35.381428</ele>
        <time>2021-02-28T15:23:08Z</time>
      </trkpt>
      <trkpt lat="43.60808" lon="3.81952">
        <ele>35.539959</ele>
        <time>2021-02-28T15:23:13Z</time>
      </trkpt>
      <trkpt lat="43.60815" lon="3.8196">
        <ele>35.585449</ele>
        <time>2021-02-28T15:23:18Z</time>
      </trkpt>
      <trkpt lat="43.60825" lon="3.81967">
        <ele>35.685223</ele>
        <time>2021-02-28T15:23:23Z</time>
      </trkpt>
      <trkpt lat="43.60838" lon="3.81964">
        <ele>35.89323</ele>
        <time>2021-02-28T15:23:28Z</time>
      </trkpt>
      <trkpt lat="43.60848" lon="3.81966">
        <ele>36.069092</ele>
        <time>2021-02-28T15:23:33Z</time>
      </trkpt>
      <trkpt lat="43.60859" lon="3.81964">
        <ele>36.22591</ele>
        <time>2021-02-28T15:23:38Z</time>
      </trkpt>
      <trkpt lat="43.60865" lon="3.81963">
        <ele>36.334717</ele>
        <time>2021-02-28T15:23:43Z</time>
      </trkpt>
      <trkpt lat="43.60871" lon="3.81957">
        <ele>36.424072</ele>
        <time>2021-02-28T15:23:48Z</time>
      </trkpt>
      <trkpt lat="43.60883" lon="3.81955">
        <ele>36.462158</ele>
        <time>2021-02-28T15:23:53Z</time>
      </trkpt>
      <trkpt lat="43.609" lon="3.81951">
        <ele>36.57951</ele>
        <time>2021-02-28T15:23:58Z</time>
      </trkpt>
      <trkpt lat="43.60912" lon="3.81947">
        <ele>36.707684</ele>
        <time>2021-02-28T15:24:03Z</time>
      </trkpt>
      <trkpt lat="43.60929" lon="3.8194">
        <ele>36.87923</ele>
        <time>2021-02-28T15:24:08Z</time>
      </trkpt>
      <trkpt lat="43.60945" lon="3.81938">
        <ele>37.0341</ele>
        <time>2021-02-28T15:24:13Z</time>
      </trkpt>
      <trkpt lat="43.60959" lon="3.81934">
        <ele>37.196289</ele>
        <time>2021-02-28T15:24:18Z</time>
      </trkpt>
      <trkpt lat="43.6097" lon="3.81928">
        <ele>37.339321</ele>
        <time>2021-02-28T15:24:23Z</time>
      </trkpt>
      <trkpt lat="43.60983" lon="3.8192">
        <ele>37.400925</ele>
        <time>2021-02-28T15:24:28Z</time>
      </trkpt>
      <trkpt lat="43.60996" lon="3.81911">
        <ele>37.485485</ele>
        <time>2021-02-28T15:24:33Z</time>
      </trkpt>
      <trkpt lat="43.6101" lon="3.81903">
        <ele>37.603924</ele>
        <time>2021-02-28T15:24:38Z</time>
      </trkpt>
      <trkpt lat="43.61026" lon="3.81893">
        <ele>37.788818</ele>
        <time>2021-02-28T15:24:43Z</time>
      </trkpt>
      <trkpt lat="43.61047" lon="3.81886">
        <ele>37.968418</ele>
        <time>2021-02-28T15:24:48Z</time>
      </trkpt>
      <trkpt lat="43.61066" lon="3.81878">
        <ele>38.121136</ele>
        <time>2021-02-28T15:24:53Z</time>
      </trkpt>
      <trkpt lat="43.61083" lon="3.81872">
        <ele>38.297546</ele>
        <time>2021-02-28T15:24:58Z</time>
      </trkpt>
      <trkpt lat="43.61094" lon="3.81865">
        <ele>38.445877</ele>
        <time>2021-02-28T15:25:03Z</time>
      </trkpt>
      <trkpt lat="43.61115" lon="3.8186">
        <ele>38.595264</ele>
        <time>2021-02-28T15:25:08Z</time>
      </trkpt>
      <trkpt lat="43.61135" lon="3.81847">
        <ele>38.701721</ele>
        <time>2021-02-28T15:25:13Z</time>
      </trkpt>
      <trkpt lat="43.61153" lon="3.81835">
        <ele>38.901943</ele>
        <time>2021-02-28T15:25:18Z</time>
      </trkpt>
      <trkpt lat="43.61172" lon="3.81822">
        <ele>39.299671</ele>
        <time>2021-02-28T15:25:23Z</time>
      </trkpt>
      <trkpt lat="43.6119" lon="3.8181">
        <ele>39.299671</ele>
        <time>2021-02-28T15:25:28Z</time>
      </trkpt>
      <trkpt lat="43.612" lon="3.81802">
        <ele>39.875637</ele>
        <time>2021-02-28T15:25:33Z</time>
      </trkpt>
      <trkpt lat="43.61214" lon="3.81789">
        <ele>40.75</ele>
        <time>2021-02-28T15:25:38Z</time>
      </trkpt>
      <trkpt lat="43.61226" lon="3.81779">
        <ele>41.298992</ele>
        <time>2021-02-28T15:25:43Z</time>
      </trkpt>
      <trkpt lat="43.61243" lon="3.81773">
        <ele>41.7901</ele>
        <time>2021-02-28T15:25:48Z</time>
      </trkpt>
      <trkpt lat="43.61259" lon="3.81761">
        <ele>42.191574</ele>
        <time>2021-02-28T15:25:53Z</time>
      </trkpt>
      <trkpt lat="43.61275" lon="3.81757">
        <ele>42.673889</ele>
        <time>2021-02-28T15:25:58Z</time>
      </trkpt>
      <trkpt lat="43.61294" lon="3.81753">
        <ele>43.082916</ele>
        <time>2021-02-28T15:26:03Z</time>
      </trkpt>
      <trkpt lat="43.61314" lon="3.8175">
        <ele>43.41922</ele>
        <time>2021-02-28T15:26:08Z</time>
      </trkpt>
      <trkpt lat="43.61336" lon="3.81747">
        <ele>43.719563</ele>
        <time>2021-02-28T15:26:13Z</time>
      </trkpt>
      <trkpt lat="43.61359" lon="3.81743">
        <ele>43.782715</ele>
        <time>2021-02-28T15:26:18Z</time>
      </trkpt>
      <trkpt lat="43.61377" lon="3.81737">
        <ele>43.903645</ele>
        <time>2021-02-28T15:26:23Z</time>
      </trkpt>
      <trkpt lat="43.6139" lon="3.81727">
        <ele>44.034088</ele>
        <time>2021-02-28T15:26:28Z</time>
      </trkpt>
      <trkpt lat="43.61403" lon="3.81709">
        <ele>44.15797</ele>
        <time>2021-02-28T15:26:33Z</time>
      </trkpt>
      <trkpt lat="43.61421" lon="3.817">
        <ele>44.342758</ele>
        <time>2021-02-28T15:26:38Z</time>
      </trkpt>
      <trkpt lat="43.61435" lon="3.8169">
        <ele>44.392262</ele>
        <time>2021-02-28T15:26:43Z</time>
      </trkpt>
      <trkpt lat="43.61448" lon="3.81673">
        <ele>44.504242</ele>
        <time>2021-02-28T15:26:48Z</time>
      </trkpt>
      <trkpt lat="43.61448" lon="3.8165">
        <ele>44.624218</ele>
        <time>2021-02-28T15:26:53Z</time>
      </trkpt>
      <trkpt lat="43.61449" lon="3.8163">
        <ele>45.034016</ele>
        <time>2021-02-28T15:26:58Z</time>
      </trkpt>
      <trkpt lat="43.61454" lon="3.81613">
        <ele>46.183277</ele>
        <time>2021-02-28T15:27:03Z</time>
      </trkpt>
      <trkpt lat="43.61459" lon="3.81594">
        <ele>46.767994</ele>
        <time>2021-02-28T15:27:08Z</time>
      </trkpt>
      <trkpt lat="43.61463" lon="3.81576">
        <ele>47.305988</ele>
        <time>2021-02-28T15:27:13Z</time>
      </trkpt>
      <trkpt lat="43.61466" lon="3.81562">
        <ele>48.20499</ele>
        <time>2021-02-28T15:27:18Z</time>
      </trkpt>
      <trkpt lat="43.61472" lon="3.81564">
        <ele>48.20499</ele>
        <time>2021-02-28T15:27:23Z</time>
      </trkpt>
      <trkpt lat="43.61476" lon="3.81586">
        <ele>48.413437</ele>
        <time>2021-02-28T15:27:28Z</time>
      </trkpt>
      <trkpt lat="43.61483" lon="3.81611">
        <ele>48.031803</ele>
        <time>2021-02-28T15:27:33Z</time>
      </trkpt>
      <trkpt lat="43.61491" lon="3.81636">
        <ele>47.14146</ele>
        <time>2021-02-28T15:27:38Z</time>
      </trkpt>
      <trkpt lat="43.61496" lon="3.81658">
        <ele>46.951111</ele>
        <time>2021-02-28T15:27:43Z</time>
      </trkpt>
      <trkpt lat="43.61502" lon="3.81678">
        <ele>45.978985</ele>
        <time>2021-02-28T15:27:48Z</time>
      </trkpt>
      <trkpt lat="43.61508" lon="3.81702">
        <ele>44.866283</ele>
        <time>2021-02-28T15:27:53Z</time>
      </trkpt>
      <trkpt lat="43.61515" lon="3.81726">
        <ele>44.207912</ele>
        <time>2021-02-28T15:27:58Z</time>
      </trkpt>
      <trkpt lat="43.61522" lon="3.81753">
        <ele>43.434647</ele>
        <time>2021-02-28T15:28:03Z</time>
      </trkpt>
      <trkpt lat="43.6153" lon="3.8178">
        <ele>42.555088</ele>
        <time>2021-02-28T15:28:08Z</time>
      </trkpt>
      <trkpt lat="43.61537" lon="3.81807">
        <ele>41.98666</ele>
        <time>2021-02-28T15:28:13Z</time>
      </trkpt>
      <trkpt lat="43.61544" lon="3.81832">
        <ele>41.326397</ele>
        <time>2021-02-28T15:28:18Z</time>
      </trkpt>
      <trkpt lat="43.61548" lon="3.81846">
        <ele>41.090328</ele>
        <time>2021-02-28T15:28:23Z</time>
      </trkpt>
      <trkpt lat="43.61554" lon="3.81858">
        <ele>41.034245</ele>
        <time>2021-02-28T15:30:33Z</time>
      </trkpt>
      <trkpt lat="43.61556" lon="3.81886">
        <ele>41.185772</ele>
        <time>2021-02-28T15:30:43Z</time>
      </trkpt>
      <trkpt lat="43.61553" lon="3.81915">
        <ele>41.185772</ele>
        <time>2021-02-28T15:30:48Z</time>
      </trkpt>
      <trkpt lat="43.61548" lon="3.81942">
        <ele>41.51202</ele>
        <time>2021-02-28T15:30:53Z</time>
      </trkpt>
      <trkpt lat="43.61542" lon="3.81968">
        <ele>41.908936</ele>
        <time>2021-02-28T15:30:58Z</time>
      </trkpt>
      <trkpt lat="43.6154" lon="3.81982">
        <ele>42.008709</ele>
        <time>2021-02-28T15:31:03Z</time>
      </trkpt>
      <trkpt lat="43.61537" lon="3.81996">
        <ele>42.053623</ele>
        <time>2021-02-28T15:31:08Z</time>
      </trkpt>
      <trkpt lat="43.61534" lon="3.82012">
        <ele>42.081146</ele>
        <time>2021-02-28T15:31:13Z</time>
      </trkpt>
      <trkpt lat="43.61532" lon="3.82019">
        <ele>42.084843</ele>
        <time>2021-02-28T15:31:18Z</time>
      </trkpt>
      <trkpt lat="43.6153" lon="3.82047">
        <ele>42.053509</ele>
        <time>2021-02-28T15:31:28Z</time>
      </trkpt>
      <trkpt lat="43.61526" lon="3.82069">
        <ele>42.182995</ele>
        <time>2021-02-28T15:31:38Z</time>
      </trkpt>
      <trkpt lat="43.61521" lon="3.82089">
        <ele>42.762939</ele>
        <time>2021-02-28T15:31:43Z</time>
      </trkpt>
      <trkpt lat="43.61523" lon="3.8211">
        <ele>42.901855</ele>
        <time>2021-02-28T15:31:48Z</time>
      </trkpt>
      <trkpt lat="43.61522" lon="3.82134">
        <ele>43.784412</ele>
        <time>2021-02-28T15:31:53Z</time>
      </trkpt>
      <trkpt lat="43.61519" lon="3.82157">
        <ele>45.301258</ele>
        <time>2021-02-28T15:31:58Z</time>
      </trkpt>
      <trkpt lat="43.61516" lon="3.8218">
        <ele>45.972733</ele>
        <time>2021-02-28T15:32:03Z</time>
      </trkpt>
      <trkpt lat="43.61514" lon="3.82201">
        <ele>46.903866</ele>
        <time>2021-02-28T15:32:08Z</time>
      </trkpt>
      <trkpt lat="43.61496" lon="3.82207">
        <ele>47.713337</ele>
        <time>2021-02-28T15:32:13Z</time>
      </trkpt>
      <trkpt lat="43.61474" lon="3.82209">
        <ele>47.717472</ele>
        <time>2021-02-28T15:32:18Z</time>
      </trkpt>
      <trkpt lat="43.61451" lon="3.82216">
        <ele>47.647861</ele>
        <time>2021-02-28T15:32:23Z</time>
      </trkpt>
      <trkpt lat="43.61434" lon="3.82227">
        <ele>45.843018</ele>
        <time>2021-02-28T15:32:28Z</time>
      </trkpt>
      <trkpt lat="43.61424" lon="3.82234">
        <ele>44.756592</ele>
        <time>2021-02-28T15:32:33Z</time>
      </trkpt>
      <trkpt lat="43.61408" lon="3.82245">
        <ele>44.591553</ele>
        <time>2021-02-28T15:32:38Z</time>
      </trkpt>
      <trkpt lat="43.61395" lon="3.82257">
        <ele>44.404785</ele>
        <time>2021-02-28T15:32:43Z</time>
      </trkpt>
      <trkpt lat="43.61382" lon="3.82262">
        <ele>44.287598</ele>
        <time>2021-02-28T15:32:48Z</time>
      </trkpt>
      <trkpt lat="43.61369" lon="3.82266">
        <ele>44.012939</ele>
        <time>2021-02-28T15:32:53Z</time>
      </trkpt>
      <trkpt lat="43.61357" lon="3.82275">
        <ele>43.666016</ele>
        <time>2021-02-28T15:32:58Z</time>
      </trkpt>
      <trkpt lat="43.61349" lon="3.82284">
        <ele>43.590168</ele>
        <time>2021-02-28T15:33:03Z</time>
      </trkpt>
      <trkpt lat="43.61341" lon="3.82293">
        <ele>43.718586</ele>
        <time>2021-02-28T15:33:08Z</time>
      </trkpt>
      <trkpt lat="43.61328" lon="3.82303">
        <ele>43.896076</ele>
        <time>2021-02-28T15:33:13Z</time>
      </trkpt>
      <trkpt lat="43.61312" lon="3.8232">
        <ele>43.972412</ele>
        <time>2021-02-28T15:33:18Z</time>
      </trkpt>
      <trkpt lat="43.61308" lon="3.8234">
        <ele>44.225048</ele>
        <time>2021-02-28T15:33:23Z</time>
      </trkpt>
      <trkpt lat="43.6131" lon="3.82368">
        <ele>44.931168</ele>
        <time>2021-02-28T15:33:28Z</time>
      </trkpt>
      <trkpt lat="43.61313" lon="3.82395">
        <ele>46.584324</ele>
        <time>2021-02-28T15:33:33Z</time>
      </trkpt>
      <trkpt lat="43.61313" lon="3.8242">
        <ele>48.172974</ele>
        <time>2021-02-28T15:33:38Z</time>
      </trkpt>
      <trkpt lat="43.61307" lon="3.82445">
        <ele>49.633953</ele>
        <time>2021-02-28T15:33:43Z</time>
      </trkpt>
      <trkpt lat="43.613" lon="3.82469">
        <ele>51.064129</ele>
        <time>2021-02-28T15:33:48Z</time>
      </trkpt>
      <trkpt lat="43.6129" lon="3.82484">
        <ele>52.361317</ele>
        <time>2021-02-28T15:33:53Z</time>
      </trkpt>
      <trkpt lat="43.61275" lon="3.82499">
        <ele>53.771244</ele>
        <time>2021-02-28T15:33:58Z</time>
      </trkpt>
      <trkpt lat="43.61261" lon="3.8251">
        <ele>55.51897</ele>
        <time>2021-02-28T15:34:03Z</time>
      </trkpt>
      <trkpt lat="43.61249" lon="3.82517">
        <ele>57.124496</ele>
        <time>2021-02-28T15:34:08Z</time>
      </trkpt>
      <trkpt lat="43.61237" lon="3.8253">
        <ele>58.552719</ele>
        <time>2021-02-28T15:34:13Z</time>
      </trkpt>
      <trkpt lat="43.61221" lon="3.82542">
        <ele>60.198883</ele>
        <time>2021-02-28T15:34:18Z</time>
      </trkpt>
      <trkpt lat="43.61208" lon="3.8256">
        <ele>60.852417</ele>
        <time>2021-02-28T15:34:23Z</time>
      </trkpt>
      <trkpt lat="43.61203" lon="3.82585">
        <ele>61.562042</ele>
        <time>2021-02-28T15:34:28Z</time>
      </trkpt>
      <trkpt lat="43.61198" lon="3.82608">
        <ele>64.995361</ele>
        <time>2021-02-28T15:34:33Z</time>
      </trkpt>
      <trkpt lat="43.61194" lon="3.8263">
        <ele>66.474846</ele>
        <time>2021-02-28T15:34:38Z</time>
      </trkpt>
      <trkpt lat="43.61188" lon="3.82655">
        <ele>66.58461</ele>
        <time>2021-02-28T15:34:43Z</time>
      </trkpt>
      <trkpt lat="43.61183" lon="3.8268">
        <ele>66.576683</ele>
        <time>2021-02-28T15:34:48Z</time>
      </trkpt>
      <trkpt lat="43.61178" lon="3.82706">
        <ele>66.295799</ele>
        <time>2021-02-28T15:34:53Z</time>
      </trkpt>
      <trkpt lat="43.61173" lon="3.82733">
        <ele>65.647346</ele>
        <time>2021-02-28T15:34:58Z</time>
      </trkpt>
      <trkpt lat="43.61167" lon="3.82759">
        <ele>64.89547</ele>
        <time>2021-02-28T15:35:03Z</time>
      </trkpt>
      <trkpt lat="43.61162" lon="3.82785">
        <ele>64.518135</ele>
        <time>2021-02-28T15:35:08Z</time>
      </trkpt>
      <trkpt lat="43.61161" lon="3.82812">
        <ele>64.27253</ele>
        <time>2021-02-28T15:35:13Z</time>
      </trkpt>
      <trkpt lat="43.61161" lon="3.82834">
        <ele>64.023094</ele>
        <time>2021-02-28T15:35:18Z</time>
      </trkpt>
      <trkpt lat="43.61167" lon="3.82856">
        <ele>63.975147</ele>
        <time>2021-02-28T15:35:23Z</time>
      </trkpt>
      <trkpt lat="43.6117" lon="3.82882">
        <ele>63.853649</ele>
        <time>2021-02-28T15:35:28Z</time>
      </trkpt>
      <trkpt lat="43.6116" lon="3.82882">
        <ele>63.849102</ele>
        <time>2021-02-28T15:35:33Z</time>
      </trkpt>
      <trkpt lat="43.61149" lon="3.82874">
        <ele>64.193977</ele>
        <time>2021-02-28T15:35:38Z</time>
      </trkpt>
      <trkpt lat="43.61146" lon="3.8287">
        <ele>64.756287</ele>
        <time>2021-02-28T15:35:43Z</time>
      </trkpt>
    </trkseg>
  </trk>
</gpx>